Darstellungsparameter: Aktuell verwendete Einstellungen:
Skalierung der Graphiken ... ?
xyx+y,   Skalierungsfaktor:      Skalierung: Modus: x, Faktor: 1
Darstellungszeitraum ... ?
Vom - - bis: - -   Zeitraum: 04.03.2020 - 10.03.2020
Min/Max/Avg-Anzeige ... ?
Zeige MMA aktuell
Zeige MMA Monat
Zeige MMA alles
Zeige --A aktuell
Zeige --A Monat
Zeige --A alles
Keine MMA-Anzeige
MMA:
Keine MMA-Graphiken
MMA-Basis: 04.03.2020 - 10.03.2020
Quicknavigation für Darstellung... ?
Tage:      1T, 2T, 3T, 5T -1T -2T -3T -5T +1T +2T +3T +5T
Wochen: 1W, 2W, 3W -1W -2W -3W +1W +2W +3W
Monate: 1M, 3M, 6M -1M -3M -6M +1M +3M +6M
Jahre:    1J, 3J, 5J, 10J -1J -3J -5J -10J +1J +3J +5J +10J
Nutze für die Darstellung ... ?
Originaldaten oder Mittelwerte auf ...
Stundenbasis Tagesbasis Wochenbasis
Monatsbasis Jahresbasis      Datenbasis: Original-Daten
Darstellen als:
Statistik (Auto) Statistik J:M      Darstellung:
Zur Graphik,    zurück zur Übersicht aller Sensoren.
 
Tabellarische Datenbersicht: ?
 
Sensor: Nr:Datum:Temp:Abs-Feuchte:Windchill:Wind:
Aussen-T/F 1 04-03-2020 00:00:00 3.1 C 5.63 g/m*3 1.4 C 6.4 km/h
2 04-03-2020 00:05:00 3.1 C 5.63 g/m*3 3.1 C 3.2 km/h
3 04-03-2020 00:10:00 3.2 C 5.66 g/m*3 3.2 C 1.6 km/h
4 04-03-2020 00:15:00 3.2 C 5.66 g/m*3 3.2 C 3.2 km/h
5 04-03-2020 00:20:00 3.2 C 5.66 g/m*3 3.2 C 3.2 km/h
6 04-03-2020 00:25:00 3.2 C 5.66 g/m*3 3.2 C 3.2 km/h
7 04-03-2020 00:30:00 3.2 C 5.66 g/m*3 3.2 C 3.2 km/h
8 04-03-2020 00:35:00 3.2 C 5.66 g/m*3 3.2 C 3.2 km/h
9 04-03-2020 00:40:00 3.2 C 5.66 g/m*3 1.51 C 6.4 km/h
10 04-03-2020 00:45:00 3.2 C 5.6 g/m*3 3.2 C 3.2 km/h
11 04-03-2020 00:50:00 3.2 C 5.6 g/m*3 3.2 C 3.2 km/h
12 04-03-2020 00:55:00 3.1 C 5.57 g/m*3 3.1 C 1.6 km/h
13 04-03-2020 01:00:00 3 C 5.53 g/m*3 3 C 1.6 km/h
14 04-03-2020 01:05:00 2.9 C 5.49 g/m*3 1.17 C 6.4 km/h
15 04-03-2020 01:10:00 2.9 C 5.49 g/m*3 0.64 C 8.1 km/h
16 04-03-2020 01:15:00 3 C 5.53 g/m*3 0.76 C 8.1 km/h
17 04-03-2020 01:20:00 3 C 5.53 g/m*3 3 C 4.8 km/h
18 04-03-2020 01:25:00 3 C 5.53 g/m*3 -0.34 C 12.9 km/h
19 04-03-2020 01:30:00 2.9 C 5.49 g/m*3 1.17 C 6.4 km/h
20 04-03-2020 01:35:00 2.9 C 5.49 g/m*3 0.64 C 8.1 km/h
21 04-03-2020 01:40:00 2.9 C 5.43 g/m*3 1.17 C 6.4 km/h
22 04-03-2020 01:45:00 2.9 C 5.49 g/m*3 0.64 C 8.1 km/h
23 04-03-2020 01:50:00 2.9 C 5.49 g/m*3 0.64 C 8.1 km/h
24 04-03-2020 01:55:00 2.9 C 5.43 g/m*3 -0.14 C 11.3 km/h
25 04-03-2020 02:00:00 3 C 5.47 g/m*3 0.76 C 8.1 km/h
Sensor: Nr:Datum:Temp:Abs-Feuchte:Windchill:Wind:
Aussen-T/F 26 04-03-2020 02:05:00 3 C 5.47 g/m*3 0.34 C 9.7 km/h
27 04-03-2020 02:10:00 3.1 C 5.51 g/m*3 0.1 C 11.3 km/h
28 04-03-2020 02:15:00 3.1 C 5.51 g/m*3 0.46 C 9.7 km/h
29 04-03-2020 02:20:00 3.2 C 5.54 g/m*3 0.99 C 8.1 km/h
30 04-03-2020 02:25:00 3.2 C 5.54 g/m*3 0.58 C 9.7 km/h
31 04-03-2020 02:30:00 3.2 C 5.54 g/m*3 -0.39 C 14.5 km/h
32 04-03-2020 02:35:00 3.3 C 5.58 g/m*3 -0.26 C 14.5 km/h
33 04-03-2020 02:40:00 3.4 C 5.62 g/m*3 0.82 C 9.7 km/h
34 04-03-2020 02:45:00 3.5 C 5.66 g/m*3 0.94 C 9.7 km/h
35 04-03-2020 02:50:00 3.7 C 5.67 g/m*3 1.58 C 8.1 km/h
36 04-03-2020 02:55:00 3.8 C 5.71 g/m*3 2.21 C 6.4 km/h
37 04-03-2020 03:00:00 3.8 C 5.71 g/m*3 0.94 C 11.3 km/h
38 04-03-2020 03:05:00 3.8 C 5.71 g/m*3 1.7 C 8.1 km/h
39 04-03-2020 03:10:00 3.9 C 5.68 g/m*3 3.9 C 4.8 km/h
40 04-03-2020 03:15:00 3.9 C 5.68 g/m*3 3.9 C 3.2 km/h
41 04-03-2020 03:20:00 3.8 C 5.65 g/m*3 2.21 C 6.4 km/h
42 04-03-2020 03:25:00 3.9 C 5.68 g/m*3 1.41 C 9.7 km/h
43 04-03-2020 03:30:00 3.9 C 5.68 g/m*3 3.9 C 3.2 km/h
44 04-03-2020 03:35:00 3.9 C 5.68 g/m*3 3.9 C 0 km/h
45 04-03-2020 03:40:00 3.8 C 5.65 g/m*3 3.8 C 0 km/h
46 04-03-2020 03:45:00 3.8 C 5.65 g/m*3 3.8 C 0 km/h
47 04-03-2020 03:50:00 3.8 C 5.65 g/m*3 3.8 C 0 km/h
48 04-03-2020 03:55:00 3.6 C 5.57 g/m*3 3.6 C 3.2 km/h
49 04-03-2020 04:00:00 3.6 C 5.57 g/m*3 3.6 C 3.2 km/h
50 04-03-2020 04:05:00 3.6 C 5.63 g/m*3 1.06 C 9.7 km/h
Sensor: Nr:Datum:Temp:Abs-Feuchte:Windchill:Wind:
Aussen-T/F 51 04-03-2020 04:10:00 3.7 C 5.67 g/m*3 2.09 C 6.4 km/h
52 04-03-2020 04:15:00 3.8 C 5.71 g/m*3 0.94 C 11.3 km/h
53 04-03-2020 04:20:00 3.9 C 5.75 g/m*3 1.41 C 9.7 km/h
54 04-03-2020 04:25:00 3.9 C 5.68 g/m*3 0.75 C 12.9 km/h
55 04-03-2020 04:30:00 4.1 C 5.76 g/m*3 1.65 C 9.7 km/h
56 04-03-2020 04:35:00 4.1 C 5.76 g/m*3 1 C 12.9 km/h
57 04-03-2020 04:40:00 4.2 C 5.8 g/m*3 2.17 C 8.1 km/h
58 04-03-2020 04:45:00 4.2 C 5.8 g/m*3 2.17 C 8.1 km/h
59 04-03-2020 04:50:00 4.2 C 5.8 g/m*3 1.77 C 9.7 km/h
60 04-03-2020 04:55:00 4.2 C 5.8 g/m*3 1.43 C 11.3 km/h
61 04-03-2020 05:00:00 4.2 C 5.8 g/m*3 2.67 C 6.4 km/h
62 04-03-2020 05:05:00 4.2 C 5.8 g/m*3 2.67 C 6.4 km/h
63 04-03-2020 05:10:00 4.2 C 5.8 g/m*3 2.17 C 8.1 km/h
64 04-03-2020 05:15:00 4.2 C 5.86 g/m*3 1.77 C 9.7 km/h
65 04-03-2020 05:20:00 4.2 C 5.86 g/m*3 1.77 C 9.7 km/h
66 04-03-2020 05:25:00 4.1 C 5.89 g/m*3 1.31 C 11.3 km/h
67 04-03-2020 05:30:00 4.1 C 5.89 g/m*3 2.55 C 6.4 km/h
68 04-03-2020 05:35:00 4.1 C 5.89 g/m*3 1 C 12.9 km/h
69 04-03-2020 05:40:00 4 C 5.85 g/m*3 1.93 C 8.1 km/h
70 04-03-2020 05:45:00 4 C 5.91 g/m*3 1.18 C 11.3 km/h
71 04-03-2020 05:50:00 4 C 5.91 g/m*3 1.18 C 11.3 km/h
72 04-03-2020 05:55:00 4 C 5.91 g/m*3 1.18 C 11.3 km/h
73 04-03-2020 06:00:00 4 C 5.91 g/m*3 1.18 C 11.3 km/h
74 04-03-2020 06:05:00 4 C 5.91 g/m*3 1.53 C 9.7 km/h
75 04-03-2020 06:10:00 4.1 C 5.95 g/m*3 2.55 C 6.4 km/h
Sensor: Nr:Datum:Temp:Abs-Feuchte:Windchill:Wind:
Aussen-T/F 76 04-03-2020 06:15:00 4.1 C 5.95 g/m*3 2.05 C 8.1 km/h
77 04-03-2020 06:20:00 4.1 C 5.95 g/m*3 2.05 C 8.1 km/h
78 04-03-2020 06:25:00 4.1 C 5.95 g/m*3 1.31 C 11.3 km/h
79 04-03-2020 06:30:00 4.1 C 5.95 g/m*3 2.05 C 8.1 km/h
80 04-03-2020 06:35:00 4.1 C 5.95 g/m*3 1 C 12.9 km/h
81 04-03-2020 06:40:00 4.2 C 5.99 g/m*3 1.77 C 9.7 km/h
82 04-03-2020 06:45:00 4.2 C 5.93 g/m*3 1.77 C 9.7 km/h
83 04-03-2020 06:50:00 4.3 C 5.97 g/m*3 0.72 C 16.1 km/h
84 04-03-2020 06:55:00 4.3 C 5.97 g/m*3 1.55 C 11.3 km/h
85 04-03-2020 07:00:00 4.3 C 5.97 g/m*3 1.89 C 9.7 km/h
86 04-03-2020 07:05:00 4.3 C 5.97 g/m*3 1.89 C 9.7 km/h
87 04-03-2020 07:10:00 4.3 C 5.97 g/m*3 2.78 C 6.4 km/h
88 04-03-2020 07:15:00 4.3 C 5.97 g/m*3 1.89 C 9.7 km/h
89 04-03-2020 07:20:00 4.3 C 5.97 g/m*3 1.55 C 11.3 km/h
90 04-03-2020 07:25:00 4.4 C 6.01 g/m*3 2.4 C 8.1 km/h
91 04-03-2020 07:30:00 4.4 C 6.01 g/m*3 1.09 C 14.5 km/h
92 04-03-2020 07:35:00 4.5 C 5.98 g/m*3 2.13 C 9.7 km/h
93 04-03-2020 07:40:00 4.5 C 5.98 g/m*3 1.79 C 11.3 km/h
94 04-03-2020 07:45:00 4.6 C 6.02 g/m*3 1.61 C 12.9 km/h
95 04-03-2020 07:50:00 4.6 C 6.02 g/m*3 2.64 C 8.1 km/h
96 04-03-2020 07:55:00 4.6 C 6.02 g/m*3 3.13 C 6.4 km/h
97 04-03-2020 08:00:00 4.5 C 5.98 g/m*3 2.52 C 8.1 km/h
98 04-03-2020 08:05:00 4.4 C 5.94 g/m*3 2.9 C 6.4 km/h
99 04-03-2020 08:10:00 4.3 C 5.9 g/m*3 1.89 C 9.7 km/h
100 04-03-2020 08:15:00 4.3 C 5.9 g/m*3 2.78 C 6.4 km/h
Sensor: Nr:Datum:Temp:Abs-Feuchte:Windchill:Wind:
Aussen-T/F 101 04-03-2020 08:20:00 4.3 C 5.9 g/m*3 4.3 C 4.8 km/h
102 04-03-2020 08:25:00 4.3 C 5.9 g/m*3 1.89 C 9.7 km/h
103 04-03-2020 08:30:00 4.4 C 5.94 g/m*3 2.9 C 6.4 km/h
104 04-03-2020 08:35:00 4.4 C 5.94 g/m*3 2.4 C 8.1 km/h
105 04-03-2020 08:40:00 4.4 C 5.94 g/m*3 2.4 C 8.1 km/h
106 04-03-2020 08:45:00 4.4 C 5.94 g/m*3 1.67 C 11.3 km/h
107 04-03-2020 08:50:00 4.5 C 5.98 g/m*3 1.48 C 12.9 km/h
108 04-03-2020 08:55:00 4.5 C 5.98 g/m*3 3.02 C 6.4 km/h
109 04-03-2020 09:00:00 4.5 C 5.98 g/m*3 3.02 C 6.4 km/h
110 04-03-2020 09:05:00 4.6 C 6.02 g/m*3 2.25 C 9.7 km/h
111 04-03-2020 09:10:00 4.7 C 6.06 g/m*3 3.25 C 6.4 km/h
112 04-03-2020 09:15:00 4.7 C 6 g/m*3 2.37 C 9.7 km/h
113 04-03-2020 09:20:00 4.8 C 6.04 g/m*3 1.85 C 12.9 km/h
114 04-03-2020 09:25:00 4.9 C 6.08 g/m*3 1.97 C 12.9 km/h
115 04-03-2020 09:30:00 5.1 C 6.09 g/m*3 2.22 C 12.9 km/h
116 04-03-2020 09:35:00 5.1 C 6.09 g/m*3 2.22 C 12.9 km/h
117 04-03-2020 09:40:00 5.2 C 6.06 g/m*3 2.34 C 12.9 km/h
118 04-03-2020 09:45:00 5.3 C 6.1 g/m*3 1.16 C 22.5 km/h
119 04-03-2020 09:50:00 5.5 C 6.18 g/m*3 1.42 C 22.5 km/h
120 04-03-2020 09:55:00 5.7 C 6.19 g/m*3 2.69 C 14.5 km/h
121 04-03-2020 10:00:00 5.8 C 6.16 g/m*3 2.58 C 16.1 km/h
122 04-03-2020 10:05:00 5.9 C 6.2 g/m*3 2.93 C 14.5 km/h
123 04-03-2020 10:10:00 6 C 6.24 g/m*3 2.41 C 19.3 km/h
124 04-03-2020 10:15:00 6.1 C 6.21 g/m*3 2.73 C 17.7 km/h
125 04-03-2020 10:20:00 6.2 C 6.25 g/m*3 3.3 C 14.5 km/h
Sensor: Nr:Datum:Temp:Abs-Feuchte:Windchill:Wind:
Aussen-T/F 126 04-03-2020 10:25:00 6.2 C 6.25 g/m*3 2.86 C 17.7 km/h
127 04-03-2020 10:30:00 6.3 C 6.22 g/m*3 3.43 C 14.5 km/h
128 04-03-2020 10:35:00 6.5 C 6.3 g/m*3 4.51 C 9.7 km/h
129 04-03-2020 10:40:00 6.6 C 6.27 g/m*3 2.99 C 20.9 km/h
130 04-03-2020 10:45:00 6.7 C 6.31 g/m*3 3.69 C 16.1 km/h
131 04-03-2020 10:50:00 6.7 C 6.31 g/m*3 4.17 C 12.9 km/h
132 04-03-2020 10:55:00 6.7 C 6.31 g/m*3 3.69 C 16.1 km/h
133 04-03-2020 11:00:00 6.8 C 6.35 g/m*3 4.04 C 14.5 km/h
134 04-03-2020 11:05:00 6.9 C 6.31 g/m*3 3.73 C 17.7 km/h
135 04-03-2020 11:10:00 7.1 C 6.4 g/m*3 3.8 C 19.3 km/h
136 04-03-2020 11:15:00 7.2 C 6.44 g/m*3 5.04 C 11.3 km/h
137 04-03-2020 11:20:00 7.4 C 6.44 g/m*3 4.36 C 17.7 km/h
138 04-03-2020 11:25:00 7.5 C 6.4 g/m*3 4.48 C 17.7 km/h
139 04-03-2020 11:30:00 7.6 C 6.44 g/m*3 5.02 C 14.5 km/h
140 04-03-2020 11:35:00 7.6 C 6.44 g/m*3 4.61 C 17.7 km/h
141 04-03-2020 11:40:00 7.7 C 6.41 g/m*3 5.94 C 9.7 km/h
142 04-03-2020 11:45:00 7.8 C 6.45 g/m*3 5.51 C 12.9 km/h
143 04-03-2020 11:50:00 8 C 6.45 g/m*3 5.75 C 12.9 km/h
144 04-03-2020 11:55:00 8.1 C 6.49 g/m*3 6.42 C 9.7 km/h
145 04-03-2020 12:00:00 8.2 C 6.45 g/m*3 5.55 C 16.1 km/h
146 04-03-2020 12:05:00 8.3 C 6.49 g/m*3 5.89 C 14.5 km/h
147 04-03-2020 12:10:00 8.4 C 6.53 g/m*3 6.78 C 9.7 km/h
148 04-03-2020 12:15:00 8.6 C 6.62 g/m*3 6.05 C 16.1 km/h
149 04-03-2020 12:20:00 8.8 C 6.7 g/m*3 7.25 C 9.7 km/h
150 04-03-2020 12:25:00 9 C 6.61 g/m*3 7.81 C 8.1 km/h
Sensor: Nr:Datum:Temp:Abs-Feuchte:Windchill:Wind:
Aussen-T/F 151 04-03-2020 12:30:00 9.1 C 6.57 g/m*3 6.48 C 17.7 km/h
152 04-03-2020 12:35:00 9.2 C 6.7 g/m*3 6.79 C 16.1 km/h
153 04-03-2020 12:40:00 9.2 C 6.61 g/m*3 7.73 C 9.7 km/h
154 04-03-2020 12:45:00 9.3 C 6.56 g/m*3 6.92 C 16.1 km/h
155 04-03-2020 12:50:00 9.3 C 6.56 g/m*3 7.12 C 14.5 km/h
156 04-03-2020 12:55:00 9.3 C 6.56 g/m*3 6.56 C 19.3 km/h
157 04-03-2020 13:00:00 9.2 C 6.52 g/m*3 6.79 C 16.1 km/h
158 04-03-2020 13:05:00 9.1 C 6.48 g/m*3 7.09 C 12.9 km/h
159 04-03-2020 13:10:00 9.1 C 6.48 g/m*3 6.67 C 16.1 km/h
160 04-03-2020 13:15:00 9.1 C 6.48 g/m*3 6.67 C 16.1 km/h
161 04-03-2020 13:20:00 9.1 C 6.48 g/m*3 6.31 C 19.3 km/h
162 04-03-2020 13:25:00 9.2 C 6.52 g/m*3 7.21 C 12.9 km/h
163 04-03-2020 13:30:00 9.3 C 6.56 g/m*3 7.12 C 14.5 km/h
164 04-03-2020 13:35:00 9.2 C 6.52 g/m*3 6.61 C 17.7 km/h
165 04-03-2020 13:40:00 9.1 C 6.39 g/m*3 6.31 C 19.3 km/h
166 04-03-2020 13:45:00 8.8 C 6.27 g/m*3 6.11 C 17.7 km/h
167 04-03-2020 13:50:00 8.9 C 6.39 g/m*3 6.62 C 14.5 km/h
168 04-03-2020 13:55:00 9.2 C 6.43 g/m*3 7.21 C 12.9 km/h
169 04-03-2020 14:00:00 9.4 C 6.42 g/m*3 6.38 C 22.5 km/h
170 04-03-2020 14:05:00 9.6 C 6.41 g/m*3 6.94 C 19.3 km/h
171 04-03-2020 14:10:00 9.7 C 6.55 g/m*3 7.41 C 16.1 km/h
172 04-03-2020 14:15:00 9.8 C 6.49 g/m*3 7.19 C 19.3 km/h
173 04-03-2020 14:20:00 9.8 C 6.4 g/m*3 7.04 C 20.9 km/h
174 04-03-2020 14:25:00 9.8 C 6.49 g/m*3 7.54 C 16.1 km/h
175 04-03-2020 14:30:00 9.8 C 6.4 g/m*3 7.36 C 17.7 km/h
Sensor: Nr:Datum:Temp:Abs-Feuchte:Windchill:Wind:
Aussen-T/F 176 04-03-2020 14:35:00 9.7 C 6.27 g/m*3 7.23 C 17.7 km/h
177 04-03-2020 14:40:00 9.6 C 6.5 g/m*3 7.48 C 14.5 km/h
178 04-03-2020 14:45:00 9.5 C 6.46 g/m*3 7.16 C 16.1 km/h
179 04-03-2020 14:50:00 9.3 C 6.47 g/m*3 6.26 C 22.5 km/h
180 04-03-2020 14:55:00 9.1 C 6.48 g/m*3 6.48 C 17.7 km/h
181 04-03-2020 15:00:00 9 C 6.44 g/m*3 6.36 C 17.7 km/h
182 04-03-2020 15:05:00 9 C 6.52 g/m*3 7.49 C 9.7 km/h
183 04-03-2020 15:10:00 9.1 C 6.57 g/m*3 7.33 C 11.3 km/h
184 04-03-2020 15:15:00 9.2 C 6.52 g/m*3 7.21 C 12.9 km/h
185 04-03-2020 15:20:00 9.1 C 6.39 g/m*3 6 C 22.5 km/h
186 04-03-2020 15:25:00 9.2 C 6.52 g/m*3 6.13 C 22.5 km/h
187 04-03-2020 15:30:00 9.2 C 6.34 g/m*3 6.13 C 22.5 km/h
188 04-03-2020 15:35:00 9.1 C 6.48 g/m*3 6.48 C 17.7 km/h
189 04-03-2020 15:40:00 9.1 C 6.57 g/m*3 6.48 C 17.7 km/h
190 04-03-2020 15:45:00 9.2 C 6.61 g/m*3 6.99 C 14.5 km/h
191 04-03-2020 15:50:00 9.2 C 6.61 g/m*3 6.13 C 22.5 km/h
192 04-03-2020 15:55:00 9.2 C 6.61 g/m*3 6.99 C 14.5 km/h
193 04-03-2020 16:00:00 9.2 C 6.61 g/m*3 6.13 C 22.5 km/h
194 04-03-2020 16:05:00 9.2 C 6.52 g/m*3 6.61 C 17.7 km/h
195 04-03-2020 16:10:00 9.2 C 6.52 g/m*3 6.61 C 17.7 km/h
196 04-03-2020 16:15:00 9.1 C 6.48 g/m*3 6.31 C 19.3 km/h
197 04-03-2020 16:20:00 9.2 C 6.52 g/m*3 6.99 C 14.5 km/h
198 04-03-2020 16:25:00 9.1 C 6.39 g/m*3 6.87 C 14.5 km/h
199 04-03-2020 16:30:00 8.9 C 6.31 g/m*3 6.42 C 16.1 km/h
200 04-03-2020 16:35:00 8.8 C 6.35 g/m*3 7.25 C 9.7 km/h
Sensor: Nr:Datum:Temp:Abs-Feuchte:Windchill:Wind:
Aussen-T/F 201 04-03-2020 16:40:00 8.8 C 6.35 g/m*3 6.97 C 11.3 km/h
202 04-03-2020 16:45:00 8.9 C 6.31 g/m*3 7.09 C 11.3 km/h
203 04-03-2020 16:50:00 9 C 6.35 g/m*3 7.49 C 9.7 km/h
204 04-03-2020 16:55:00 9 C 6.26 g/m*3 6.75 C 14.5 km/h
205 04-03-2020 17:00:00 9.1 C 6.3 g/m*3 7.61 C 9.7 km/h
206 04-03-2020 17:05:00 9.1 C 6.3 g/m*3 7.33 C 11.3 km/h
207 04-03-2020 17:10:00 9.1 C 6.3 g/m*3 7.09 C 12.9 km/h
208 04-03-2020 17:15:00 9.2 C 6.43 g/m*3 7.73 C 9.7 km/h
209 04-03-2020 17:20:00 9.2 C 6.34 g/m*3 7.21 C 12.9 km/h
210 04-03-2020 17:25:00 8.9 C 6.13 g/m*3 6.62 C 14.5 km/h
211 04-03-2020 17:30:00 8.7 C 6.23 g/m*3 8.7 C 4.8 km/h
212 04-03-2020 17:35:00 8.6 C 6.27 g/m*3 8.6 C 1.6 km/h
213 04-03-2020 17:40:00 8.4 C 6.28 g/m*3 8.4 C 1.6 km/h
214 04-03-2020 17:45:00 8.3 C 6.32 g/m*3 8.3 C 1.6 km/h
215 04-03-2020 17:50:00 8.1 C 6.32 g/m*3 8.1 C 3.2 km/h
216 04-03-2020 17:55:00 7.7 C 6.24 g/m*3 7.7 C 4.8 km/h
217 04-03-2020 18:00:00 7.3 C 6.16 g/m*3 7.3 C 4.8 km/h
218 04-03-2020 18:05:00 6.9 C 6.16 g/m*3 6.9 C 4.8 km/h
219 04-03-2020 18:10:00 6.6 C 6.11 g/m*3 6.6 C 4.8 km/h
220 04-03-2020 18:15:00 6.2 C 6.03 g/m*3 6.2 C 4.8 km/h
221 04-03-2020 18:20:00 5.9 C 5.98 g/m*3 5.9 C 4.8 km/h
222 04-03-2020 18:25:00 5.7 C 5.98 g/m*3 5.7 C 4.8 km/h
223 04-03-2020 18:30:00 5.5 C 5.9 g/m*3 5.5 C 4.8 km/h
224 04-03-2020 18:35:00 5.3 C 5.89 g/m*3 5.3 C 4.8 km/h
225 04-03-2020 18:40:00 5.1 C 5.88 g/m*3 5.1 C 4.8 km/h
Sensor: Nr:Datum:Temp:Abs-Feuchte:Windchill:Wind:
Aussen-T/F 226 04-03-2020 18:45:00 4.9 C 5.81 g/m*3 4.9 C 4.8 km/h
227 04-03-2020 18:50:00 4.8 C 5.83 g/m*3 4.8 C 4.8 km/h
228 04-03-2020 18:55:00 4.6 C 5.76 g/m*3 4.6 C 4.8 km/h
229 04-03-2020 19:00:00 4.5 C 5.72 g/m*3 4.5 C 4.8 km/h
230 04-03-2020 19:05:00 4.3 C 5.71 g/m*3 4.3 C 4.8 km/h
231 04-03-2020 19:10:00 4.3 C 5.71 g/m*3 4.3 C 4.8 km/h
232 04-03-2020 19:15:00 4.2 C 5.73 g/m*3 4.2 C 4.8 km/h
233 04-03-2020 19:20:00 4.2 C 5.73 g/m*3 4.2 C 4.8 km/h
234 04-03-2020 19:25:00 4.2 C 5.8 g/m*3 4.2 C 4.8 km/h
235 04-03-2020 19:30:00 4.2 C 5.8 g/m*3 4.2 C 4.8 km/h
236 04-03-2020 19:35:00 4.2 C 5.8 g/m*3 4.2 C 4.8 km/h
237 04-03-2020 19:40:00 4.2 C 5.8 g/m*3 4.2 C 4.8 km/h
238 04-03-2020 19:45:00 4.2 C 5.8 g/m*3 4.2 C 4.8 km/h
239 04-03-2020 19:50:00 4.2 C 5.8 g/m*3 4.2 C 4.8 km/h
240 04-03-2020 19:55:00 4.2 C 5.8 g/m*3 4.2 C 4.8 km/h
241 04-03-2020 20:00:00 4.2 C 5.8 g/m*3 4.2 C 0 km/h
242 04-03-2020 20:05:00 4.1 C 5.82 g/m*3 4.1 C 3.2 km/h
243 04-03-2020 20:10:00 4.1 C 5.82 g/m*3 4.1 C 1.6 km/h
244 04-03-2020 20:15:00 4.1 C 5.82 g/m*3 4.1 C 3.2 km/h
245 04-03-2020 20:20:00 4.1 C 5.82 g/m*3 4.1 C 1.6 km/h
246 04-03-2020 20:25:00 4.1 C 5.82 g/m*3 4.1 C 4.8 km/h
247 04-03-2020 20:30:00 4 C 5.79 g/m*3 4 C 1.6 km/h
248 04-03-2020 20:35:00 3.9 C 5.75 g/m*3 3.9 C 3.2 km/h
249 04-03-2020 20:40:00 3.8 C 5.71 g/m*3 3.8 C 4.8 km/h
250 04-03-2020 20:45:00 3.7 C 5.67 g/m*3 3.7 C 4.8 km/h
Sensor: Nr:Datum:Temp:Abs-Feuchte:Windchill:Wind:
Aussen-T/F 251 04-03-2020 20:50:00 3.7 C 5.67 g/m*3 3.7 C 3.2 km/h
252 04-03-2020 20:55:00 3.6 C 5.63 g/m*3 3.6 C 1.6 km/h
253 04-03-2020 21:00:00 3.4 C 5.56 g/m*3 3.4 C 0 km/h
254 04-03-2020 21:05:00 3.4 C 5.56 g/m*3 3.4 C 4.8 km/h
255 04-03-2020 21:10:00 3.3 C 5.58 g/m*3 3.3 C 4.8 km/h
256 04-03-2020 21:15:00 3.3 C 5.58 g/m*3 3.3 C 3.2 km/h
257 04-03-2020 21:20:00 3.2 C 5.54 g/m*3 3.2 C 3.2 km/h
258 04-03-2020 21:25:00 3.2 C 5.54 g/m*3 3.2 C 3.2 km/h
259 04-03-2020 21:30:00 3.3 C 5.64 g/m*3 3.3 C 4.8 km/h
260 04-03-2020 21:35:00 3.3 C 5.64 g/m*3 3.3 C 3.2 km/h
261 04-03-2020 21:40:00 3.4 C 5.68 g/m*3 3.4 C 4.8 km/h
262 04-03-2020 21:45:00 3.4 C 5.68 g/m*3 3.4 C 3.2 km/h
263 04-03-2020 21:50:00 3.4 C 5.68 g/m*3 3.4 C 4.8 km/h
264 04-03-2020 21:55:00 3.6 C 5.76 g/m*3 3.6 C 4.8 km/h
265 04-03-2020 22:00:00 3.6 C 5.76 g/m*3 3.6 C 3.2 km/h
266 04-03-2020 22:05:00 3.5 C 5.72 g/m*3 3.5 C 0 km/h
267 04-03-2020 22:10:00 3.4 C 5.62 g/m*3 3.4 C 0 km/h
268 04-03-2020 22:15:00 3.3 C 5.58 g/m*3 3.3 C 0 km/h
269 04-03-2020 22:20:00 3.3 C 5.64 g/m*3 3.3 C 0 km/h
270 04-03-2020 22:25:00 3.2 C 5.6 g/m*3 3.2 C 0 km/h
271 04-03-2020 22:30:00 3.2 C 5.6 g/m*3 3.2 C 1.6 km/h
272 04-03-2020 22:35:00 3.2 C 5.6 g/m*3 3.2 C 0 km/h
273 04-03-2020 22:40:00 3.2 C 5.6 g/m*3 3.2 C 0 km/h
274 04-03-2020 22:45:00 3.2 C 5.66 g/m*3 3.2 C 0 km/h
275 04-03-2020 22:50:00 3.3 C 5.7 g/m*3 3.3 C 0 km/h
Sensor: Nr:Datum:Temp:Abs-Feuchte:Windchill:Wind:
Aussen-T/F 276 04-03-2020 22:55:00 3.4 C 5.74 g/m*3 3.4 C 0 km/h
277 04-03-2020 23:00:00 3.5 C 5.78 g/m*3 3.5 C 1.6 km/h
278 04-03-2020 23:05:00 3.6 C 5.82 g/m*3 3.6 C 3.2 km/h
279 04-03-2020 23:10:00 3.6 C 5.82 g/m*3 3.6 C 0 km/h
280 04-03-2020 23:15:00 3.7 C 5.86 g/m*3 3.7 C 0 km/h
281 04-03-2020 23:20:00 3.7 C 5.86 g/m*3 3.7 C 0 km/h
282 04-03-2020 23:25:00 3.8 C 5.9 g/m*3 3.8 C 0 km/h
283 04-03-2020 23:30:00 3.8 C 5.9 g/m*3 3.8 C 0 km/h
284 04-03-2020 23:35:00 3.8 C 5.9 g/m*3 3.8 C 0 km/h
285 04-03-2020 23:40:00 3.9 C 5.94 g/m*3 3.9 C 0 km/h
286 04-03-2020 23:45:00 4.1 C 6.02 g/m*3 4.1 C 0 km/h
287 04-03-2020 23:50:00 4.1 C 6.02 g/m*3 4.1 C 0 km/h
288 04-03-2020 23:55:00 4.2 C 6.06 g/m*3 4.2 C 0 km/h
289 05-03-2020 00:00:00 4.2 C 6.06 g/m*3 4.2 C 0 km/h
290 05-03-2020 00:05:00 4.2 C 6.06 g/m*3 4.2 C 0 km/h
291 05-03-2020 00:10:00 4.3 C 6.1 g/m*3 4.3 C 0 km/h
292 05-03-2020 00:15:00 4.3 C 6.1 g/m*3 4.3 C 0 km/h
293 05-03-2020 00:20:00 4.3 C 6.1 g/m*3 4.3 C 0 km/h
294 05-03-2020 00:25:00 4.3 C 6.1 g/m*3 4.3 C 0 km/h
295 05-03-2020 00:30:00 4.4 C 6.2 g/m*3 4.4 C 0 km/h
296 05-03-2020 00:35:00 4.5 C 6.24 g/m*3 4.5 C 4.8 km/h
297 05-03-2020 00:40:00 4.6 C 6.29 g/m*3 4.6 C 3.2 km/h
298 05-03-2020 00:45:00 4.6 C 6.29 g/m*3 4.6 C 0 km/h
299 05-03-2020 00:50:00 4.6 C 6.29 g/m*3 4.6 C 0 km/h
300 05-03-2020 00:55:00 4.5 C 6.24 g/m*3 4.5 C 0 km/h
Sensor: Nr:Datum:Temp:Abs-Feuchte:Windchill:Wind:
Aussen-T/F 301 05-03-2020 01:00:00 4.4 C 6.14 g/m*3 4.4 C 0 km/h
302 05-03-2020 01:05:00 4.3 C 6.1 g/m*3 4.3 C 0 km/h
303 05-03-2020 01:10:00 4.3 C 6.1 g/m*3 4.3 C 0 km/h
304 05-03-2020 01:15:00 4.3 C 6.16 g/m*3 4.3 C 0 km/h
305 05-03-2020 01:20:00 4.3 C 6.16 g/m*3 4.3 C 0 km/h
306 05-03-2020 01:25:00 4.3 C 6.16 g/m*3 4.3 C 0 km/h
307 05-03-2020 01:30:00 4.3 C 6.16 g/m*3 4.3 C 0 km/h
308 05-03-2020 01:35:00 4.2 C 6.12 g/m*3 4.2 C 1.6 km/h
309 05-03-2020 01:40:00 4.2 C 6.12 g/m*3 4.2 C 1.6 km/h
310 05-03-2020 01:45:00 4.3 C 6.16 g/m*3 4.3 C 0 km/h
311 05-03-2020 01:50:00 4.3 C 6.16 g/m*3 4.3 C 3.2 km/h
312 05-03-2020 01:55:00 4.3 C 6.16 g/m*3 4.3 C 3.2 km/h
313 05-03-2020 02:00:00 4.3 C 6.16 g/m*3 4.3 C 4.8 km/h
314 05-03-2020 02:05:00 4.4 C 6.2 g/m*3 4.4 C 0 km/h
315 05-03-2020 02:10:00 4.4 C 6.2 g/m*3 4.4 C 3.2 km/h
316 05-03-2020 02:15:00 4.4 C 6.14 g/m*3 2.9 C 6.4 km/h
317 05-03-2020 02:20:00 4.5 C 6.18 g/m*3 4.5 C 3.2 km/h
318 05-03-2020 02:25:00 4.5 C 6.18 g/m*3 4.5 C 0 km/h
319 05-03-2020 02:30:00 4.5 C 6.18 g/m*3 4.5 C 3.2 km/h
320 05-03-2020 02:35:00 4.6 C 6.22 g/m*3 4.6 C 4.8 km/h
321 05-03-2020 02:40:00 4.6 C 6.22 g/m*3 4.6 C 3.2 km/h
322 05-03-2020 02:45:00 4.6 C 6.22 g/m*3 4.6 C 1.6 km/h
323 05-03-2020 02:50:00 4.7 C 6.19 g/m*3 2.37 C 9.7 km/h
324 05-03-2020 02:55:00 4.7 C 6.19 g/m*3 4.7 C 1.6 km/h
325 05-03-2020 03:00:00 4.8 C 6.17 g/m*3 4.8 C 4.8 km/h
Sensor: Nr:Datum:Temp:Abs-Feuchte:Windchill:Wind:
Aussen-T/F 326 05-03-2020 03:05:00 4.8 C 6.17 g/m*3 4.8 C 1.6 km/h
327 05-03-2020 03:10:00 4.8 C 6.17 g/m*3 4.8 C 3.2 km/h
328 05-03-2020 03:15:00 4.8 C 6.17 g/m*3 4.8 C 1.6 km/h
329 05-03-2020 03:20:00 4.8 C 6.17 g/m*3 4.8 C 3.2 km/h
330 05-03-2020 03:25:00 4.9 C 6.21 g/m*3 4.9 C 4.8 km/h
331 05-03-2020 03:30:00 4.9 C 6.21 g/m*3 4.9 C 3.2 km/h
332 05-03-2020 03:35:00 4.9 C 6.14 g/m*3 4.9 C 4.8 km/h
333 05-03-2020 03:40:00 4.9 C 6.14 g/m*3 4.9 C 3.2 km/h
334 05-03-2020 03:45:00 4.9 C 6.14 g/m*3 4.9 C 0 km/h
335 05-03-2020 03:50:00 4.9 C 6.14 g/m*3 4.9 C 1.6 km/h
336 05-03-2020 03:55:00 4.9 C 6.14 g/m*3 4.9 C 3.2 km/h
337 05-03-2020 04:00:00 4.9 C 6.14 g/m*3 4.9 C 1.6 km/h
338 05-03-2020 04:05:00 4.9 C 6.14 g/m*3 4.9 C 3.2 km/h
339 05-03-2020 04:10:00 4.9 C 6.21 g/m*3 4.9 C 3.2 km/h
340 05-03-2020 04:15:00 4.9 C 6.21 g/m*3 4.9 C 4.8 km/h
341 05-03-2020 04:20:00 4.9 C 6.21 g/m*3 2.99 C 8.1 km/h
342 05-03-2020 04:25:00 4.9 C 6.14 g/m*3 4.9 C 3.2 km/h
343 05-03-2020 04:30:00 4.9 C 6.14 g/m*3 4.9 C 4.8 km/h
344 05-03-2020 04:35:00 5 C 6.18 g/m*3 5 C 4.8 km/h
345 05-03-2020 04:40:00 5 C 6.18 g/m*3 5 C 4.8 km/h
346 05-03-2020 04:45:00 5 C 6.18 g/m*3 3.11 C 8.1 km/h
347 05-03-2020 04:50:00 5 C 6.18 g/m*3 3.59 C 6.4 km/h
348 05-03-2020 04:55:00 5 C 6.18 g/m*3 5 C 1.6 km/h
349 05-03-2020 05:00:00 5 C 6.18 g/m*3 5 C 4.8 km/h
350 05-03-2020 05:05:00 5 C 6.18 g/m*3 5 C 1.6 km/h
Sensor: Nr:Datum:Temp:Abs-Feuchte:Windchill:Wind:
Aussen-T/F 351 05-03-2020 05:10:00 5 C 6.18 g/m*3 5 C 3.2 km/h
352 05-03-2020 05:15:00 4.9 C 6.14 g/m*3 4.9 C 1.6 km/h
353 05-03-2020 05:20:00 4.9 C 6.14 g/m*3 4.9 C 4.8 km/h
354 05-03-2020 05:25:00 4.9 C 6.14 g/m*3 4.9 C 1.6 km/h
355 05-03-2020 05:30:00 4.9 C 6.14 g/m*3 4.9 C 4.8 km/h
356 05-03-2020 05:35:00 4.9 C 6.21 g/m*3 4.9 C 3.2 km/h
357 05-03-2020 05:40:00 4.9 C 6.21 g/m*3 4.9 C 4.8 km/h
358 05-03-2020 05:45:00 4.9 C 6.21 g/m*3 4.9 C 1.6 km/h
359 05-03-2020 05:50:00 4.9 C 6.21 g/m*3 4.9 C 3.2 km/h
360 05-03-2020 05:55:00 4.9 C 6.21 g/m*3 4.9 C 3.2 km/h
361 05-03-2020 06:00:00 4.9 C 6.21 g/m*3 4.9 C 3.2 km/h
362 05-03-2020 06:05:00 4.9 C 6.21 g/m*3 4.9 C 1.6 km/h
363 05-03-2020 06:10:00 4.9 C 6.14 g/m*3 3.48 C 6.4 km/h
364 05-03-2020 06:15:00 4.9 C 6.14 g/m*3 4.9 C 3.2 km/h
365 05-03-2020 06:20:00 5 C 6.18 g/m*3 3.11 C 8.1 km/h
366 05-03-2020 06:25:00 5 C 6.18 g/m*3 5 C 3.2 km/h
367 05-03-2020 06:30:00 5.1 C 6.22 g/m*3 3.71 C 6.4 km/h
368 05-03-2020 06:35:00 5.1 C 6.22 g/m*3 3.71 C 6.4 km/h
369 05-03-2020 06:40:00 5.1 C 6.22 g/m*3 5.1 C 1.6 km/h
370 05-03-2020 06:45:00 5.1 C 6.22 g/m*3 3.23 C 8.1 km/h
371 05-03-2020 06:50:00 5.1 C 6.22 g/m*3 5.1 C 3.2 km/h
372 05-03-2020 06:55:00 5.1 C 6.22 g/m*3 5.1 C 3.2 km/h
373 05-03-2020 07:00:00 5.2 C 6.27 g/m*3 5.2 C 3.2 km/h
374 05-03-2020 07:05:00 5.2 C 6.27 g/m*3 5.2 C 4.8 km/h
375 05-03-2020 07:10:00 5.2 C 6.27 g/m*3 2.96 C 9.7 km/h
Sensor: Nr:Datum:Temp:Abs-Feuchte:Windchill:Wind:
Aussen-T/F 376 05-03-2020 07:15:00 5.2 C 6.2 g/m*3 3.82 C 6.4 km/h
377 05-03-2020 07:20:00 5.2 C 6.27 g/m*3 3.34 C 8.1 km/h
378 05-03-2020 07:25:00 5.3 C 6.31 g/m*3 5.3 C 3.2 km/h
379 05-03-2020 07:30:00 5.3 C 6.31 g/m*3 5.3 C 1.6 km/h
380 05-03-2020 07:35:00 5.3 C 6.31 g/m*3 5.3 C 4.8 km/h
381 05-03-2020 07:40:00 5.3 C 6.31 g/m*3 5.3 C 3.2 km/h
382 05-03-2020 07:45:00 5.3 C 6.24 g/m*3 5.3 C 4.8 km/h
383 05-03-2020 07:50:00 5.4 C 6.35 g/m*3 5.4 C 3.2 km/h
384 05-03-2020 07:55:00 5.4 C 6.35 g/m*3 4.06 C 6.4 km/h
385 05-03-2020 08:00:00 5.4 C 6.28 g/m*3 5.4 C 4.8 km/h
386 05-03-2020 08:05:00 5.5 C 6.32 g/m*3 5.5 C 3.2 km/h
387 05-03-2020 08:10:00 5.6 C 6.43 g/m*3 4.29 C 6.4 km/h
388 05-03-2020 08:15:00 5.6 C 6.43 g/m*3 4.29 C 6.4 km/h
389 05-03-2020 08:20:00 5.6 C 6.43 g/m*3 3.11 C 11.3 km/h
390 05-03-2020 08:25:00 5.6 C 6.43 g/m*3 4.29 C 6.4 km/h
391 05-03-2020 08:30:00 5.6 C 6.43 g/m*3 5.6 C 0 km/h
392 05-03-2020 08:35:00 5.7 C 6.48 g/m*3 2.95 C 12.9 km/h
393 05-03-2020 08:40:00 5.7 C 6.48 g/m*3 2.95 C 12.9 km/h
394 05-03-2020 08:45:00 5.8 C 6.52 g/m*3 3.68 C 9.7 km/h
395 05-03-2020 08:50:00 5.8 C 6.45 g/m*3 3.36 C 11.3 km/h
396 05-03-2020 08:55:00 5.8 C 6.45 g/m*3 3.36 C 11.3 km/h
397 05-03-2020 09:00:00 5.9 C 6.56 g/m*3 5.9 C 4.8 km/h
398 05-03-2020 09:05:00 5.9 C 6.49 g/m*3 4.63 C 6.4 km/h
399 05-03-2020 09:10:00 6 C 6.53 g/m*3 3.92 C 9.7 km/h
400 05-03-2020 09:15:00 6 C 6.53 g/m*3 6 C 3.2 km/h
Sensor: Nr:Datum:Temp:Abs-Feuchte:Windchill:Wind:
Aussen-T/F 401 05-03-2020 09:20:00 6.1 C 6.58 g/m*3 6.1 C 1.6 km/h
402 05-03-2020 09:25:00 6.2 C 6.62 g/m*3 4.98 C 6.4 km/h
403 05-03-2020 09:30:00 6.2 C 6.55 g/m*3 4.98 C 6.4 km/h
404 05-03-2020 09:35:00 6.3 C 6.66 g/m*3 5.1 C 6.4 km/h
405 05-03-2020 09:40:00 6.3 C 6.59 g/m*3 4.64 C 8.1 km/h
406 05-03-2020 09:45:00 6.3 C 6.59 g/m*3 6.3 C 4.8 km/h
407 05-03-2020 09:50:00 6.4 C 6.63 g/m*3 4.39 C 9.7 km/h
408 05-03-2020 09:55:00 6.5 C 6.67 g/m*3 5.33 C 6.4 km/h
409 05-03-2020 10:00:00 6.6 C 6.72 g/m*3 4.99 C 8.1 km/h
410 05-03-2020 10:05:00 6.6 C 6.64 g/m*3 6.6 C 3.2 km/h
411 05-03-2020 10:10:00 6.6 C 6.64 g/m*3 6.6 C 3.2 km/h
412 05-03-2020 10:15:00 6.6 C 6.64 g/m*3 4.99 C 8.1 km/h
413 05-03-2020 10:20:00 6.6 C 6.64 g/m*3 4.99 C 8.1 km/h
414 05-03-2020 10:25:00 6.6 C 6.72 g/m*3 5.44 C 6.4 km/h
415 05-03-2020 10:30:00 6.6 C 6.64 g/m*3 4.99 C 8.1 km/h
416 05-03-2020 10:35:00 6.5 C 6.67 g/m*3 4.87 C 8.1 km/h
417 05-03-2020 10:40:00 6.5 C 6.67 g/m*3 4.87 C 8.1 km/h
418 05-03-2020 10:45:00 6.4 C 6.63 g/m*3 6.4 C 4.8 km/h
419 05-03-2020 10:50:00 6.5 C 6.67 g/m*3 6.5 C 4.8 km/h
420 05-03-2020 10:55:00 6.5 C 6.67 g/m*3 5.33 C 6.4 km/h
421 05-03-2020 11:00:00 6.6 C 6.79 g/m*3 5.44 C 6.4 km/h
422 05-03-2020 11:05:00 6.6 C 6.79 g/m*3 6.6 C 4.8 km/h
423 05-03-2020 11:10:00 6.7 C 6.84 g/m*3 4.75 C 9.7 km/h
424 05-03-2020 11:15:00 6.7 C 6.76 g/m*3 4.75 C 9.7 km/h
425 05-03-2020 11:20:00 6.8 C 6.81 g/m*3 6.8 C 3.2 km/h
Sensor: Nr:Datum:Temp:Abs-Feuchte:Windchill:Wind:
Aussen-T/F 426 05-03-2020 11:25:00 6.8 C 6.81 g/m*3 5.67 C 6.4 km/h
427 05-03-2020 11:30:00 6.9 C 6.85 g/m*3 5.79 C 6.4 km/h
428 05-03-2020 11:35:00 7 C 6.9 g/m*3 7 C 3.2 km/h
429 05-03-2020 11:40:00 7.1 C 6.94 g/m*3 5.58 C 8.1 km/h
430 05-03-2020 11:45:00 7.1 C 6.94 g/m*3 6.02 C 6.4 km/h
431 05-03-2020 11:50:00 7.2 C 6.99 g/m*3 6.13 C 6.4 km/h
432 05-03-2020 11:55:00 7.2 C 6.99 g/m*3 7.2 C 4.8 km/h
433 05-03-2020 12:00:00 7.2 C 6.91 g/m*3 7.2 C 3.2 km/h
434 05-03-2020 12:05:00 7.2 C 6.91 g/m*3 7.2 C 3.2 km/h
435 05-03-2020 12:10:00 7.3 C 6.95 g/m*3 7.3 C 4.8 km/h
436 05-03-2020 12:15:00 7.3 C 6.95 g/m*3 7.3 C 4.8 km/h
437 05-03-2020 12:20:00 7.3 C 6.95 g/m*3 7.3 C 4.8 km/h
438 05-03-2020 12:25:00 7.3 C 6.95 g/m*3 7.3 C 4.8 km/h
439 05-03-2020 12:30:00 7.3 C 6.95 g/m*3 5.81 C 8.1 km/h
440 05-03-2020 12:35:00 7.4 C 7.08 g/m*3 7.4 C 1.6 km/h
441 05-03-2020 12:40:00 7.4 C 7.08 g/m*3 6.37 C 6.4 km/h
442 05-03-2020 12:45:00 7.4 C 7.08 g/m*3 5.93 C 8.1 km/h
443 05-03-2020 12:50:00 7.4 C 7.16 g/m*3 7.4 C 3.2 km/h
444 05-03-2020 12:55:00 7.4 C 7.16 g/m*3 7.4 C 4.8 km/h
445 05-03-2020 13:00:00 7.3 C 7.19 g/m*3 6.25 C 6.4 km/h
446 05-03-2020 13:05:00 7.3 C 7.19 g/m*3 7.3 C 4.8 km/h
447 05-03-2020 13:10:00 7.3 C 7.19 g/m*3 6.25 C 6.4 km/h
448 05-03-2020 13:15:00 7.3 C 7.27 g/m*3 7.3 C 4.8 km/h
449 05-03-2020 13:20:00 7.3 C 7.27 g/m*3 7.3 C 4.8 km/h
450 05-03-2020 13:25:00 7.3 C 7.27 g/m*3 7.3 C 4.8 km/h
Sensor: Nr:Datum:Temp:Abs-Feuchte:Windchill:Wind:
Aussen-T/F 451 05-03-2020 13:30:00 7.2 C 7.22 g/m*3 5.69 C 8.1 km/h
452 05-03-2020 13:35:00 7.2 C 7.22 g/m*3 7.2 C 4.8 km/h
453 05-03-2020 13:40:00 7.2 C 7.22 g/m*3 7.2 C 4.8 km/h
454 05-03-2020 13:45:00 7.2 C 7.22 g/m*3 7.2 C 4.8 km/h
455 05-03-2020 13:50:00 7.2 C 7.3 g/m*3 7.2 C 1.6 km/h
456 05-03-2020 13:55:00 7.2 C 7.3 g/m*3 7.2 C 3.2 km/h
457 05-03-2020 14:00:00 7.1 C 7.25 g/m*3 7.1 C 1.6 km/h
458 05-03-2020 14:05:00 7.1 C 7.25 g/m*3 7.1 C 3.2 km/h
459 05-03-2020 14:10:00 7.1 C 7.25 g/m*3 7.1 C 3.2 km/h
460 05-03-2020 14:15:00 7.1 C 7.25 g/m*3 7.1 C 4.8 km/h
461 05-03-2020 14:20:00 7.1 C 7.33 g/m*3 7.1 C 4.8 km/h
462 05-03-2020 14:25:00 7.1 C 7.25 g/m*3 7.1 C 4.8 km/h
463 05-03-2020 14:30:00 7 C 7.21 g/m*3 7 C 3.2 km/h
464 05-03-2020 14:35:00 6.9 C 7.24 g/m*3 6.9 C 1.6 km/h
465 05-03-2020 14:40:00 7 C 7.28 g/m*3 7 C 1.6 km/h
466 05-03-2020 14:45:00 6.9 C 7.24 g/m*3 6.9 C 1.6 km/h
467 05-03-2020 14:50:00 6.9 C 7.24 g/m*3 6.9 C 0 km/h
468 05-03-2020 14:55:00 7 C 7.28 g/m*3 7 C 0 km/h
469 05-03-2020 15:00:00 7 C 7.28 g/m*3 7 C 0 km/h
470 05-03-2020 15:05:00 7 C 7.28 g/m*3 7 C 0 km/h
471 05-03-2020 15:10:00 7 C 7.28 g/m*3 7 C 1.6 km/h
472 05-03-2020 15:15:00 7 C 7.28 g/m*3 7 C 1.6 km/h
473 05-03-2020 15:20:00 7 C 7.28 g/m*3 7 C 1.6 km/h
474 05-03-2020 15:25:00 6.9 C 7.31 g/m*3 6.9 C 0 km/h
475 05-03-2020 15:30:00 6.9 C 7.31 g/m*3 6.9 C 0 km/h
Sensor: Nr:Datum:Temp:Abs-Feuchte:Windchill:Wind:
Aussen-T/F 476 05-03-2020 15:35:00 6.9 C 7.31 g/m*3 6.9 C 4.8 km/h
477 05-03-2020 15:40:00 6.9 C 7.31 g/m*3 6.9 C 0 km/h
478 05-03-2020 15:45:00 7 C 7.36 g/m*3 7 C 4.8 km/h
479 05-03-2020 15:50:00 7 C 7.36 g/m*3 7 C 1.6 km/h
480 05-03-2020 15:55:00 7 C 7.36 g/m*3 7 C 1.6 km/h
481 05-03-2020 16:00:00 7.1 C 7.41 g/m*3 7.1 C 0 km/h
482 05-03-2020 16:05:00 7.2 C 7.46 g/m*3 5.69 C 8.1 km/h
483 05-03-2020 16:10:00 7.2 C 7.46 g/m*3 5.35 C 9.7 km/h
484 05-03-2020 16:15:00 7.2 C 7.46 g/m*3 5.69 C 8.1 km/h
485 05-03-2020 16:20:00 7.2 C 7.46 g/m*3 5.04 C 11.3 km/h
486 05-03-2020 16:25:00 7.2 C 7.46 g/m*3 4.53 C 14.5 km/h
487 05-03-2020 16:30:00 7.1 C 7.41 g/m*3 6.02 C 6.4 km/h
488 05-03-2020 16:35:00 7.1 C 7.41 g/m*3 7.1 C 1.6 km/h
489 05-03-2020 16:40:00 7.1 C 7.41 g/m*3 6.02 C 6.4 km/h
490 05-03-2020 16:45:00 7 C 7.28 g/m*3 7 C 3.2 km/h
491 05-03-2020 16:50:00 7 C 7.36 g/m*3 5.46 C 8.1 km/h
492 05-03-2020 16:55:00 7 C 7.36 g/m*3 5.11 C 9.7 km/h
493 05-03-2020 17:00:00 6.9 C 7.31 g/m*3 6.9 C 3.2 km/h
494 05-03-2020 17:05:00 6.9 C 7.31 g/m*3 6.9 C 1.6 km/h
495 05-03-2020 17:10:00 6.9 C 7.31 g/m*3 5.34 C 8.1 km/h
496 05-03-2020 17:15:00 6.8 C 7.27 g/m*3 6.8 C 0 km/h
497 05-03-2020 17:20:00 6.8 C 7.27 g/m*3 6.8 C 3.2 km/h
498 05-03-2020 17:25:00 6.8 C 7.27 g/m*3 6.8 C 4.8 km/h
499 05-03-2020 17:30:00 6.8 C 7.27 g/m*3 6.8 C 4.8 km/h
500 05-03-2020 17:35:00 6.7 C 7.22 g/m*3 6.7 C 3.2 km/h
Sensor: Nr:Datum:Temp:Abs-Feuchte:Windchill:Wind:
Aussen-T/F 501 05-03-2020 17:40:00 6.7 C 7.22 g/m*3 6.7 C 4.8 km/h
502 05-03-2020 17:45:00 6.7 C 7.22 g/m*3 6.7 C 4.8 km/h
503 05-03-2020 17:50:00 6.7 C 7.22 g/m*3 5.11 C 8.1 km/h
504 05-03-2020 17:55:00 6.7 C 7.22 g/m*3 6.7 C 1.6 km/h
505 05-03-2020 18:00:00 6.7 C 7.22 g/m*3 6.7 C 1.6 km/h
506 05-03-2020 18:05:00 6.7 C 7.22 g/m*3 6.7 C 1.6 km/h
507 05-03-2020 18:10:00 6.7 C 7.22 g/m*3 6.7 C 3.2 km/h
508 05-03-2020 18:15:00 6.6 C 7.17 g/m*3 6.6 C 4.8 km/h
509 05-03-2020 18:20:00 6.6 C 7.17 g/m*3 6.6 C 0 km/h
510 05-03-2020 18:25:00 6.6 C 7.17 g/m*3 6.6 C 0 km/h
511 05-03-2020 18:30:00 6.6 C 7.17 g/m*3 6.6 C 0 km/h
512 05-03-2020 18:35:00 6.6 C 7.17 g/m*3 6.6 C 0 km/h
513 05-03-2020 18:40:00 6.6 C 7.17 g/m*3 6.6 C 0 km/h
514 05-03-2020 18:45:00 6.6 C 7.17 g/m*3 6.6 C 0 km/h
515 05-03-2020 18:50:00 6.5 C 7.2 g/m*3 6.5 C 0 km/h
516 05-03-2020 18:55:00 6.5 C 7.2 g/m*3 6.5 C 0 km/h
517 05-03-2020 19:00:00 6.4 C 7.15 g/m*3 6.4 C 0 km/h
518 05-03-2020 19:05:00 6.4 C 7.15 g/m*3 6.4 C 0 km/h
519 05-03-2020 19:10:00 6.4 C 7.15 g/m*3 6.4 C 1.6 km/h
520 05-03-2020 19:15:00 6.4 C 7.15 g/m*3 6.4 C 1.6 km/h
521 05-03-2020 19:20:00 6.4 C 7.15 g/m*3 6.4 C 0 km/h
522 05-03-2020 19:25:00 6.4 C 7.15 g/m*3 6.4 C 0 km/h
523 05-03-2020 19:30:00 6.4 C 7.15 g/m*3 6.4 C 0 km/h
524 05-03-2020 19:35:00 6.3 C 7.11 g/m*3 6.3 C 0 km/h
525 05-03-2020 19:40:00 6.3 C 7.11 g/m*3 6.3 C 0 km/h
Sensor: Nr:Datum:Temp:Abs-Feuchte:Windchill:Wind:
Aussen-T/F 526 05-03-2020 19:45:00 6.3 C 7.11 g/m*3 6.3 C 3.2 km/h
527 05-03-2020 19:50:00 6.3 C 7.11 g/m*3 6.3 C 3.2 km/h
528 05-03-2020 19:55:00 6.3 C 7.11 g/m*3 6.3 C 1.6 km/h
529 05-03-2020 20:00:00 6.4 C 7.15 g/m*3 6.4 C 0 km/h
530 05-03-2020 20:05:00 6.4 C 7.15 g/m*3 6.4 C 1.6 km/h
531 05-03-2020 20:10:00 6.5 C 7.2 g/m*3 6.5 C 0 km/h
532 05-03-2020 20:15:00 6.6 C 7.25 g/m*3 6.6 C 1.6 km/h
533 05-03-2020 20:20:00 6.6 C 7.25 g/m*3 6.6 C 3.2 km/h
534 05-03-2020 20:25:00 6.7 C 7.29 g/m*3 6.7 C 3.2 km/h
535 05-03-2020 20:30:00 6.7 C 7.29 g/m*3 6.7 C 1.6 km/h
536 05-03-2020 20:35:00 6.8 C 7.34 g/m*3 6.8 C 3.2 km/h
537 05-03-2020 20:40:00 6.8 C 7.34 g/m*3 6.8 C 3.2 km/h
538 05-03-2020 20:45:00 6.8 C 7.34 g/m*3 6.8 C 3.2 km/h
539 05-03-2020 20:50:00 6.8 C 7.34 g/m*3 6.8 C 1.6 km/h
540 05-03-2020 20:55:00 6.8 C 7.34 g/m*3 6.8 C 3.2 km/h
541 05-03-2020 21:00:00 6.8 C 7.34 g/m*3 6.8 C 0 km/h
542 05-03-2020 21:05:00 6.8 C 7.34 g/m*3 6.8 C 1.6 km/h
543 05-03-2020 21:10:00 6.8 C 7.34 g/m*3 6.8 C 4.8 km/h
544 05-03-2020 21:15:00 6.8 C 7.34 g/m*3 6.8 C 0 km/h
545 05-03-2020 21:20:00 6.8 C 7.34 g/m*3 6.8 C 0 km/h
546 05-03-2020 21:25:00 6.8 C 7.34 g/m*3 6.8 C 0 km/h
547 05-03-2020 21:30:00 6.8 C 7.34 g/m*3 6.8 C 1.6 km/h
548 05-03-2020 21:35:00 6.8 C 7.34 g/m*3 6.8 C 1.6 km/h
549 05-03-2020 21:40:00 6.8 C 7.34 g/m*3 6.8 C 0 km/h
550 05-03-2020 21:45:00 6.8 C 7.34 g/m*3 6.8 C 0 km/h
Sensor: Nr:Datum:Temp:Abs-Feuchte:Windchill:Wind:
Aussen-T/F 551 05-03-2020 21:50:00 6.8 C 7.34 g/m*3 6.8 C 1.6 km/h
552 05-03-2020 21:55:00 6.8 C 7.34 g/m*3 6.8 C 0 km/h
553 05-03-2020 22:00:00 6.8 C 7.34 g/m*3 6.8 C 0 km/h
554 05-03-2020 22:05:00 6.8 C 7.34 g/m*3 6.8 C 0 km/h
555 05-03-2020 22:10:00 6.8 C 7.42 g/m*3 6.8 C 0 km/h
556 05-03-2020 22:15:00 6.8 C 7.34 g/m*3 6.8 C 0 km/h
557 05-03-2020 22:20:00 6.8 C 7.42 g/m*3 6.8 C 0 km/h
558 05-03-2020 22:25:00 6.8 C 7.42 g/m*3 6.8 C 0 km/h
559 05-03-2020 22:30:00 6.8 C 7.42 g/m*3 6.8 C 0 km/h
560 05-03-2020 22:35:00 6.8 C 7.42 g/m*3 6.8 C 0 km/h
561 05-03-2020 22:40:00 6.8 C 7.42 g/m*3 6.8 C 0 km/h
562 05-03-2020 22:45:00 6.8 C 7.42 g/m*3 6.8 C 0 km/h
563 05-03-2020 22:50:00 6.8 C 7.42 g/m*3 6.8 C 0 km/h
564 05-03-2020 22:55:00 6.8 C 7.42 g/m*3 6.8 C 0 km/h
565 05-03-2020 23:00:00 6.8 C 7.42 g/m*3 6.8 C 0 km/h
566 05-03-2020 23:05:00 6.8 C 7.42 g/m*3 6.8 C 0 km/h
567 05-03-2020 23:10:00 6.8 C 7.42 g/m*3 6.8 C 0 km/h
568 05-03-2020 23:15:00 6.8 C 7.42 g/m*3 6.8 C 0 km/h
569 05-03-2020 23:20:00 6.8 C 7.42 g/m*3 6.8 C 0 km/h
570 05-03-2020 23:25:00 6.8 C 7.42 g/m*3 6.8 C 0 km/h
571 05-03-2020 23:30:00 6.8 C 7.42 g/m*3 6.8 C 0 km/h
572 05-03-2020 23:35:00 6.8 C 7.42 g/m*3 6.8 C 0 km/h
573 05-03-2020 23:40:00 6.8 C 7.42 g/m*3 6.8 C 0 km/h
574 05-03-2020 23:45:00 6.8 C 7.42 g/m*3 6.8 C 0 km/h
575 05-03-2020 23:50:00 6.8 C 7.42 g/m*3 6.8 C 0 km/h
Sensor: Nr:Datum:Temp:Abs-Feuchte:Windchill:Wind:
Aussen-T/F 576 05-03-2020 23:55:00 6.8 C 7.42 g/m*3 6.8 C 0 km/h
577 06-03-2020 00:00:00 6.8 C 7.42 g/m*3 6.8 C 0 km/h
578 06-03-2020 00:05:00 6.8 C 7.42 g/m*3 6.8 C 0 km/h
579 06-03-2020 00:10:00 6.8 C 7.42 g/m*3 6.8 C 0 km/h
580 06-03-2020 00:15:00 6.8 C 7.42 g/m*3 6.8 C 0 km/h
581 06-03-2020 00:20:00 6.8 C 7.42 g/m*3 6.8 C 0 km/h
582 06-03-2020 00:25:00 6.8 C 7.42 g/m*3 6.8 C 0 km/h
583 06-03-2020 00:30:00 6.8 C 7.42 g/m*3 6.8 C 0 km/h
584 06-03-2020 00:35:00 6.8 C 7.42 g/m*3 6.8 C 0 km/h
585 06-03-2020 00:40:00 6.9 C 7.47 g/m*3 6.9 C 0 km/h
586 06-03-2020 00:45:00 6.9 C 7.47 g/m*3 6.9 C 0 km/h
587 06-03-2020 00:50:00 6.9 C 7.47 g/m*3 6.9 C 0 km/h
588 06-03-2020 00:55:00 6.9 C 7.47 g/m*3 6.9 C 0 km/h
589 06-03-2020 01:00:00 6.9 C 7.47 g/m*3 6.9 C 0 km/h
590 06-03-2020 01:05:00 7 C 7.52 g/m*3 7 C 0 km/h
591 06-03-2020 01:10:00 7.1 C 7.57 g/m*3 7.1 C 0 km/h
592 06-03-2020 01:15:00 7.1 C 7.57 g/m*3 7.1 C 0 km/h
593 06-03-2020 01:20:00 7.2 C 7.61 g/m*3 7.2 C 4.8 km/h
594 06-03-2020 01:25:00 7.3 C 7.66 g/m*3 6.25 C 6.4 km/h
595 06-03-2020 01:30:00 7.4 C 7.71 g/m*3 7.4 C 4.8 km/h
596 06-03-2020 01:35:00 7.4 C 7.71 g/m*3 5.93 C 8.1 km/h
597 06-03-2020 01:40:00 7.4 C 7.71 g/m*3 5.93 C 8.1 km/h
598 06-03-2020 01:45:00 7.4 C 7.71 g/m*3 5.58 C 9.7 km/h
599 06-03-2020 01:50:00 7.4 C 7.71 g/m*3 4 C 20.9 km/h
600 06-03-2020 01:55:00 7.4 C 7.71 g/m*3 4 C 20.9 km/h
Sensor: Nr:Datum:Temp:Abs-Feuchte:Windchill:Wind:
Aussen-T/F 601 06-03-2020 02:00:00 7.3 C 7.58 g/m*3 5.16 C 11.3 km/h
602 06-03-2020 02:05:00 7.2 C 7.54 g/m*3 4.77 C 12.9 km/h
603 06-03-2020 02:10:00 7.1 C 7.41 g/m*3 4.92 C 11.3 km/h
604 06-03-2020 02:15:00 7.1 C 7.41 g/m*3 4.92 C 11.3 km/h
605 06-03-2020 02:20:00 7.1 C 7.33 g/m*3 4.41 C 14.5 km/h
606 06-03-2020 02:25:00 7.1 C 7.33 g/m*3 6.02 C 6.4 km/h
607 06-03-2020 02:30:00 7.1 C 7.33 g/m*3 7.1 C 4.8 km/h
608 06-03-2020 02:35:00 7 C 7.28 g/m*3 5.46 C 8.1 km/h
609 06-03-2020 02:40:00 6.9 C 7.24 g/m*3 5.34 C 8.1 km/h
610 06-03-2020 02:45:00 6.9 C 7.24 g/m*3 5.79 C 6.4 km/h
611 06-03-2020 02:50:00 6.9 C 7.24 g/m*3 6.9 C 4.8 km/h
612 06-03-2020 02:55:00 6.8 C 7.11 g/m*3 5.22 C 8.1 km/h
613 06-03-2020 03:00:00 6.8 C 7.11 g/m*3 6.8 C 3.2 km/h
614 06-03-2020 03:05:00 6.8 C 7.11 g/m*3 5.67 C 6.4 km/h
615 06-03-2020 03:10:00 6.8 C 7.11 g/m*3 5.67 C 6.4 km/h
616 06-03-2020 03:15:00 6.7 C 7.07 g/m*3 6.7 C 4.8 km/h
617 06-03-2020 03:20:00 6.7 C 7.07 g/m*3 5.56 C 6.4 km/h
618 06-03-2020 03:25:00 6.7 C 7.07 g/m*3 3.92 C 14.5 km/h
619 06-03-2020 03:30:00 6.7 C 7.07 g/m*3 5.11 C 8.1 km/h
620 06-03-2020 03:35:00 6.7 C 7.07 g/m*3 6.7 C 4.8 km/h
621 06-03-2020 03:40:00 6.7 C 7.07 g/m*3 5.11 C 8.1 km/h
622 06-03-2020 03:45:00 6.6 C 7.02 g/m*3 6.6 C 3.2 km/h
623 06-03-2020 03:50:00 6.6 C 7.02 g/m*3 6.6 C 3.2 km/h
624 06-03-2020 03:55:00 6.6 C 7.02 g/m*3 6.6 C 1.6 km/h
625 06-03-2020 04:00:00 6.6 C 7.02 g/m*3 6.6 C 4.8 km/h
Sensor: Nr:Datum:Temp:Abs-Feuchte:Windchill:Wind:
Aussen-T/F 626 06-03-2020 04:05:00 6.5 C 6.97 g/m*3 6.5 C 4.8 km/h
627 06-03-2020 04:10:00 6.5 C 7.05 g/m*3 6.5 C 0 km/h
628 06-03-2020 04:15:00 6.5 C 7.05 g/m*3 6.5 C 0 km/h
629 06-03-2020 04:20:00 6.4 C 7 g/m*3 6.4 C 0 km/h
630 06-03-2020 04:25:00 6.4 C 7 g/m*3 6.4 C 0 km/h
631 06-03-2020 04:30:00 6.4 C 7 g/m*3 6.4 C 4.8 km/h
632 06-03-2020 04:35:00 6.4 C 7 g/m*3 6.4 C 3.2 km/h
633 06-03-2020 04:40:00 6.3 C 6.96 g/m*3 6.3 C 3.2 km/h
634 06-03-2020 04:45:00 6.3 C 6.96 g/m*3 6.3 C 0 km/h
635 06-03-2020 04:50:00 6.3 C 7.03 g/m*3 6.3 C 1.6 km/h
636 06-03-2020 04:55:00 6.3 C 7.03 g/m*3 6.3 C 4.8 km/h
637 06-03-2020 05:00:00 6.3 C 7.03 g/m*3 6.3 C 3.2 km/h
638 06-03-2020 05:05:00 6.3 C 7.03 g/m*3 4.64 C 8.1 km/h
639 06-03-2020 05:10:00 6.3 C 7.03 g/m*3 6.3 C 4.8 km/h
640 06-03-2020 05:15:00 6.3 C 7.03 g/m*3 4.64 C 8.1 km/h
641 06-03-2020 05:20:00 6.3 C 7.03 g/m*3 4.27 C 9.7 km/h
642 06-03-2020 05:25:00 6.3 C 7.03 g/m*3 6.3 C 4.8 km/h
643 06-03-2020 05:30:00 6.3 C 7.03 g/m*3 6.3 C 4.8 km/h
644 06-03-2020 05:35:00 6.3 C 7.03 g/m*3 6.3 C 4.8 km/h
645 06-03-2020 05:40:00 6.4 C 7.08 g/m*3 3.8 C 12.9 km/h
646 06-03-2020 05:45:00 6.4 C 7.08 g/m*3 4.08 C 11.3 km/h
647 06-03-2020 05:50:00 6.4 C 7.08 g/m*3 6.4 C 4.8 km/h
648 06-03-2020 05:55:00 6.4 C 7.08 g/m*3 4.75 C 8.1 km/h
649 06-03-2020 06:00:00 6.4 C 7.08 g/m*3 4.39 C 9.7 km/h
650 06-03-2020 06:05:00 6.5 C 7.12 g/m*3 5.33 C 6.4 km/h
Sensor: Nr:Datum:Temp:Abs-Feuchte:Windchill:Wind:
Aussen-T/F 651 06-03-2020 06:10:00 6.5 C 7.12 g/m*3 3.92 C 12.9 km/h
652 06-03-2020 06:15:00 6.5 C 7.2 g/m*3 5.33 C 6.4 km/h
653 06-03-2020 06:20:00 6.5 C 7.2 g/m*3 5.33 C 6.4 km/h
654 06-03-2020 06:25:00 6.5 C 7.2 g/m*3 5.33 C 6.4 km/h
655 06-03-2020 06:30:00 6.5 C 7.2 g/m*3 5.33 C 6.4 km/h
656 06-03-2020 06:35:00 6.6 C 7.25 g/m*3 4.63 C 9.7 km/h
657 06-03-2020 06:40:00 6.6 C 7.25 g/m*3 3.57 C 16.1 km/h
658 06-03-2020 06:45:00 6.6 C 7.25 g/m*3 4.99 C 8.1 km/h
659 06-03-2020 06:50:00 6.6 C 7.25 g/m*3 4.99 C 8.1 km/h
660 06-03-2020 06:55:00 6.7 C 7.29 g/m*3 5.11 C 8.1 km/h
661 06-03-2020 07:00:00 6.7 C 7.29 g/m*3 5.56 C 6.4 km/h
662 06-03-2020 07:05:00 6.7 C 7.29 g/m*3 5.56 C 6.4 km/h
663 06-03-2020 07:10:00 6.7 C 7.29 g/m*3 6.7 C 3.2 km/h
664 06-03-2020 07:15:00 6.7 C 7.29 g/m*3 6.7 C 1.6 km/h
665 06-03-2020 07:20:00 6.7 C 7.29 g/m*3 6.7 C 1.6 km/h
666 06-03-2020 07:25:00 6.7 C 7.29 g/m*3 6.7 C 4.8 km/h
667 06-03-2020 07:30:00 6.7 C 7.29 g/m*3 6.7 C 4.8 km/h
668 06-03-2020 07:35:00 6.7 C 7.29 g/m*3 6.7 C 3.2 km/h
669 06-03-2020 07:40:00 6.8 C 7.34 g/m*3 6.8 C 3.2 km/h
670 06-03-2020 07:45:00 6.8 C 7.34 g/m*3 4.87 C 9.7 km/h
671 06-03-2020 07:50:00 6.7 C 7.29 g/m*3 4.75 C 9.7 km/h
672 06-03-2020 07:55:00 6.5 C 7.12 g/m*3 4.51 C 9.7 km/h
673 06-03-2020 08:00:00 6.4 C 7.08 g/m*3 4.08 C 11.3 km/h
674 06-03-2020 08:05:00 6.3 C 6.96 g/m*3 3.96 C 11.3 km/h
675 06-03-2020 08:10:00 6.2 C 6.91 g/m*3 3.3 C 14.5 km/h
Sensor: Nr:Datum:Temp:Abs-Feuchte:Windchill:Wind:
Aussen-T/F 676 06-03-2020 08:15:00 6.1 C 6.79 g/m*3 2.35 C 20.9 km/h
677 06-03-2020 08:20:00 5.9 C 6.71 g/m*3 4.17 C 8.1 km/h
678 06-03-2020 08:25:00 5.9 C 6.71 g/m*3 4.17 C 8.1 km/h
679 06-03-2020 08:30:00 5.9 C 6.71 g/m*3 3.8 C 9.7 km/h
680 06-03-2020 08:35:00 5.9 C 6.71 g/m*3 4.63 C 6.4 km/h
681 06-03-2020 08:40:00 5.9 C 6.71 g/m*3 4.63 C 6.4 km/h
682 06-03-2020 08:45:00 5.9 C 6.71 g/m*3 5.9 C 1.6 km/h
683 06-03-2020 08:50:00 5.8 C 6.66 g/m*3 4.52 C 6.4 km/h
684 06-03-2020 08:55:00 5.8 C 6.73 g/m*3 5.8 C 4.8 km/h
685 06-03-2020 09:00:00 5.8 C 6.73 g/m*3 3.68 C 9.7 km/h
686 06-03-2020 09:05:00 5.7 C 6.69 g/m*3 4.4 C 6.4 km/h
687 06-03-2020 09:10:00 5.8 C 6.73 g/m*3 4.52 C 6.4 km/h
688 06-03-2020 09:15:00 5.8 C 6.73 g/m*3 5.8 C 4.8 km/h
689 06-03-2020 09:20:00 5.7 C 6.69 g/m*3 5.7 C 4.8 km/h
690 06-03-2020 09:25:00 5.7 C 6.62 g/m*3 4.4 C 6.4 km/h
691 06-03-2020 09:30:00 5.7 C 6.62 g/m*3 3.56 C 9.7 km/h
692 06-03-2020 09:35:00 5.7 C 6.62 g/m*3 3.93 C 8.1 km/h
693 06-03-2020 09:40:00 5.7 C 6.62 g/m*3 3.93 C 8.1 km/h
694 06-03-2020 09:45:00 5.7 C 6.62 g/m*3 3.23 C 11.3 km/h
695 06-03-2020 09:50:00 5.7 C 6.55 g/m*3 2.69 C 14.5 km/h
696 06-03-2020 09:55:00 5.7 C 6.55 g/m*3 3.56 C 9.7 km/h
697 06-03-2020 10:00:00 5.7 C 6.48 g/m*3 3.23 C 11.3 km/h
698 06-03-2020 10:05:00 5.7 C 6.48 g/m*3 3.56 C 9.7 km/h
699 06-03-2020 10:10:00 5.7 C 6.48 g/m*3 3.93 C 8.1 km/h
700 06-03-2020 10:15:00 5.7 C 6.48 g/m*3 3.56 C 9.7 km/h
Sensor: Nr:Datum:Temp:Abs-Feuchte:Windchill:Wind:
Aussen-T/F 701 06-03-2020 10:20:00 5.7 C 6.55 g/m*3 2.69 C 14.5 km/h
702 06-03-2020 10:25:00 5.7 C 6.48 g/m*3 3.56 C 9.7 km/h
703 06-03-2020 10:30:00 5.7 C 6.48 g/m*3 3.23 C 11.3 km/h
704 06-03-2020 10:35:00 5.6 C 6.36 g/m*3 3.44 C 9.7 km/h
705 06-03-2020 10:40:00 5.6 C 6.36 g/m*3 3.11 C 11.3 km/h
706 06-03-2020 10:45:00 5.7 C 6.48 g/m*3 3.23 C 11.3 km/h
707 06-03-2020 10:50:00 5.7 C 6.48 g/m*3 3.93 C 8.1 km/h
708 06-03-2020 10:55:00 5.7 C 6.48 g/m*3 3.56 C 9.7 km/h
709 06-03-2020 11:00:00 5.7 C 6.48 g/m*3 2.95 C 12.9 km/h
710 06-03-2020 11:05:00 5.7 C 6.4 g/m*3 2.69 C 14.5 km/h
711 06-03-2020 11:10:00 5.7 C 6.4 g/m*3 2.95 C 12.9 km/h
712 06-03-2020 11:15:00 5.8 C 6.52 g/m*3 3.68 C 9.7 km/h
713 06-03-2020 11:20:00 5.9 C 6.56 g/m*3 4.63 C 6.4 km/h
714 06-03-2020 11:25:00 5.9 C 6.56 g/m*3 4.63 C 6.4 km/h
715 06-03-2020 11:30:00 5.9 C 6.49 g/m*3 4.63 C 6.4 km/h
716 06-03-2020 11:35:00 5.9 C 6.49 g/m*3 4.63 C 6.4 km/h
717 06-03-2020 11:40:00 5.9 C 6.49 g/m*3 3.8 C 9.7 km/h
718 06-03-2020 11:45:00 5.9 C 6.42 g/m*3 3.19 C 12.9 km/h
719 06-03-2020 11:50:00 5.8 C 6.38 g/m*3 4.05 C 8.1 km/h
720 06-03-2020 11:55:00 5.8 C 6.45 g/m*3 3.36 C 11.3 km/h
721 06-03-2020 12:00:00 5.8 C 6.45 g/m*3 4.05 C 8.1 km/h
722 06-03-2020 12:05:00 5.7 C 6.4 g/m*3 3.56 C 9.7 km/h
723 06-03-2020 12:10:00 5.7 C 6.4 g/m*3 3.93 C 8.1 km/h
724 06-03-2020 12:15:00 5.6 C 6.36 g/m*3 2.83 C 12.9 km/h
725 06-03-2020 12:20:00 5.6 C 6.36 g/m*3 2.57 C 14.5 km/h
Sensor: Nr:Datum:Temp:Abs-Feuchte:Windchill:Wind:
Aussen-T/F 726 06-03-2020 12:25:00 5.6 C 6.43 g/m*3 2.33 C 16.1 km/h
727 06-03-2020 12:30:00 5.6 C 6.43 g/m*3 2.57 C 14.5 km/h
728 06-03-2020 12:35:00 5.5 C 6.39 g/m*3 3.32 C 9.7 km/h
729 06-03-2020 12:40:00 5.4 C 6.35 g/m*3 2.87 C 11.3 km/h
730 06-03-2020 12:45:00 5.4 C 6.35 g/m*3 5.4 C 4.8 km/h
731 06-03-2020 12:50:00 5.5 C 6.39 g/m*3 2.99 C 11.3 km/h
732 06-03-2020 12:55:00 5.5 C 6.39 g/m*3 2.99 C 11.3 km/h
733 06-03-2020 13:00:00 5.5 C 6.39 g/m*3 2.7 C 12.9 km/h
734 06-03-2020 13:05:00 5.6 C 6.43 g/m*3 1.91 C 19.3 km/h
735 06-03-2020 13:10:00 5.6 C 6.43 g/m*3 3.44 C 9.7 km/h
736 06-03-2020 13:15:00 5.6 C 6.43 g/m*3 4.29 C 6.4 km/h
737 06-03-2020 13:20:00 5.6 C 6.43 g/m*3 3.81 C 8.1 km/h
738 06-03-2020 13:25:00 5.7 C 6.48 g/m*3 4.4 C 6.4 km/h
739 06-03-2020 13:30:00 5.7 C 6.48 g/m*3 3.23 C 11.3 km/h
740 06-03-2020 13:35:00 5.7 C 6.4 g/m*3 2.69 C 14.5 km/h
741 06-03-2020 13:40:00 5.8 C 6.45 g/m*3 2.81 C 14.5 km/h
742 06-03-2020 13:45:00 5.8 C 6.45 g/m*3 2.81 C 14.5 km/h
743 06-03-2020 13:50:00 5.8 C 6.45 g/m*3 4.05 C 8.1 km/h
744 06-03-2020 13:55:00 5.8 C 6.45 g/m*3 4.05 C 8.1 km/h
745 06-03-2020 14:00:00 5.8 C 6.45 g/m*3 4.52 C 6.4 km/h
746 06-03-2020 14:05:00 5.8 C 6.45 g/m*3 2.81 C 14.5 km/h
747 06-03-2020 14:10:00 5.7 C 6.48 g/m*3 3.56 C 9.7 km/h
748 06-03-2020 14:15:00 5.7 C 6.48 g/m*3 3.56 C 9.7 km/h
749 06-03-2020 14:20:00 5.7 C 6.4 g/m*3 3.23 C 11.3 km/h
750 06-03-2020 14:25:00 5.7 C 6.4 g/m*3 3.93 C 8.1 km/h
Sensor: Nr:Datum:Temp:Abs-Feuchte:Windchill:Wind:
Aussen-T/F 751 06-03-2020 14:30:00 5.8 C 6.45 g/m*3 4.05 C 8.1 km/h
752 06-03-2020 14:35:00 5.8 C 6.52 g/m*3 4.05 C 8.1 km/h
753 06-03-2020 14:40:00 5.8 C 6.52 g/m*3 3.36 C 11.3 km/h
754 06-03-2020 14:45:00 5.8 C 6.45 g/m*3 3.68 C 9.7 km/h
755 06-03-2020 14:50:00 5.8 C 6.45 g/m*3 4.52 C 6.4 km/h
756 06-03-2020 14:55:00 5.9 C 6.49 g/m*3 4.17 C 8.1 km/h
757 06-03-2020 15:00:00 5.9 C 6.49 g/m*3 3.19 C 12.9 km/h
758 06-03-2020 15:05:00 5.9 C 6.49 g/m*3 3.8 C 9.7 km/h
759 06-03-2020 15:10:00 5.9 C 6.42 g/m*3 3.19 C 12.9 km/h
760 06-03-2020 15:15:00 5.9 C 6.42 g/m*3 3.8 C 9.7 km/h
761 06-03-2020 15:20:00 6 C 6.46 g/m*3 6 C 4.8 km/h
762 06-03-2020 15:25:00 6.1 C 6.5 g/m*3 4.4 C 8.1 km/h
763 06-03-2020 15:30:00 6.1 C 6.5 g/m*3 6.1 C 4.8 km/h
764 06-03-2020 15:35:00 6.2 C 6.55 g/m*3 6.2 C 4.8 km/h
765 06-03-2020 15:40:00 6.2 C 6.47 g/m*3 4.98 C 6.4 km/h
766 06-03-2020 15:45:00 6.3 C 6.51 g/m*3 4.64 C 8.1 km/h
767 06-03-2020 15:50:00 6.3 C 6.44 g/m*3 6.3 C 4.8 km/h
768 06-03-2020 15:55:00 6.4 C 6.48 g/m*3 4.08 C 11.3 km/h
769 06-03-2020 16:00:00 6.4 C 6.41 g/m*3 4.75 C 8.1 km/h
770 06-03-2020 16:05:00 6.5 C 6.45 g/m*3 4.2 C 11.3 km/h
771 06-03-2020 16:10:00 6.6 C 6.49 g/m*3 3.79 C 14.5 km/h
772 06-03-2020 16:15:00 6.6 C 6.49 g/m*3 4.32 C 11.3 km/h
773 06-03-2020 16:20:00 6.7 C 6.46 g/m*3 4.17 C 12.9 km/h
774 06-03-2020 16:25:00 6.7 C 6.46 g/m*3 6.7 C 4.8 km/h
775 06-03-2020 16:30:00 6.7 C 6.46 g/m*3 5.11 C 8.1 km/h
Sensor: Nr:Datum:Temp:Abs-Feuchte:Windchill:Wind:
Aussen-T/F 776 06-03-2020 16:35:00 6.8 C 6.58 g/m*3 6.8 C 3.2 km/h
777 06-03-2020 16:40:00 6.8 C 6.58 g/m*3 6.8 C 4.8 km/h
778 06-03-2020 16:45:00 6.8 C 6.65 g/m*3 6.8 C 1.6 km/h
779 06-03-2020 16:50:00 6.8 C 6.65 g/m*3 5.67 C 6.4 km/h
780 06-03-2020 16:55:00 6.7 C 6.61 g/m*3 5.56 C 6.4 km/h
781 06-03-2020 17:00:00 6.8 C 6.65 g/m*3 5.22 C 8.1 km/h
782 06-03-2020 17:05:00 6.8 C 6.65 g/m*3 5.22 C 8.1 km/h
783 06-03-2020 17:10:00 6.8 C 6.65 g/m*3 5.67 C 6.4 km/h
784 06-03-2020 17:15:00 6.9 C 6.7 g/m*3 5.34 C 8.1 km/h
785 06-03-2020 17:20:00 7.1 C 6.71 g/m*3 5.58 C 8.1 km/h
786 06-03-2020 17:25:00 7.1 C 6.71 g/m*3 4.92 C 11.3 km/h
787 06-03-2020 17:30:00 7.2 C 6.59 g/m*3 4.53 C 14.5 km/h
788 06-03-2020 17:35:00 7.3 C 6.64 g/m*3 5.16 C 11.3 km/h
789 06-03-2020 17:40:00 7.3 C 6.64 g/m*3 5.16 C 11.3 km/h
790 06-03-2020 17:45:00 7.3 C 6.64 g/m*3 4.9 C 12.9 km/h
791 06-03-2020 17:50:00 7.3 C 6.72 g/m*3 7.3 C 4.8 km/h
792 06-03-2020 17:55:00 7.3 C 6.64 g/m*3 6.25 C 6.4 km/h
793 06-03-2020 18:00:00 7.4 C 6.68 g/m*3 6.37 C 6.4 km/h
794 06-03-2020 18:05:00 7.3 C 6.56 g/m*3 5.81 C 8.1 km/h
795 06-03-2020 18:10:00 7.3 C 6.56 g/m*3 5.47 C 9.7 km/h
796 06-03-2020 18:15:00 7.3 C 6.56 g/m*3 5.81 C 8.1 km/h
797 06-03-2020 18:20:00 7.2 C 6.59 g/m*3 7.2 C 1.6 km/h
798 06-03-2020 18:25:00 7.1 C 6.55 g/m*3 7.1 C 4.8 km/h
799 06-03-2020 18:30:00 7 C 6.51 g/m*3 7 C 3.2 km/h
800 06-03-2020 18:35:00 6.8 C 6.42 g/m*3 5.67 C 6.4 km/h
Sensor: Nr:Datum:Temp:Abs-Feuchte:Windchill:Wind:
Aussen-T/F 801 06-03-2020 18:40:00 6.8 C 6.5 g/m*3 6.8 C 4.8 km/h
802 06-03-2020 18:45:00 6.7 C 6.46 g/m*3 5.11 C 8.1 km/h
803 06-03-2020 18:50:00 6.7 C 6.46 g/m*3 4.75 C 9.7 km/h
804 06-03-2020 18:55:00 6.8 C 6.42 g/m*3 5.22 C 8.1 km/h
805 06-03-2020 19:00:00 6.8 C 6.42 g/m*3 4.87 C 9.7 km/h
806 06-03-2020 19:05:00 6.9 C 6.47 g/m*3 4.99 C 9.7 km/h
807 06-03-2020 19:10:00 6.9 C 6.47 g/m*3 5.34 C 8.1 km/h
808 06-03-2020 19:15:00 6.8 C 6.42 g/m*3 5.67 C 6.4 km/h
809 06-03-2020 19:20:00 6.8 C 6.42 g/m*3 6.8 C 4.8 km/h
810 06-03-2020 19:25:00 6.8 C 6.42 g/m*3 5.67 C 6.4 km/h
811 06-03-2020 19:30:00 6.7 C 6.46 g/m*3 5.56 C 6.4 km/h
812 06-03-2020 19:35:00 6.7 C 6.46 g/m*3 5.11 C 8.1 km/h
813 06-03-2020 19:40:00 6.7 C 6.46 g/m*3 4.75 C 9.7 km/h
814 06-03-2020 19:45:00 6.7 C 6.38 g/m*3 4.75 C 9.7 km/h
815 06-03-2020 19:50:00 6.7 C 6.38 g/m*3 4.75 C 9.7 km/h
816 06-03-2020 19:55:00 6.7 C 6.31 g/m*3 4.44 C 11.3 km/h
817 06-03-2020 20:00:00 6.7 C 6.31 g/m*3 4.75 C 9.7 km/h
818 06-03-2020 20:05:00 6.6 C 6.27 g/m*3 5.44 C 6.4 km/h
819 06-03-2020 20:10:00 6.6 C 6.27 g/m*3 4.32 C 11.3 km/h
820 06-03-2020 20:15:00 6.6 C 6.34 g/m*3 4.32 C 11.3 km/h
821 06-03-2020 20:20:00 6.5 C 6.3 g/m*3 4.51 C 9.7 km/h
822 06-03-2020 20:25:00 6.4 C 6.26 g/m*3 4.75 C 8.1 km/h
823 06-03-2020 20:30:00 6.3 C 6.22 g/m*3 3.96 C 11.3 km/h
824 06-03-2020 20:35:00 6.2 C 6.25 g/m*3 4.15 C 9.7 km/h
825 06-03-2020 20:40:00 6.2 C 6.18 g/m*3 4.98 C 6.4 km/h
Sensor: Nr:Datum:Temp:Abs-Feuchte:Windchill:Wind:
Aussen-T/F 826 06-03-2020 20:45:00 6.1 C 6.21 g/m*3 4.04 C 9.7 km/h
827 06-03-2020 20:50:00 6 C 6.17 g/m*3 4.28 C 8.1 km/h
828 06-03-2020 20:55:00 5.9 C 6.13 g/m*3 4.17 C 8.1 km/h
829 06-03-2020 21:00:00 5.9 C 6.2 g/m*3 3.48 C 11.3 km/h
830 06-03-2020 21:05:00 5.8 C 6.16 g/m*3 3.68 C 9.7 km/h
831 06-03-2020 21:10:00 5.7 C 6.12 g/m*3 3.93 C 8.1 km/h
832 06-03-2020 21:15:00 5.7 C 6.12 g/m*3 3.93 C 8.1 km/h
833 06-03-2020 21:20:00 5.7 C 6.12 g/m*3 3.23 C 11.3 km/h
834 06-03-2020 21:25:00 5.6 C 6.08 g/m*3 2.83 C 12.9 km/h
835 06-03-2020 21:30:00 5.6 C 6.08 g/m*3 2.83 C 12.9 km/h
836 06-03-2020 21:35:00 5.6 C 6.08 g/m*3 3.44 C 9.7 km/h
837 06-03-2020 21:40:00 5.6 C 6.01 g/m*3 2.57 C 14.5 km/h
838 06-03-2020 21:45:00 5.6 C 6.01 g/m*3 2.83 C 12.9 km/h
839 06-03-2020 21:50:00 5.7 C 6.12 g/m*3 4.4 C 6.4 km/h
840 06-03-2020 21:55:00 5.6 C 6.01 g/m*3 3.44 C 9.7 km/h
841 06-03-2020 22:00:00 5.5 C 6.04 g/m*3 2.44 C 14.5 km/h
842 06-03-2020 22:05:00 5.4 C 6 g/m*3 4.06 C 6.4 km/h
843 06-03-2020 22:10:00 5.4 C 6 g/m*3 5.4 C 4.8 km/h
844 06-03-2020 22:15:00 5.4 C 6.07 g/m*3 3.58 C 8.1 km/h
845 06-03-2020 22:20:00 5.4 C 6 g/m*3 5.4 C 4.8 km/h
846 06-03-2020 22:25:00 5.4 C 6 g/m*3 5.4 C 4.8 km/h
847 06-03-2020 22:30:00 5.5 C 6.11 g/m*3 3.32 C 9.7 km/h
848 06-03-2020 22:35:00 5.6 C 6.08 g/m*3 3.44 C 9.7 km/h
849 06-03-2020 22:40:00 5.6 C 6.15 g/m*3 4.29 C 6.4 km/h
850 06-03-2020 22:45:00 5.6 C 6.15 g/m*3 3.11 C 11.3 km/h
Sensor: Nr:Datum:Temp:Abs-Feuchte:Windchill:Wind:
Aussen-T/F 851 06-03-2020 22:50:00 5.7 C 6.12 g/m*3 3.56 C 9.7 km/h
852 06-03-2020 22:55:00 5.8 C 6.16 g/m*3 4.52 C 6.4 km/h
853 06-03-2020 23:00:00 5.8 C 6.16 g/m*3 3.68 C 9.7 km/h
854 06-03-2020 23:05:00 5.8 C 6.16 g/m*3 5.8 C 3.2 km/h
855 06-03-2020 23:10:00 5.8 C 6.09 g/m*3 3.36 C 11.3 km/h
856 06-03-2020 23:15:00 5.9 C 6.13 g/m*3 4.17 C 8.1 km/h
857 06-03-2020 23:20:00 5.9 C 6.06 g/m*3 3.19 C 12.9 km/h
858 06-03-2020 23:25:00 5.9 C 6.06 g/m*3 3.48 C 11.3 km/h
859 06-03-2020 23:30:00 5.9 C 6.06 g/m*3 4.63 C 6.4 km/h
860 06-03-2020 23:35:00 5.9 C 6.06 g/m*3 3.48 C 11.3 km/h
861 06-03-2020 23:40:00 5.9 C 6.06 g/m*3 2.93 C 14.5 km/h
862 06-03-2020 23:45:00 5.9 C 6.06 g/m*3 3.19 C 12.9 km/h
863 06-03-2020 23:50:00 6 C 6.1 g/m*3 4.75 C 6.4 km/h
864 06-03-2020 23:55:00 5.9 C 6.06 g/m*3 4.63 C 6.4 km/h
865 07-03-2020 00:00:00 5.9 C 6.06 g/m*3 5.9 C 4.8 km/h
866 07-03-2020 00:05:00 5.9 C 6.06 g/m*3 4.63 C 6.4 km/h
867 07-03-2020 00:10:00 5.8 C 6.02 g/m*3 4.52 C 6.4 km/h
868 07-03-2020 00:15:00 5.8 C 5.95 g/m*3 5.8 C 4.8 km/h
869 07-03-2020 00:20:00 5.8 C 6.02 g/m*3 4.52 C 6.4 km/h
870 07-03-2020 00:25:00 5.8 C 6.02 g/m*3 4.52 C 6.4 km/h
871 07-03-2020 00:30:00 5.8 C 6.02 g/m*3 3.68 C 9.7 km/h
872 07-03-2020 00:35:00 5.8 C 6.02 g/m*3 3.68 C 9.7 km/h
873 07-03-2020 00:40:00 5.8 C 6.02 g/m*3 4.05 C 8.1 km/h
874 07-03-2020 00:45:00 5.8 C 5.95 g/m*3 4.05 C 8.1 km/h
875 07-03-2020 00:50:00 5.8 C 6.02 g/m*3 4.52 C 6.4 km/h
Sensor: Nr:Datum:Temp:Abs-Feuchte:Windchill:Wind:
Aussen-T/F 876 07-03-2020 00:55:00 5.8 C 6.02 g/m*3 4.05 C 8.1 km/h
877 07-03-2020 01:00:00 5.8 C 6.02 g/m*3 4.52 C 6.4 km/h
878 07-03-2020 01:05:00 5.8 C 6.02 g/m*3 4.52 C 6.4 km/h
879 07-03-2020 01:10:00 5.8 C 6.02 g/m*3 3.68 C 9.7 km/h
880 07-03-2020 01:15:00 5.8 C 6.09 g/m*3 4.05 C 8.1 km/h
881 07-03-2020 01:20:00 5.8 C 6.09 g/m*3 5.8 C 4.8 km/h
882 07-03-2020 01:25:00 5.8 C 6.09 g/m*3 5.8 C 4.8 km/h
883 07-03-2020 01:30:00 5.8 C 6.09 g/m*3 2.58 C 16.1 km/h
884 07-03-2020 01:35:00 5.8 C 6.09 g/m*3 5.8 C 3.2 km/h
885 07-03-2020 01:40:00 5.8 C 6.09 g/m*3 4.52 C 6.4 km/h
886 07-03-2020 01:45:00 5.8 C 6.09 g/m*3 5.8 C 4.8 km/h
887 07-03-2020 01:50:00 5.9 C 6.13 g/m*3 4.17 C 8.1 km/h
888 07-03-2020 01:55:00 5.9 C 6.13 g/m*3 4.63 C 6.4 km/h
889 07-03-2020 02:00:00 5.9 C 6.2 g/m*3 4.63 C 6.4 km/h
890 07-03-2020 02:05:00 5.9 C 6.13 g/m*3 4.17 C 8.1 km/h
891 07-03-2020 02:10:00 5.9 C 6.13 g/m*3 5.9 C 4.8 km/h
892 07-03-2020 02:15:00 5.9 C 6.13 g/m*3 4.17 C 8.1 km/h
893 07-03-2020 02:20:00 6 C 6.24 g/m*3 3.92 C 9.7 km/h
894 07-03-2020 02:25:00 5.9 C 6.2 g/m*3 4.63 C 6.4 km/h
895 07-03-2020 02:30:00 5.9 C 6.2 g/m*3 3.48 C 11.3 km/h
896 07-03-2020 02:35:00 5.9 C 6.2 g/m*3 2.7 C 16.1 km/h
897 07-03-2020 02:40:00 5.9 C 6.2 g/m*3 3.8 C 9.7 km/h
898 07-03-2020 02:45:00 5.8 C 6.16 g/m*3 4.52 C 6.4 km/h
899 07-03-2020 02:50:00 5.8 C 6.16 g/m*3 3.36 C 11.3 km/h
900 07-03-2020 02:55:00 5.8 C 6.16 g/m*3 4.05 C 8.1 km/h
Sensor: Nr:Datum:Temp:Abs-Feuchte:Windchill:Wind:
Aussen-T/F 901 07-03-2020 03:00:00 5.8 C 6.16 g/m*3 5.8 C 4.8 km/h
902 07-03-2020 03:05:00 5.7 C 6.12 g/m*3 3.23 C 11.3 km/h
903 07-03-2020 03:10:00 5.7 C 6.12 g/m*3 3.93 C 8.1 km/h
904 07-03-2020 03:15:00 5.7 C 6.12 g/m*3 5.7 C 4.8 km/h
905 07-03-2020 03:20:00 5.6 C 6.08 g/m*3 3.81 C 8.1 km/h
906 07-03-2020 03:25:00 5.6 C 6.15 g/m*3 5.6 C 3.2 km/h
907 07-03-2020 03:30:00 5.6 C 6.15 g/m*3 5.6 C 3.2 km/h
908 07-03-2020 03:35:00 5.5 C 6.11 g/m*3 3.7 C 8.1 km/h
909 07-03-2020 03:40:00 5.5 C 6.11 g/m*3 5.5 C 4.8 km/h
910 07-03-2020 03:45:00 5.4 C 6.07 g/m*3 2.87 C 11.3 km/h
911 07-03-2020 03:50:00 5.4 C 6.07 g/m*3 4.06 C 6.4 km/h
912 07-03-2020 03:55:00 5.5 C 6.11 g/m*3 5.5 C 0 km/h
913 07-03-2020 04:00:00 5.4 C 6.07 g/m*3 5.4 C 3.2 km/h
914 07-03-2020 04:05:00 5.4 C 6.07 g/m*3 3.2 C 9.7 km/h
915 07-03-2020 04:10:00 5.4 C 6.07 g/m*3 3.2 C 9.7 km/h
916 07-03-2020 04:15:00 5.4 C 6.07 g/m*3 5.4 C 4.8 km/h
917 07-03-2020 04:20:00 5.4 C 6.07 g/m*3 4.06 C 6.4 km/h
918 07-03-2020 04:25:00 5.4 C 6.07 g/m*3 3.58 C 8.1 km/h
919 07-03-2020 04:30:00 5.4 C 6 g/m*3 2.58 C 12.9 km/h
920 07-03-2020 04:35:00 5.5 C 6.04 g/m*3 5.5 C 4.8 km/h
921 07-03-2020 04:40:00 5.5 C 6.04 g/m*3 5.5 C 3.2 km/h
922 07-03-2020 04:45:00 5.4 C 5.93 g/m*3 3.58 C 8.1 km/h
923 07-03-2020 04:50:00 5.4 C 5.93 g/m*3 3.58 C 8.1 km/h
924 07-03-2020 04:55:00 5.4 C 5.93 g/m*3 5.4 C 4.8 km/h
925 07-03-2020 05:00:00 5.4 C 5.93 g/m*3 3.2 C 9.7 km/h
Sensor: Nr:Datum:Temp:Abs-Feuchte:Windchill:Wind:
Aussen-T/F 926 07-03-2020 05:05:00 5.4 C 5.93 g/m*3 3.58 C 8.1 km/h
927 07-03-2020 05:10:00 5.4 C 5.93 g/m*3 5.4 C 4.8 km/h
928 07-03-2020 05:15:00 5.4 C 5.93 g/m*3 5.4 C 4.8 km/h
929 07-03-2020 05:20:00 5.4 C 5.93 g/m*3 4.06 C 6.4 km/h
930 07-03-2020 05:25:00 5.4 C 5.93 g/m*3 4.06 C 6.4 km/h
931 07-03-2020 05:30:00 5.4 C 5.93 g/m*3 5.4 C 4.8 km/h
932 07-03-2020 05:35:00 5.4 C 6 g/m*3 5.4 C 3.2 km/h
933 07-03-2020 05:40:00 5.4 C 6 g/m*3 5.4 C 0 km/h
934 07-03-2020 05:45:00 5.4 C 6 g/m*3 5.4 C 4.8 km/h
935 07-03-2020 05:50:00 5.4 C 6 g/m*3 5.4 C 4.8 km/h
936 07-03-2020 05:55:00 5.3 C 5.96 g/m*3 3.94 C 6.4 km/h
937 07-03-2020 06:00:00 5.3 C 6.03 g/m*3 3.46 C 8.1 km/h
938 07-03-2020 06:05:00 5.3 C 6.03 g/m*3 3.46 C 8.1 km/h
939 07-03-2020 06:10:00 5.3 C 6.03 g/m*3 3.94 C 6.4 km/h
940 07-03-2020 06:15:00 5.3 C 6.03 g/m*3 5.3 C 4.8 km/h
941 07-03-2020 06:20:00 5.3 C 6.03 g/m*3 5.3 C 4.8 km/h
942 07-03-2020 06:25:00 5.3 C 6.03 g/m*3 3.46 C 8.1 km/h
943 07-03-2020 06:30:00 5.3 C 5.96 g/m*3 3.94 C 6.4 km/h
944 07-03-2020 06:35:00 5.3 C 5.96 g/m*3 2.46 C 12.9 km/h
945 07-03-2020 06:40:00 5.3 C 5.96 g/m*3 3.94 C 6.4 km/h
946 07-03-2020 06:45:00 5.3 C 5.96 g/m*3 5.3 C 1.6 km/h
947 07-03-2020 06:50:00 5.3 C 5.96 g/m*3 3.08 C 9.7 km/h
948 07-03-2020 06:55:00 5.3 C 5.96 g/m*3 3.46 C 8.1 km/h
949 07-03-2020 07:00:00 5.3 C 5.96 g/m*3 3.46 C 8.1 km/h
950 07-03-2020 07:05:00 5.3 C 5.96 g/m*3 5.3 C 4.8 km/h
Sensor: Nr:Datum:Temp:Abs-Feuchte:Windchill:Wind:
Aussen-T/F 951 07-03-2020 07:10:00 5.3 C 5.96 g/m*3 5.3 C 3.2 km/h
952 07-03-2020 07:15:00 5.2 C 5.92 g/m*3 5.2 C 0 km/h
953 07-03-2020 07:20:00 5.2 C 5.92 g/m*3 5.2 C 0 km/h
954 07-03-2020 07:25:00 5.2 C 5.92 g/m*3 5.2 C 0 km/h
955 07-03-2020 07:30:00 5.2 C 5.92 g/m*3 5.2 C 3.2 km/h
956 07-03-2020 07:35:00 5.2 C 5.92 g/m*3 5.2 C 4.8 km/h
957 07-03-2020 07:40:00 5.2 C 5.99 g/m*3 5.2 C 0 km/h
958 07-03-2020 07:45:00 5.2 C 5.99 g/m*3 5.2 C 3.2 km/h
959 07-03-2020 07:50:00 5.2 C 6.06 g/m*3 5.2 C 3.2 km/h
960 07-03-2020 07:55:00 5.1 C 6.02 g/m*3 5.1 C 0 km/h
961 07-03-2020 08:00:00 5.1 C 6.09 g/m*3 5.1 C 1.6 km/h
962 07-03-2020 08:05:00 5.1 C 6.09 g/m*3 5.1 C 0 km/h
963 07-03-2020 08:10:00 4.9 C 6.08 g/m*3 4.9 C 0 km/h
964 07-03-2020 08:15:00 4.9 C 6.08 g/m*3 4.9 C 0 km/h
965 07-03-2020 08:20:00 4.9 C 6.08 g/m*3 4.9 C 0 km/h
966 07-03-2020 08:25:00 4.8 C 6.1 g/m*3 4.8 C 4.8 km/h
967 07-03-2020 08:30:00 4.8 C 6.1 g/m*3 4.8 C 4.8 km/h
968 07-03-2020 08:35:00 4.8 C 6.1 g/m*3 4.8 C 4.8 km/h
969 07-03-2020 08:40:00 4.8 C 6.1 g/m*3 4.8 C 3.2 km/h
970 07-03-2020 08:45:00 4.8 C 6.1 g/m*3 4.8 C 3.2 km/h
971 07-03-2020 08:50:00 4.9 C 6.14 g/m*3 4.9 C 0 km/h
972 07-03-2020 08:55:00 4.9 C 6.14 g/m*3 4.9 C 4.8 km/h
973 07-03-2020 09:00:00 4.9 C 6.14 g/m*3 4.9 C 4.8 km/h
974 07-03-2020 09:05:00 5.1 C 6.16 g/m*3 5.1 C 3.2 km/h
975 07-03-2020 09:10:00 5.2 C 6.13 g/m*3 5.2 C 4.8 km/h
Sensor: Nr:Datum:Temp:Abs-Feuchte:Windchill:Wind:
Aussen-T/F 976 07-03-2020 09:15:00 5.3 C 6.17 g/m*3 5.3 C 1.6 km/h
977 07-03-2020 09:20:00 5.4 C 6.21 g/m*3 5.4 C 4.8 km/h
978 07-03-2020 09:25:00 5.5 C 6.18 g/m*3 5.5 C 4.8 km/h
979 07-03-2020 09:30:00 5.7 C 6.19 g/m*3 5.7 C 3.2 km/h
980 07-03-2020 09:35:00 5.8 C 6.16 g/m*3 5.8 C 4.8 km/h
981 07-03-2020 09:40:00 5.9 C 6.13 g/m*3 5.9 C 4.8 km/h
982 07-03-2020 09:45:00 6.1 C 6.14 g/m*3 6.1 C 4.8 km/h
983 07-03-2020 09:50:00 6.2 C 6.1 g/m*3 4.98 C 6.4 km/h
984 07-03-2020 09:55:00 6.3 C 6.07 g/m*3 5.1 C 6.4 km/h
985 07-03-2020 10:00:00 6.4 C 6.11 g/m*3 5.21 C 6.4 km/h
986 07-03-2020 10:05:00 6.6 C 6.27 g/m*3 5.44 C 6.4 km/h
987 07-03-2020 10:10:00 6.6 C 6.11 g/m*3 4.63 C 9.7 km/h
988 07-03-2020 10:15:00 6.5 C 6.15 g/m*3 4.87 C 8.1 km/h
989 07-03-2020 10:20:00 6.4 C 6.18 g/m*3 4.75 C 8.1 km/h
990 07-03-2020 10:25:00 6.5 C 6.22 g/m*3 6.5 C 4.8 km/h
991 07-03-2020 10:30:00 6.5 C 6.22 g/m*3 6.5 C 3.2 km/h
992 07-03-2020 10:35:00 6.6 C 6.27 g/m*3 5.44 C 6.4 km/h
993 07-03-2020 10:40:00 6.6 C 6.27 g/m*3 4.99 C 8.1 km/h
994 07-03-2020 10:45:00 6.7 C 6.31 g/m*3 6.7 C 4.8 km/h
995 07-03-2020 10:50:00 6.8 C 6.42 g/m*3 6.8 C 3.2 km/h
996 07-03-2020 10:55:00 6.9 C 6.24 g/m*3 6.9 C 4.8 km/h
997 07-03-2020 11:00:00 7.1 C 6.32 g/m*3 5.58 C 8.1 km/h
998 07-03-2020 11:05:00 7.1 C 6.24 g/m*3 6.02 C 6.4 km/h
999 07-03-2020 11:10:00 7.2 C 6.28 g/m*3 6.13 C 6.4 km/h
1000 07-03-2020 11:15:00 7.2 C 6.2 g/m*3 5.69 C 8.1 km/h
Sensor: Nr:Datum:Temp:Abs-Feuchte:Windchill:Wind:
Aussen-T/F 1001 07-03-2020 11:20:00 7.3 C 6.08 g/m*3 5.47 C 9.7 km/h
1002 07-03-2020 11:25:00 7.4 C 6.04 g/m*3 5.58 C 9.7 km/h
1003 07-03-2020 11:30:00 7.6 C 6.04 g/m*3 5.82 C 9.7 km/h
1004 07-03-2020 11:35:00 7.5 C 5.84 g/m*3 5.14 C 12.9 km/h
1005 07-03-2020 11:40:00 7.6 C 5.88 g/m*3 5.53 C 11.3 km/h
1006 07-03-2020 11:45:00 7.9 C 6.16 g/m*3 6.52 C 8.1 km/h
1007 07-03-2020 11:50:00 8.1 C 5.99 g/m*3 6.13 C 11.3 km/h
1008 07-03-2020 11:55:00 8 C 6.04 g/m*3 6.64 C 8.1 km/h
1009 07-03-2020 12:00:00 7.9 C 6 g/m*3 7.9 C 4.8 km/h
1010 07-03-2020 12:05:00 7.8 C 5.88 g/m*3 6.83 C 6.4 km/h
1011 07-03-2020 12:10:00 7.8 C 5.96 g/m*3 7.8 C 4.8 km/h
1012 07-03-2020 12:15:00 7.8 C 6.04 g/m*3 7.8 C 1.6 km/h
1013 07-03-2020 12:20:00 7.8 C 6.12 g/m*3 7.8 C 3.2 km/h
1014 07-03-2020 12:25:00 7.9 C 6.16 g/m*3 7.9 C 1.6 km/h
1015 07-03-2020 12:30:00 7.9 C 6.08 g/m*3 7.9 C 1.6 km/h
1016 07-03-2020 12:35:00 7.9 C 6.08 g/m*3 7.9 C 3.2 km/h
1017 07-03-2020 12:40:00 7.9 C 5.75 g/m*3 6.18 C 9.7 km/h
1018 07-03-2020 12:45:00 7.8 C 5.55 g/m*3 6.06 C 9.7 km/h
1019 07-03-2020 12:50:00 7.8 C 5.47 g/m*3 5.77 C 11.3 km/h
1020 07-03-2020 12:55:00 7.8 C 5.63 g/m*3 6.06 C 9.7 km/h
1021 07-03-2020 13:00:00 7.8 C 5.63 g/m*3 6.06 C 9.7 km/h
1022 07-03-2020 13:05:00 7.9 C 5.67 g/m*3 6.52 C 8.1 km/h
1023 07-03-2020 13:10:00 8.2 C 5.95 g/m*3 6.54 C 9.7 km/h
1024 07-03-2020 13:15:00 8.6 C 5.84 g/m*3 7.01 C 9.7 km/h
1025 07-03-2020 13:20:00 8.8 C 6.01 g/m*3 7.25 C 9.7 km/h
Sensor: Nr:Datum:Temp:Abs-Feuchte:Windchill:Wind:
Aussen-T/F 1026 07-03-2020 13:25:00 8.9 C 6.04 g/m*3 8.9 C 3.2 km/h
1027 07-03-2020 13:30:00 8.9 C 5.87 g/m*3 8.9 C 3.2 km/h
1028 07-03-2020 13:35:00 8.9 C 5.87 g/m*3 7.37 C 9.7 km/h
1029 07-03-2020 13:40:00 8.8 C 5.92 g/m*3 6.5 C 14.5 km/h
1030 07-03-2020 13:45:00 8.7 C 5.97 g/m*3 7.87 C 6.4 km/h
1031 07-03-2020 13:50:00 8.7 C 5.71 g/m*3 7.13 C 9.7 km/h
1032 07-03-2020 13:55:00 8.8 C 5.74 g/m*3 6.5 C 14.5 km/h
1033 07-03-2020 14:00:00 9 C 5.91 g/m*3 8.21 C 6.4 km/h
1034 07-03-2020 14:05:00 9.2 C 5.8 g/m*3 9.2 C 4.8 km/h
1035 07-03-2020 14:10:00 9.2 C 5.89 g/m*3 8.45 C 6.4 km/h
1036 07-03-2020 14:15:00 9.2 C 5.45 g/m*3 7.73 C 9.7 km/h
1037 07-03-2020 14:20:00 9.5 C 5.64 g/m*3 7.82 C 11.3 km/h
1038 07-03-2020 14:25:00 9.8 C 5.75 g/m*3 7.94 C 12.9 km/h
1039 07-03-2020 14:30:00 10 C 5.54 g/m*3 7.78 C 16.1 km/h
1040 07-03-2020 14:35:00 10 C 5.36 g/m*3 8.42 C 11.3 km/h
1041 07-03-2020 14:40:00 10 C 5.54 g/m*3 8.19 C 12.9 km/h
1042 07-03-2020 14:45:00 9.9 C 5.32 g/m*3 7.85 C 14.5 km/h
1043 07-03-2020 14:50:00 10.1 C 5.3 g/m*3 8.1 C 14.5 km/h
1044 07-03-2020 14:55:00 10 C 5.07 g/m*3 8.42 C 11.3 km/h
1045 07-03-2020 15:00:00 9.9 C 5.14 g/m*3 9.9 C 4.8 km/h
1046 07-03-2020 15:05:00 10.1 C 5.3 g/m*3 8.31 C 12.9 km/h
1047 07-03-2020 15:10:00 10.2 C 5.23 g/m*3 9.6 C 6.4 km/h
1048 07-03-2020 15:15:00 10.1 C 5.3 g/m*3 8.8 C 9.7 km/h
1049 07-03-2020 15:20:00 9.9 C 5.23 g/m*3 9.9 C 3.2 km/h
1050 07-03-2020 15:25:00 9.8 C 5.2 g/m*3 9.8 C 4.8 km/h
Sensor: Nr:Datum:Temp:Abs-Feuchte:Windchill:Wind:
Aussen-T/F 1051 07-03-2020 15:30:00 9.7 C 5.35 g/m*3 8.63 C 8.1 km/h
1052 07-03-2020 15:35:00 9.6 C 5.22 g/m*3 8.52 C 8.1 km/h
1053 07-03-2020 15:40:00 9.7 C 5.44 g/m*3 9.02 C 6.4 km/h
1054 07-03-2020 15:45:00 10.1 C 5.48 g/m*3 8.54 C 11.3 km/h
1055 07-03-2020 15:50:00 10 C 5.36 g/m*3 7.98 C 14.5 km/h
1056 07-03-2020 15:55:00 9.7 C 5.44 g/m*3 7.61 C 14.5 km/h
1057 07-03-2020 16:00:00 9.5 C 5.19 g/m*3 7.82 C 11.3 km/h
1058 07-03-2020 16:05:00 9.4 C 5.16 g/m*3 7.7 C 11.3 km/h
1059 07-03-2020 16:10:00 9.5 C 5.1 g/m*3 8.09 C 9.7 km/h
1060 07-03-2020 16:15:00 9.6 C 5.22 g/m*3 7.94 C 11.3 km/h
1061 07-03-2020 16:20:00 9.7 C 5.35 g/m*3 9.02 C 6.4 km/h
1062 07-03-2020 16:25:00 9.6 C 5.31 g/m*3 8.21 C 9.7 km/h
1063 07-03-2020 16:30:00 9.4 C 5.34 g/m*3 8.68 C 6.4 km/h
1064 07-03-2020 16:35:00 9.3 C 5.3 g/m*3 8.16 C 8.1 km/h
1065 07-03-2020 16:40:00 9.2 C 5.27 g/m*3 7.21 C 12.9 km/h
1066 07-03-2020 16:45:00 9.2 C 5.36 g/m*3 8.45 C 6.4 km/h
1067 07-03-2020 16:50:00 9.1 C 5.32 g/m*3 8.33 C 6.4 km/h
1068 07-03-2020 16:55:00 9.1 C 5.41 g/m*3 8.33 C 6.4 km/h
1069 07-03-2020 17:00:00 8.9 C 5.43 g/m*3 8.1 C 6.4 km/h
1070 07-03-2020 17:05:00 8.9 C 5.26 g/m*3 7.09 C 11.3 km/h
1071 07-03-2020 17:10:00 8.9 C 5.43 g/m*3 7.69 C 8.1 km/h
1072 07-03-2020 17:15:00 8.9 C 5.61 g/m*3 8.9 C 1.6 km/h
1073 07-03-2020 17:20:00 8.9 C 5.43 g/m*3 8.9 C 4.8 km/h
1074 07-03-2020 17:25:00 8.9 C 5.43 g/m*3 8.1 C 6.4 km/h
1075 07-03-2020 17:30:00 9.1 C 5.68 g/m*3 9.1 C 4.8 km/h
Sensor: Nr:Datum:Temp:Abs-Feuchte:Windchill:Wind:
Aussen-T/F 1076 07-03-2020 17:35:00 9.1 C 5.59 g/m*3 8.33 C 6.4 km/h
1077 07-03-2020 17:40:00 9.2 C 5.89 g/m*3 9.2 C 3.2 km/h
1078 07-03-2020 17:45:00 9.2 C 5.98 g/m*3 9.2 C 4.8 km/h
1079 07-03-2020 17:50:00 9.1 C 5.94 g/m*3 9.1 C 4.8 km/h
1080 07-03-2020 17:55:00 8.9 C 6.13 g/m*3 8.9 C 4.8 km/h
1081 07-03-2020 18:00:00 8.7 C 6.05 g/m*3 8.7 C 3.2 km/h
1082 07-03-2020 18:05:00 8.3 C 5.9 g/m*3 8.3 C 4.8 km/h
1083 07-03-2020 18:10:00 7.9 C 5.83 g/m*3 6.94 C 6.4 km/h
1084 07-03-2020 18:15:00 7.6 C 5.88 g/m*3 7.6 C 4.8 km/h
1085 07-03-2020 18:20:00 7.3 C 5.69 g/m*3 6.25 C 6.4 km/h
1086 07-03-2020 18:25:00 7.1 C 5.85 g/m*3 6.02 C 6.4 km/h
1087 07-03-2020 18:30:00 6.8 C 5.81 g/m*3 5.67 C 6.4 km/h
1088 07-03-2020 18:35:00 6.6 C 5.81 g/m*3 5.44 C 6.4 km/h
1089 07-03-2020 18:40:00 6.2 C 5.74 g/m*3 4.98 C 6.4 km/h
1090 07-03-2020 18:45:00 5.9 C 5.7 g/m*3 4.63 C 6.4 km/h
1091 07-03-2020 18:50:00 5.8 C 5.73 g/m*3 4.52 C 6.4 km/h
1092 07-03-2020 18:55:00 5.6 C 5.73 g/m*3 4.29 C 6.4 km/h
1093 07-03-2020 19:00:00 5.4 C 5.65 g/m*3 4.06 C 6.4 km/h
1094 07-03-2020 19:05:00 5.2 C 5.65 g/m*3 3.82 C 6.4 km/h
1095 07-03-2020 19:10:00 5.2 C 5.65 g/m*3 3.82 C 6.4 km/h
1096 07-03-2020 19:15:00 5.1 C 5.61 g/m*3 3.71 C 6.4 km/h
1097 07-03-2020 19:20:00 5 C 5.64 g/m*3 5 C 4.8 km/h
1098 07-03-2020 19:25:00 5 C 5.64 g/m*3 5 C 4.8 km/h
1099 07-03-2020 19:30:00 4.9 C 5.6 g/m*3 4.9 C 3.2 km/h
1100 07-03-2020 19:35:00 4.9 C 5.67 g/m*3 4.9 C 4.8 km/h
Sensor: Nr:Datum:Temp:Abs-Feuchte:Windchill:Wind:
Aussen-T/F 1101 07-03-2020 19:40:00 4.9 C 5.67 g/m*3 4.9 C 0 km/h
1102 07-03-2020 19:45:00 4.9 C 5.67 g/m*3 4.9 C 4.8 km/h
1103 07-03-2020 19:50:00 4.9 C 5.67 g/m*3 4.9 C 3.2 km/h
1104 07-03-2020 19:55:00 4.9 C 5.67 g/m*3 4.9 C 0 km/h
1105 07-03-2020 20:00:00 5 C 5.71 g/m*3 5 C 3.2 km/h
1106 07-03-2020 20:05:00 4.9 C 5.74 g/m*3 4.9 C 1.6 km/h
1107 07-03-2020 20:10:00 4.9 C 5.67 g/m*3 4.9 C 0 km/h
1108 07-03-2020 20:15:00 4.9 C 5.74 g/m*3 4.9 C 0 km/h
1109 07-03-2020 20:20:00 4.9 C 5.81 g/m*3 4.9 C 0 km/h
1110 07-03-2020 20:25:00 5 C 5.84 g/m*3 5 C 0 km/h
1111 07-03-2020 20:30:00 5 C 5.84 g/m*3 5 C 0 km/h
1112 07-03-2020 20:35:00 5.1 C 5.88 g/m*3 5.1 C 0 km/h
1113 07-03-2020 20:40:00 5.1 C 5.88 g/m*3 5.1 C 0 km/h
1114 07-03-2020 20:45:00 5.1 C 5.88 g/m*3 5.1 C 0 km/h
1115 07-03-2020 20:50:00 5.1 C 5.88 g/m*3 5.1 C 0 km/h
1116 07-03-2020 20:55:00 5.1 C 5.88 g/m*3 5.1 C 0 km/h
1117 07-03-2020 21:00:00 5.1 C 5.88 g/m*3 5.1 C 0 km/h
1118 07-03-2020 21:05:00 5.1 C 5.88 g/m*3 5.1 C 0 km/h
1119 07-03-2020 21:10:00 5.1 C 5.88 g/m*3 5.1 C 0 km/h
1120 07-03-2020 21:15:00 5.1 C 5.88 g/m*3 5.1 C 0 km/h
1121 07-03-2020 21:20:00 5.1 C 5.88 g/m*3 5.1 C 0 km/h
1122 07-03-2020 21:25:00 5.1 C 5.95 g/m*3 5.1 C 0 km/h
1123 07-03-2020 21:30:00 5.1 C 5.95 g/m*3 5.1 C 0 km/h
1124 07-03-2020 21:35:00 5.2 C 5.99 g/m*3 5.2 C 0 km/h
1125 07-03-2020 21:40:00 5.2 C 5.99 g/m*3 5.2 C 0 km/h
Sensor: Nr:Datum:Temp:Abs-Feuchte:Windchill:Wind:
Aussen-T/F 1126 07-03-2020 21:45:00 5.2 C 5.99 g/m*3 5.2 C 0 km/h
1127 07-03-2020 21:50:00 5.3 C 6.03 g/m*3 5.3 C 1.6 km/h
1128 07-03-2020 21:55:00 5.3 C 5.96 g/m*3 5.3 C 0 km/h
1129 07-03-2020 22:00:00 5.4 C 6 g/m*3 5.4 C 0 km/h
1130 07-03-2020 22:05:00 5.4 C 6 g/m*3 5.4 C 1.6 km/h
1131 07-03-2020 22:10:00 5.5 C 5.97 g/m*3 5.5 C 1.6 km/h
1132 07-03-2020 22:15:00 5.6 C 5.94 g/m*3 5.6 C 1.6 km/h
1133 07-03-2020 22:20:00 5.7 C 5.98 g/m*3 5.7 C 1.6 km/h
1134 07-03-2020 22:25:00 5.7 C 5.98 g/m*3 5.7 C 1.6 km/h
1135 07-03-2020 22:30:00 5.8 C 6.02 g/m*3 5.8 C 0 km/h
1136 07-03-2020 22:35:00 5.8 C 5.95 g/m*3 5.8 C 0 km/h
1137 07-03-2020 22:40:00 5.9 C 5.98 g/m*3 5.9 C 0 km/h
1138 07-03-2020 22:45:00 5.9 C 5.98 g/m*3 5.9 C 0 km/h
1139 07-03-2020 22:50:00 5.9 C 5.91 g/m*3 5.9 C 1.6 km/h
1140 07-03-2020 22:55:00 5.9 C 5.84 g/m*3 5.9 C 4.8 km/h
1141 07-03-2020 23:00:00 6.1 C 5.92 g/m*3 6.1 C 4.8 km/h
1142 07-03-2020 23:05:00 6.1 C 5.92 g/m*3 6.1 C 0 km/h
1143 07-03-2020 23:10:00 6.2 C 5.88 g/m*3 4.98 C 6.4 km/h
1144 07-03-2020 23:15:00 6.3 C 5.92 g/m*3 6.3 C 3.2 km/h
1145 07-03-2020 23:20:00 6.4 C 5.89 g/m*3 4.75 C 8.1 km/h
1146 07-03-2020 23:25:00 6.6 C 5.96 g/m*3 6.6 C 0 km/h
1147 07-03-2020 23:30:00 6.6 C 5.89 g/m*3 5.44 C 6.4 km/h
1148 07-03-2020 23:35:00 6.7 C 5.85 g/m*3 5.56 C 6.4 km/h
1149 07-03-2020 23:40:00 6.7 C 5.93 g/m*3 6.7 C 3.2 km/h
1150 07-03-2020 23:45:00 6.8 C 6.04 g/m*3 6.8 C 3.2 km/h
Sensor: Nr:Datum:Temp:Abs-Feuchte:Windchill:Wind:
Aussen-T/F 1151 07-03-2020 23:50:00 6.7 C 5.93 g/m*3 5.56 C 6.4 km/h
1152 07-03-2020 23:55:00 6.8 C 5.97 g/m*3 4.87 C 9.7 km/h
1153 08-03-2020 00:00:00 6.8 C 5.97 g/m*3 6.8 C 3.2 km/h
1154 08-03-2020 00:05:00 6.8 C 6.04 g/m*3 5.67 C 6.4 km/h
1155 08-03-2020 00:10:00 6.9 C 6 g/m*3 5.79 C 6.4 km/h
1156 08-03-2020 00:15:00 6.9 C 6 g/m*3 6.9 C 3.2 km/h
1157 08-03-2020 00:20:00 6.9 C 6.08 g/m*3 6.9 C 1.6 km/h
1158 08-03-2020 00:25:00 6.9 C 6.16 g/m*3 5.79 C 6.4 km/h
1159 08-03-2020 00:30:00 7 C 6.12 g/m*3 5.46 C 8.1 km/h
1160 08-03-2020 00:35:00 7.1 C 6.24 g/m*3 5.23 C 9.7 km/h
1161 08-03-2020 00:40:00 7.1 C 6.16 g/m*3 7.1 C 4.8 km/h
1162 08-03-2020 00:45:00 7.1 C 6.16 g/m*3 6.02 C 6.4 km/h
1163 08-03-2020 00:50:00 7.2 C 6.28 g/m*3 5.04 C 11.3 km/h
1164 08-03-2020 00:55:00 7.2 C 6.2 g/m*3 5.04 C 11.3 km/h
1165 08-03-2020 01:00:00 7.3 C 6.24 g/m*3 4.44 C 16.1 km/h
1166 08-03-2020 01:05:00 7.4 C 6.28 g/m*3 4.56 C 16.1 km/h
1167 08-03-2020 01:10:00 7.4 C 6.28 g/m*3 7.4 C 4.8 km/h
1168 08-03-2020 01:15:00 7.4 C 6.28 g/m*3 7.4 C 4.8 km/h
1169 08-03-2020 01:20:00 7.3 C 6.24 g/m*3 5.16 C 11.3 km/h
1170 08-03-2020 01:25:00 7.3 C 6.24 g/m*3 7.3 C 4.8 km/h
1171 08-03-2020 01:30:00 7.3 C 6.32 g/m*3 7.3 C 4.8 km/h
1172 08-03-2020 01:35:00 7.3 C 6.24 g/m*3 7.3 C 4.8 km/h
1173 08-03-2020 01:40:00 7.3 C 6.32 g/m*3 7.3 C 3.2 km/h
1174 08-03-2020 01:45:00 7.3 C 6.32 g/m*3 5.81 C 8.1 km/h
1175 08-03-2020 01:50:00 7.3 C 6.32 g/m*3 6.25 C 6.4 km/h
Sensor: Nr:Datum:Temp:Abs-Feuchte:Windchill:Wind:
Aussen-T/F 1176 08-03-2020 01:55:00 7.3 C 6.4 g/m*3 7.3 C 1.6 km/h
1177 08-03-2020 02:00:00 7.3 C 6.32 g/m*3 7.3 C 3.2 km/h
1178 08-03-2020 02:05:00 7.3 C 6.4 g/m*3 6.25 C 6.4 km/h
1179 08-03-2020 02:10:00 7.3 C 6.4 g/m*3 5.81 C 8.1 km/h
1180 08-03-2020 02:15:00 7.3 C 6.32 g/m*3 5.81 C 8.1 km/h
1181 08-03-2020 02:20:00 7.3 C 6.4 g/m*3 7.3 C 4.8 km/h
1182 08-03-2020 02:25:00 7.3 C 6.4 g/m*3 7.3 C 4.8 km/h
1183 08-03-2020 02:30:00 7.3 C 6.4 g/m*3 5.81 C 8.1 km/h
1184 08-03-2020 02:35:00 7.4 C 6.36 g/m*3 5.02 C 12.9 km/h
1185 08-03-2020 02:40:00 7.5 C 6.4 g/m*3 5.7 C 9.7 km/h
1186 08-03-2020 02:45:00 7.6 C 6.36 g/m*3 6.16 C 8.1 km/h
1187 08-03-2020 02:50:00 7.6 C 6.36 g/m*3 5.53 C 11.3 km/h
1188 08-03-2020 02:55:00 7.7 C 6.41 g/m*3 6.28 C 8.1 km/h
1189 08-03-2020 03:00:00 7.7 C 6.41 g/m*3 6.71 C 6.4 km/h
1190 08-03-2020 03:05:00 7.6 C 6.36 g/m*3 7.6 C 4.8 km/h
1191 08-03-2020 03:10:00 7.6 C 6.36 g/m*3 5.82 C 9.7 km/h
1192 08-03-2020 03:15:00 7.6 C 6.36 g/m*3 6.6 C 6.4 km/h
1193 08-03-2020 03:20:00 7.4 C 6.28 g/m*3 5.93 C 8.1 km/h
1194 08-03-2020 03:25:00 7.4 C 6.36 g/m*3 6.37 C 6.4 km/h
1195 08-03-2020 03:30:00 7.3 C 6.32 g/m*3 7.3 C 4.8 km/h
1196 08-03-2020 03:35:00 7.2 C 6.36 g/m*3 7.2 C 4.8 km/h
1197 08-03-2020 03:40:00 7.2 C 6.36 g/m*3 7.2 C 3.2 km/h
1198 08-03-2020 03:45:00 7.1 C 6.32 g/m*3 5.23 C 9.7 km/h
1199 08-03-2020 03:50:00 7.1 C 6.4 g/m*3 6.02 C 6.4 km/h
1200 08-03-2020 03:55:00 7.1 C 6.4 g/m*3 5.58 C 8.1 km/h
Sensor: Nr:Datum:Temp:Abs-Feuchte:Windchill:Wind:
Aussen-T/F 1201 08-03-2020 04:00:00 7.1 C 6.4 g/m*3 6.02 C 6.4 km/h
1202 08-03-2020 04:05:00 7.2 C 6.36 g/m*3 4.53 C 14.5 km/h
1203 08-03-2020 04:10:00 7.3 C 6.32 g/m*3 4.9 C 12.9 km/h
1204 08-03-2020 04:15:00 7.4 C 6.36 g/m*3 4.78 C 14.5 km/h
1205 08-03-2020 04:20:00 7.5 C 6.32 g/m*3 4.9 C 14.5 km/h
1206 08-03-2020 04:25:00 7.5 C 6.32 g/m*3 4.9 C 14.5 km/h
1207 08-03-2020 04:30:00 7.5 C 6.32 g/m*3 5.7 C 9.7 km/h
1208 08-03-2020 04:35:00 7.5 C 6.32 g/m*3 5.41 C 11.3 km/h
1209 08-03-2020 04:40:00 7.5 C 6.32 g/m*3 5.41 C 11.3 km/h
1210 08-03-2020 04:45:00 7.4 C 6.36 g/m*3 5.58 C 9.7 km/h
1211 08-03-2020 04:50:00 7.4 C 6.28 g/m*3 5.58 C 9.7 km/h
1212 08-03-2020 04:55:00 7.4 C 6.36 g/m*3 5.58 C 9.7 km/h
1213 08-03-2020 05:00:00 7.4 C 6.36 g/m*3 5.93 C 8.1 km/h
1214 08-03-2020 05:05:00 7.3 C 6.32 g/m*3 7.3 C 4.8 km/h
1215 08-03-2020 05:10:00 7.3 C 6.32 g/m*3 5.81 C 8.1 km/h
1216 08-03-2020 05:15:00 7.3 C 6.32 g/m*3 5.16 C 11.3 km/h
1217 08-03-2020 05:20:00 7.3 C 6.32 g/m*3 7.3 C 4.8 km/h
1218 08-03-2020 05:25:00 7.3 C 6.32 g/m*3 6.25 C 6.4 km/h
1219 08-03-2020 05:30:00 7.3 C 6.32 g/m*3 7.3 C 4.8 km/h
1220 08-03-2020 05:35:00 7.2 C 6.28 g/m*3 5.04 C 11.3 km/h
1221 08-03-2020 05:40:00 7.3 C 6.24 g/m*3 5.16 C 11.3 km/h
1222 08-03-2020 05:45:00 7.3 C 6.24 g/m*3 5.81 C 8.1 km/h
1223 08-03-2020 05:50:00 7.4 C 6.36 g/m*3 5.93 C 8.1 km/h
1224 08-03-2020 05:55:00 7.3 C 6.24 g/m*3 7.3 C 1.6 km/h
1225 08-03-2020 06:00:00 7.3 C 6.32 g/m*3 6.25 C 6.4 km/h
Sensor: Nr:Datum:Temp:Abs-Feuchte:Windchill:Wind:
Aussen-T/F 1226 08-03-2020 06:05:00 7.2 C 6.28 g/m*3 6.13 C 6.4 km/h
1227 08-03-2020 06:10:00 7.2 C 6.36 g/m*3 6.13 C 6.4 km/h
1228 08-03-2020 06:15:00 7.1 C 6.32 g/m*3 7.1 C 0 km/h
1229 08-03-2020 06:20:00 7 C 6.28 g/m*3 7 C 0 km/h
1230 08-03-2020 06:25:00 7 C 6.28 g/m*3 7 C 3.2 km/h
1231 08-03-2020 06:30:00 7 C 6.28 g/m*3 7 C 1.6 km/h
1232 08-03-2020 06:35:00 7.1 C 6.4 g/m*3 7.1 C 1.6 km/h
1233 08-03-2020 06:40:00 7.1 C 6.4 g/m*3 7.1 C 0 km/h
1234 08-03-2020 06:45:00 7.2 C 6.44 g/m*3 7.2 C 1.6 km/h
1235 08-03-2020 06:50:00 7.3 C 6.4 g/m*3 7.3 C 3.2 km/h
1236 08-03-2020 06:55:00 7.4 C 6.52 g/m*3 5.93 C 8.1 km/h
1237 08-03-2020 07:00:00 7.6 C 6.44 g/m*3 6.6 C 6.4 km/h
1238 08-03-2020 07:05:00 7.8 C 6.53 g/m*3 6.83 C 6.4 km/h
1239 08-03-2020 07:10:00 7.8 C 6.53 g/m*3 7.8 C 4.8 km/h
1240 08-03-2020 07:15:00 7.9 C 6.57 g/m*3 6.52 C 8.1 km/h
1241 08-03-2020 07:20:00 7.9 C 6.57 g/m*3 7.9 C 3.2 km/h
1242 08-03-2020 07:25:00 8 C 6.61 g/m*3 6.64 C 8.1 km/h
1243 08-03-2020 07:30:00 8.1 C 6.66 g/m*3 8.1 C 4.8 km/h
1244 08-03-2020 07:35:00 8.2 C 6.62 g/m*3 7.29 C 6.4 km/h
1245 08-03-2020 07:40:00 8.2 C 6.62 g/m*3 8.2 C 3.2 km/h
1246 08-03-2020 07:45:00 8.3 C 6.66 g/m*3 8.3 C 0 km/h
1247 08-03-2020 07:50:00 8.3 C 6.66 g/m*3 8.3 C 0 km/h
1248 08-03-2020 07:55:00 8.3 C 6.74 g/m*3 8.3 C 1.6 km/h
1249 08-03-2020 08:00:00 8.4 C 6.7 g/m*3 8.4 C 4.8 km/h
1250 08-03-2020 08:05:00 8.4 C 6.7 g/m*3 8.4 C 4.8 km/h
Sensor: Nr:Datum:Temp:Abs-Feuchte:Windchill:Wind:
Aussen-T/F 1251 08-03-2020 08:10:00 8.5 C 6.74 g/m*3 8.5 C 4.8 km/h
1252 08-03-2020 08:15:00 8.6 C 6.79 g/m*3 7.34 C 8.1 km/h
1253 08-03-2020 08:20:00 8.6 C 6.79 g/m*3 8.6 C 0 km/h
1254 08-03-2020 08:25:00 8.6 C 6.79 g/m*3 8.6 C 4.8 km/h
1255 08-03-2020 08:30:00 8.7 C 6.83 g/m*3 8.7 C 1.6 km/h
1256 08-03-2020 08:35:00 8.7 C 6.83 g/m*3 8.7 C 3.2 km/h
1257 08-03-2020 08:40:00 8.7 C 6.83 g/m*3 8.7 C 3.2 km/h
1258 08-03-2020 08:45:00 8.8 C 6.88 g/m*3 8.8 C 4.8 km/h
1259 08-03-2020 08:50:00 8.8 C 6.79 g/m*3 6.97 C 11.3 km/h
1260 08-03-2020 08:55:00 8.8 C 6.79 g/m*3 7.98 C 6.4 km/h
1261 08-03-2020 09:00:00 8.8 C 6.88 g/m*3 8.8 C 1.6 km/h
1262 08-03-2020 09:05:00 8.8 C 6.88 g/m*3 8.8 C 3.2 km/h
1263 08-03-2020 09:10:00 8.8 C 6.88 g/m*3 8.8 C 4.8 km/h
1264 08-03-2020 09:15:00 8.8 C 6.79 g/m*3 8.8 C 3.2 km/h
1265 08-03-2020 09:20:00 8.8 C 6.79 g/m*3 8.8 C 3.2 km/h
1266 08-03-2020 09:25:00 8.8 C 6.79 g/m*3 8.8 C 4.8 km/h
1267 08-03-2020 09:30:00 8.9 C 6.83 g/m*3 8.9 C 0 km/h
1268 08-03-2020 09:35:00 9 C 6.88 g/m*3 9 C 4.8 km/h
1269 08-03-2020 09:40:00 9.1 C 6.92 g/m*3 9.1 C 4.8 km/h
1270 08-03-2020 09:45:00 9.2 C 6.97 g/m*3 9.2 C 3.2 km/h
1271 08-03-2020 09:50:00 9.4 C 7.15 g/m*3 9.4 C 4.8 km/h
1272 08-03-2020 09:55:00 9.6 C 7.15 g/m*3 8.52 C 8.1 km/h
1273 08-03-2020 10:00:00 9.7 C 7.1 g/m*3 8.63 C 8.1 km/h
1274 08-03-2020 10:05:00 9.8 C 7.14 g/m*3 9.14 C 6.4 km/h
1275 08-03-2020 10:10:00 9.9 C 7.19 g/m*3 8.87 C 8.1 km/h
Sensor: Nr:Datum:Temp:Abs-Feuchte:Windchill:Wind:
Aussen-T/F 1276 08-03-2020 10:15:00 10 C 7.24 g/m*3 8.99 C 8.1 km/h
1277 08-03-2020 10:20:00 10.1 C 7.19 g/m*3 8.1 C 14.5 km/h
1278 08-03-2020 10:25:00 10.1 C 7.19 g/m*3 8.8 C 9.7 km/h
1279 08-03-2020 10:30:00 10.2 C 7.14 g/m*3 8.43 C 12.9 km/h
1280 08-03-2020 10:35:00 10.2 C 7.23 g/m*3 8.43 C 12.9 km/h
1281 08-03-2020 10:40:00 10.4 C 7.13 g/m*3 8.47 C 14.5 km/h
1282 08-03-2020 10:45:00 10.6 C 7.22 g/m*3 7.54 C 27.4 km/h
1283 08-03-2020 10:50:00 10.7 C 7.17 g/m*3 9.81 C 8.1 km/h
1284 08-03-2020 10:55:00 10.9 C 7.26 g/m*3 10.04 C 8.1 km/h
1285 08-03-2020 11:00:00 11 C 7.31 g/m*3 10.16 C 8.1 km/h
1286 08-03-2020 11:05:00 11.2 C 7.3 g/m*3 11.2 C 12.9 km/h
1287 08-03-2020 11:10:00 11.3 C 7.45 g/m*3 11.3 C 9.7 km/h
1288 08-03-2020 11:15:00 11.4 C 7.29 g/m*3 11.4 C 9.7 km/h
1289 08-03-2020 11:20:00 11.5 C 7.33 g/m*3 11.5 C 9.7 km/h
1290 08-03-2020 11:25:00 11.4 C 7.19 g/m*3 11.4 C 16.1 km/h
1291 08-03-2020 11:30:00 11.6 C 7.38 g/m*3 11.6 C 11.3 km/h
1292 08-03-2020 11:35:00 11.6 C 7.28 g/m*3 11.6 C 9.7 km/h
1293 08-03-2020 11:40:00 11.7 C 7.22 g/m*3 11.7 C 14.5 km/h
1294 08-03-2020 11:45:00 11.8 C 7.16 g/m*3 11.8 C 11.3 km/h
1295 08-03-2020 11:50:00 11.8 C 7.16 g/m*3 11.8 C 17.7 km/h
1296 08-03-2020 11:55:00 11.8 C 7.16 g/m*3 11.8 C 11.3 km/h
1297 08-03-2020 12:00:00 11.9 C 7.2 g/m*3 11.9 C 14.5 km/h
1298 08-03-2020 12:05:00 12 C 7.35 g/m*3 12 C 8.1 km/h
1299 08-03-2020 12:10:00 12.1 C 7.18 g/m*3 12.1 C 12.9 km/h
1300 08-03-2020 12:15:00 12.1 C 7.18 g/m*3 12.1 C 14.5 km/h
Sensor: Nr:Datum:Temp:Abs-Feuchte:Windchill:Wind:
Aussen-T/F 1301 08-03-2020 12:20:00 12.2 C 7.23 g/m*3 12.2 C 11.3 km/h
1302 08-03-2020 12:25:00 12.4 C 7.32 g/m*3 12.4 C 16.1 km/h
1303 08-03-2020 12:30:00 12.6 C 7.19 g/m*3 12.6 C 19.3 km/h
1304 08-03-2020 12:35:00 12.6 C 7.3 g/m*3 12.6 C 16.1 km/h
1305 08-03-2020 12:40:00 12.5 C 7.04 g/m*3 12.5 C 20.9 km/h
1306 08-03-2020 12:45:00 12.6 C 6.97 g/m*3 12.6 C 16.1 km/h
1307 08-03-2020 12:50:00 12.6 C 7.19 g/m*3 12.6 C 16.1 km/h
1308 08-03-2020 12:55:00 12.7 C 7.12 g/m*3 12.7 C 11.3 km/h
1309 08-03-2020 13:00:00 12.6 C 7.08 g/m*3 12.6 C 17.7 km/h
1310 08-03-2020 13:05:00 12.4 C 7.1 g/m*3 12.4 C 14.5 km/h
1311 08-03-2020 13:10:00 12.2 C 7.12 g/m*3 12.2 C 20.9 km/h
1312 08-03-2020 13:15:00 12.2 C 7.12 g/m*3 12.2 C 12.9 km/h
1313 08-03-2020 13:20:00 12.2 C 7.12 g/m*3 12.2 C 20.9 km/h
1314 08-03-2020 13:25:00 12.3 C 7.28 g/m*3 12.3 C 14.5 km/h
1315 08-03-2020 13:30:00 12.3 C 7.06 g/m*3 12.3 C 29 km/h
1316 08-03-2020 13:35:00 12.3 C 7.06 g/m*3 12.3 C 20.9 km/h
1317 08-03-2020 13:40:00 12.3 C 7.28 g/m*3 12.3 C 14.5 km/h
1318 08-03-2020 13:45:00 12.3 C 7.17 g/m*3 12.3 C 11.3 km/h
1319 08-03-2020 13:50:00 12.3 C 7.17 g/m*3 12.3 C 14.5 km/h
1320 08-03-2020 13:55:00 12.3 C 7.17 g/m*3 12.3 C 17.7 km/h
1321 08-03-2020 14:00:00 12.3 C 7.17 g/m*3 12.3 C 11.3 km/h
1322 08-03-2020 14:05:00 12.3 C 7.28 g/m*3 12.3 C 11.3 km/h
1323 08-03-2020 14:10:00 12.3 C 7.17 g/m*3 12.3 C 12.9 km/h
1324 08-03-2020 14:15:00 12.4 C 7.21 g/m*3 12.4 C 17.7 km/h
1325 08-03-2020 14:20:00 12.3 C 7.17 g/m*3 12.3 C 11.3 km/h
Sensor: Nr:Datum:Temp:Abs-Feuchte:Windchill:Wind:
Aussen-T/F 1326 08-03-2020 14:25:00 12.3 C 7.17 g/m*3 12.3 C 9.7 km/h
1327 08-03-2020 14:30:00 12.3 C 7.28 g/m*3 12.3 C 17.7 km/h
1328 08-03-2020 14:35:00 12.3 C 7.28 g/m*3 12.3 C 16.1 km/h
1329 08-03-2020 14:40:00 12.3 C 7.17 g/m*3 12.3 C 12.9 km/h
1330 08-03-2020 14:45:00 12.3 C 7.17 g/m*3 12.3 C 12.9 km/h
1331 08-03-2020 14:50:00 12.4 C 7.1 g/m*3 12.4 C 20.9 km/h
1332 08-03-2020 14:55:00 12.3 C 7.17 g/m*3 12.3 C 16.1 km/h
1333 08-03-2020 15:00:00 12.3 C 7.06 g/m*3 12.3 C 14.5 km/h
1334 08-03-2020 15:05:00 12.3 C 7.06 g/m*3 12.3 C 11.3 km/h
1335 08-03-2020 15:10:00 12.3 C 7.17 g/m*3 12.3 C 11.3 km/h
1336 08-03-2020 15:15:00 12.3 C 7.17 g/m*3 12.3 C 14.5 km/h
1337 08-03-2020 15:20:00 12.3 C 7.17 g/m*3 12.3 C 11.3 km/h
1338 08-03-2020 15:25:00 12.3 C 7.17 g/m*3 12.3 C 9.7 km/h
1339 08-03-2020 15:30:00 12.3 C 7.17 g/m*3 12.3 C 11.3 km/h
1340 08-03-2020 15:35:00 12.2 C 7.23 g/m*3 12.2 C 6.4 km/h
1341 08-03-2020 15:40:00 12.2 C 7.12 g/m*3 12.2 C 8.1 km/h
1342 08-03-2020 15:45:00 12.1 C 7.18 g/m*3 12.1 C 6.4 km/h
1343 08-03-2020 15:50:00 12.1 C 7.18 g/m*3 12.1 C 8.1 km/h
1344 08-03-2020 15:55:00 12 C 7.03 g/m*3 12 C 8.1 km/h
1345 08-03-2020 16:00:00 12 C 7.03 g/m*3 12 C 9.7 km/h
1346 08-03-2020 16:05:00 12.1 C 7.18 g/m*3 12.1 C 6.4 km/h
1347 08-03-2020 16:10:00 12.1 C 7.18 g/m*3 12.1 C 3.2 km/h
1348 08-03-2020 16:15:00 12.2 C 7.23 g/m*3 12.2 C 4.8 km/h
1349 08-03-2020 16:20:00 12.2 C 7.23 g/m*3 12.2 C 6.4 km/h
1350 08-03-2020 16:25:00 12.2 C 7.34 g/m*3 12.2 C 6.4 km/h
Sensor: Nr:Datum:Temp:Abs-Feuchte:Windchill:Wind:
Aussen-T/F 1351 08-03-2020 16:30:00 12.2 C 7.23 g/m*3 12.2 C 9.7 km/h
1352 08-03-2020 16:35:00 12.2 C 7.45 g/m*3 12.2 C 6.4 km/h
1353 08-03-2020 16:40:00 12.2 C 7.45 g/m*3 12.2 C 4.8 km/h
1354 08-03-2020 16:45:00 12.2 C 7.34 g/m*3 12.2 C 6.4 km/h
1355 08-03-2020 16:50:00 12.2 C 7.34 g/m*3 12.2 C 8.1 km/h
1356 08-03-2020 16:55:00 12.1 C 7.29 g/m*3 12.1 C 4.8 km/h
1357 08-03-2020 17:00:00 12.1 C 7.29 g/m*3 12.1 C 1.6 km/h
1358 08-03-2020 17:05:00 12.2 C 7.45 g/m*3 12.2 C 0 km/h
1359 08-03-2020 17:10:00 12.2 C 7.34 g/m*3 12.2 C 3.2 km/h
1360 08-03-2020 17:15:00 12.3 C 7.49 g/m*3 12.3 C 1.6 km/h
1361 08-03-2020 17:20:00 12.3 C 7.49 g/m*3 12.3 C 4.8 km/h
1362 08-03-2020 17:25:00 12.3 C 7.49 g/m*3 12.3 C 4.8 km/h
1363 08-03-2020 17:30:00 12.3 C 7.49 g/m*3 12.3 C 4.8 km/h
1364 08-03-2020 17:35:00 12.3 C 7.49 g/m*3 12.3 C 11.3 km/h
1365 08-03-2020 17:40:00 12.2 C 7.55 g/m*3 12.2 C 11.3 km/h
1366 08-03-2020 17:45:00 12.1 C 7.51 g/m*3 12.1 C 12.9 km/h
1367 08-03-2020 17:50:00 11.9 C 7.52 g/m*3 11.9 C 14.5 km/h
1368 08-03-2020 17:55:00 11.8 C 7.58 g/m*3 11.8 C 14.5 km/h
1369 08-03-2020 18:00:00 11.7 C 7.64 g/m*3 11.7 C 12.9 km/h
1370 08-03-2020 18:05:00 11.6 C 7.69 g/m*3 11.6 C 14.5 km/h
1371 08-03-2020 18:10:00 11.4 C 7.6 g/m*3 11.4 C 8.1 km/h
1372 08-03-2020 18:15:00 11.3 C 7.65 g/m*3 11.3 C 9.7 km/h
1373 08-03-2020 18:20:00 11.3 C 7.65 g/m*3 11.3 C 8.1 km/h
1374 08-03-2020 18:25:00 11.2 C 7.7 g/m*3 11.2 C 16.1 km/h
1375 08-03-2020 18:30:00 11.1 C 7.76 g/m*3 11.1 C 11.3 km/h
Sensor: Nr:Datum:Temp:Abs-Feuchte:Windchill:Wind:
Aussen-T/F 1376 08-03-2020 18:35:00 11 C 7.71 g/m*3 9.4 C 12.9 km/h
1377 08-03-2020 18:40:00 10.9 C 7.76 g/m*3 10.04 C 8.1 km/h
1378 08-03-2020 18:45:00 10.8 C 7.81 g/m*3 9.93 C 8.1 km/h
1379 08-03-2020 18:50:00 10.7 C 7.86 g/m*3 8.84 C 14.5 km/h
1380 08-03-2020 18:55:00 10.6 C 7.91 g/m*3 9.69 C 8.1 km/h
1381 08-03-2020 19:00:00 10.4 C 7.81 g/m*3 8.67 C 12.9 km/h
1382 08-03-2020 19:05:00 10.4 C 7.9 g/m*3 8.67 C 12.9 km/h
1383 08-03-2020 19:10:00 10.3 C 7.85 g/m*3 8.78 C 11.3 km/h
1384 08-03-2020 19:15:00 10.2 C 7.8 g/m*3 8.92 C 9.7 km/h
1385 08-03-2020 19:20:00 10.2 C 7.9 g/m*3 9.6 C 6.4 km/h
1386 08-03-2020 19:25:00 10.2 C 7.9 g/m*3 10.2 C 4.8 km/h
1387 08-03-2020 19:30:00 10.1 C 7.85 g/m*3 9.1 C 8.1 km/h
1388 08-03-2020 19:35:00 10.1 C 7.94 g/m*3 10.1 C 1.6 km/h
1389 08-03-2020 19:40:00 10 C 7.89 g/m*3 10 C 4.8 km/h
1390 08-03-2020 19:45:00 9.9 C 7.94 g/m*3 9.25 C 6.4 km/h
1391 08-03-2020 19:50:00 9.9 C 7.94 g/m*3 9.9 C 4.8 km/h
1392 08-03-2020 19:55:00 9.9 C 7.94 g/m*3 9.9 C 4.8 km/h
1393 08-03-2020 20:00:00 9.8 C 7.89 g/m*3 7.94 C 12.9 km/h
1394 08-03-2020 20:05:00 9.8 C 7.89 g/m*3 8.45 C 9.7 km/h
1395 08-03-2020 20:10:00 9.8 C 7.89 g/m*3 8.75 C 8.1 km/h
1396 08-03-2020 20:15:00 9.8 C 7.89 g/m*3 9.14 C 6.4 km/h
1397 08-03-2020 20:20:00 9.8 C 7.89 g/m*3 8.75 C 8.1 km/h
1398 08-03-2020 20:25:00 9.8 C 7.89 g/m*3 8.75 C 8.1 km/h
1399 08-03-2020 20:30:00 9.8 C 7.98 g/m*3 8.18 C 11.3 km/h
1400 08-03-2020 20:35:00 9.8 C 7.98 g/m*3 9.8 C 4.8 km/h
Sensor: Nr:Datum:Temp:Abs-Feuchte:Windchill:Wind:
Aussen-T/F 1401 08-03-2020 20:40:00 9.7 C 7.93 g/m*3 9.7 C 1.6 km/h
1402 08-03-2020 20:45:00 9.7 C 7.93 g/m*3 9.02 C 6.4 km/h
1403 08-03-2020 20:50:00 9.7 C 7.93 g/m*3 8.33 C 9.7 km/h
1404 08-03-2020 20:55:00 9.7 C 7.93 g/m*3 9.7 C 1.6 km/h
1405 08-03-2020 21:00:00 9.7 C 7.93 g/m*3 9.7 C 1.6 km/h
1406 08-03-2020 21:05:00 9.6 C 7.88 g/m*3 9.6 C 4.8 km/h
1407 08-03-2020 21:10:00 9.7 C 7.93 g/m*3 9.7 C 4.8 km/h
1408 08-03-2020 21:15:00 9.7 C 7.93 g/m*3 8.06 C 11.3 km/h
1409 08-03-2020 21:20:00 9.7 C 7.93 g/m*3 9.7 C 3.2 km/h
1410 08-03-2020 21:25:00 9.7 C 7.93 g/m*3 8.33 C 9.7 km/h
1411 08-03-2020 21:30:00 9.8 C 7.98 g/m*3 9.14 C 6.4 km/h
1412 08-03-2020 21:35:00 9.8 C 7.98 g/m*3 8.18 C 11.3 km/h
1413 08-03-2020 21:40:00 9.8 C 7.98 g/m*3 9.8 C 4.8 km/h
1414 08-03-2020 21:45:00 9.8 C 7.89 g/m*3 8.75 C 8.1 km/h
1415 08-03-2020 21:50:00 9.8 C 7.89 g/m*3 8.45 C 9.7 km/h
1416 08-03-2020 21:55:00 9.8 C 7.89 g/m*3 9.8 C 4.8 km/h
1417 08-03-2020 22:00:00 9.8 C 7.89 g/m*3 8.18 C 11.3 km/h
1418 08-03-2020 22:05:00 9.8 C 7.89 g/m*3 8.75 C 8.1 km/h
1419 08-03-2020 22:10:00 9.8 C 7.89 g/m*3 8.75 C 8.1 km/h
1420 08-03-2020 22:15:00 9.8 C 7.89 g/m*3 7.94 C 12.9 km/h
1421 08-03-2020 22:20:00 9.8 C 7.89 g/m*3 7.94 C 12.9 km/h
1422 08-03-2020 22:25:00 9.7 C 7.84 g/m*3 8.63 C 8.1 km/h
1423 08-03-2020 22:30:00 9.7 C 7.93 g/m*3 9.7 C 4.8 km/h
1424 08-03-2020 22:35:00 9.7 C 7.93 g/m*3 8.06 C 11.3 km/h
1425 08-03-2020 22:40:00 9.7 C 7.93 g/m*3 8.06 C 11.3 km/h
Sensor: Nr:Datum:Temp:Abs-Feuchte:Windchill:Wind:
Aussen-T/F 1426 08-03-2020 22:45:00 9.7 C 7.93 g/m*3 8.63 C 8.1 km/h
1427 08-03-2020 22:50:00 9.6 C 7.88 g/m*3 9.6 C 3.2 km/h
1428 08-03-2020 22:55:00 9.5 C 7.83 g/m*3 8.79 C 6.4 km/h
1429 08-03-2020 23:00:00 9.4 C 7.87 g/m*3 8.68 C 6.4 km/h
1430 08-03-2020 23:05:00 9.5 C 7.92 g/m*3 8.4 C 8.1 km/h
1431 08-03-2020 23:10:00 9.6 C 7.97 g/m*3 7.29 C 16.1 km/h
1432 08-03-2020 23:15:00 9.5 C 7.92 g/m*3 7.36 C 14.5 km/h
1433 08-03-2020 23:20:00 9.2 C 7.68 g/m*3 7.73 C 9.7 km/h
1434 08-03-2020 23:25:00 9 C 7.67 g/m*3 6.54 C 16.1 km/h
1435 08-03-2020 23:30:00 8.8 C 7.66 g/m*3 6.5 C 14.5 km/h
1436 08-03-2020 23:35:00 8.7 C 7.61 g/m*3 6.85 C 11.3 km/h
1437 08-03-2020 23:40:00 8.7 C 7.61 g/m*3 7.46 C 8.1 km/h
1438 08-03-2020 23:45:00 8.6 C 7.56 g/m*3 6.73 C 11.3 km/h
1439 08-03-2020 23:50:00 8.5 C 7.51 g/m*3 6.13 C 14.5 km/h
1440 08-03-2020 23:55:00 8.5 C 7.51 g/m*3 6.13 C 14.5 km/h
1441 09-03-2020 00:00:00 8.4 C 7.55 g/m*3 6.24 C 12.9 km/h
1442 09-03-2020 00:05:00 8.3 C 7.5 g/m*3 7.41 C 6.4 km/h
1443 09-03-2020 00:10:00 8.2 C 7.45 g/m*3 6.87 C 8.1 km/h
1444 09-03-2020 00:15:00 8.1 C 7.41 g/m*3 7.17 C 6.4 km/h
1445 09-03-2020 00:20:00 7.9 C 7.39 g/m*3 6.94 C 6.4 km/h
1446 09-03-2020 00:25:00 7.8 C 7.35 g/m*3 7.8 C 4.8 km/h
1447 09-03-2020 00:30:00 7.8 C 7.43 g/m*3 7.8 C 3.2 km/h
1448 09-03-2020 00:35:00 7.7 C 7.38 g/m*3 7.7 C 4.8 km/h
1449 09-03-2020 00:40:00 7.7 C 7.38 g/m*3 7.7 C 1.6 km/h
1450 09-03-2020 00:45:00 7.7 C 7.38 g/m*3 7.7 C 3.2 km/h
Sensor: Nr:Datum:Temp:Abs-Feuchte:Windchill:Wind:
Aussen-T/F 1451 09-03-2020 00:50:00 7.6 C 7.41 g/m*3 7.6 C 3.2 km/h
1452 09-03-2020 00:55:00 7.6 C 7.41 g/m*3 7.6 C 3.2 km/h
1453 09-03-2020 01:00:00 7.5 C 7.36 g/m*3 7.5 C 3.2 km/h
1454 09-03-2020 01:05:00 7.4 C 7.32 g/m*3 6.37 C 6.4 km/h
1455 09-03-2020 01:10:00 7.4 C 7.32 g/m*3 7.4 C 4.8 km/h
1456 09-03-2020 01:15:00 7.4 C 7.4 g/m*3 6.37 C 6.4 km/h
1457 09-03-2020 01:20:00 7.4 C 7.4 g/m*3 6.37 C 6.4 km/h
1458 09-03-2020 01:25:00 7.4 C 7.4 g/m*3 7.4 C 3.2 km/h
1459 09-03-2020 01:30:00 7.4 C 7.4 g/m*3 7.4 C 3.2 km/h
1460 09-03-2020 01:35:00 7.4 C 7.4 g/m*3 5.93 C 8.1 km/h
1461 09-03-2020 01:40:00 7.4 C 7.4 g/m*3 5.58 C 9.7 km/h
1462 09-03-2020 01:45:00 7.4 C 7.4 g/m*3 5.02 C 12.9 km/h
1463 09-03-2020 01:50:00 7.4 C 7.4 g/m*3 5.58 C 9.7 km/h
1464 09-03-2020 01:55:00 7.4 C 7.4 g/m*3 6.37 C 6.4 km/h
1465 09-03-2020 02:00:00 7.4 C 7.4 g/m*3 7.4 C 4.8 km/h
1466 09-03-2020 02:05:00 7.4 C 7.4 g/m*3 7.4 C 4.8 km/h
1467 09-03-2020 02:10:00 7.3 C 7.35 g/m*3 7.3 C 1.6 km/h
1468 09-03-2020 02:15:00 7.3 C 7.35 g/m*3 7.3 C 1.6 km/h
1469 09-03-2020 02:20:00 7.3 C 7.35 g/m*3 7.3 C 3.2 km/h
1470 09-03-2020 02:25:00 7.2 C 7.3 g/m*3 7.2 C 0 km/h
1471 09-03-2020 02:30:00 7.2 C 7.3 g/m*3 7.2 C 0 km/h
1472 09-03-2020 02:35:00 7.2 C 7.3 g/m*3 7.2 C 1.6 km/h
1473 09-03-2020 02:40:00 7.2 C 7.3 g/m*3 7.2 C 0 km/h
1474 09-03-2020 02:45:00 7.1 C 7.25 g/m*3 7.1 C 0 km/h
1475 09-03-2020 02:50:00 7.2 C 7.3 g/m*3 6.13 C 6.4 km/h
Sensor: Nr:Datum:Temp:Abs-Feuchte:Windchill:Wind:
Aussen-T/F 1476 09-03-2020 02:55:00 7.1 C 7.25 g/m*3 7.1 C 1.6 km/h
1477 09-03-2020 03:00:00 7.2 C 7.3 g/m*3 7.2 C 4.8 km/h
1478 09-03-2020 03:05:00 7.1 C 7.25 g/m*3 7.1 C 0 km/h
1479 09-03-2020 03:10:00 7.1 C 7.25 g/m*3 7.1 C 1.6 km/h
1480 09-03-2020 03:15:00 7 C 7.21 g/m*3 7 C 1.6 km/h
1481 09-03-2020 03:20:00 7.1 C 7.33 g/m*3 6.02 C 6.4 km/h
1482 09-03-2020 03:25:00 7.1 C 7.33 g/m*3 6.02 C 6.4 km/h
1483 09-03-2020 03:30:00 7.1 C 7.25 g/m*3 7.1 C 4.8 km/h
1484 09-03-2020 03:35:00 7.1 C 7.25 g/m*3 7.1 C 3.2 km/h
1485 09-03-2020 03:40:00 7.1 C 7.25 g/m*3 7.1 C 0 km/h
1486 09-03-2020 03:45:00 7.1 C 7.25 g/m*3 6.02 C 6.4 km/h
1487 09-03-2020 03:50:00 7.1 C 7.25 g/m*3 7.1 C 1.6 km/h
1488 09-03-2020 03:55:00 7 C 7.21 g/m*3 7 C 0 km/h
1489 09-03-2020 04:00:00 6.9 C 7.16 g/m*3 6.9 C 0 km/h
1490 09-03-2020 04:05:00 6.8 C 7.11 g/m*3 6.8 C 0 km/h
1491 09-03-2020 04:10:00 6.8 C 7.11 g/m*3 6.8 C 1.6 km/h
1492 09-03-2020 04:15:00 6.7 C 7.07 g/m*3 6.7 C 1.6 km/h
1493 09-03-2020 04:20:00 6.6 C 7.02 g/m*3 6.6 C 3.2 km/h
1494 09-03-2020 04:25:00 6.6 C 7.02 g/m*3 6.6 C 4.8 km/h
1495 09-03-2020 04:30:00 6.6 C 7.1 g/m*3 6.6 C 1.6 km/h
1496 09-03-2020 04:35:00 6.6 C 7.1 g/m*3 6.6 C 4.8 km/h
1497 09-03-2020 04:40:00 6.7 C 7.14 g/m*3 5.56 C 6.4 km/h
1498 09-03-2020 04:45:00 6.7 C 7.14 g/m*3 6.7 C 4.8 km/h
1499 09-03-2020 04:50:00 6.7 C 7.14 g/m*3 6.7 C 3.2 km/h
1500 09-03-2020 04:55:00 6.7 C 7.14 g/m*3 6.7 C 1.6 km/h
Sensor: Nr:Datum:Temp:Abs-Feuchte:Windchill:Wind:
Aussen-T/F 1501 09-03-2020 05:00:00 6.7 C 7.14 g/m*3 6.7 C 3.2 km/h
1502 09-03-2020 05:05:00 6.7 C 7.14 g/m*3 6.7 C 4.8 km/h
1503 09-03-2020 05:10:00 6.7 C 7.14 g/m*3 5.56 C 6.4 km/h
1504 09-03-2020 05:15:00 6.7 C 7.14 g/m*3 6.7 C 0 km/h
1505 09-03-2020 05:20:00 6.7 C 7.14 g/m*3 6.7 C 4.8 km/h
1506 09-03-2020 05:25:00 6.7 C 7.14 g/m*3 6.7 C 3.2 km/h
1507 09-03-2020 05:30:00 6.6 C 7.1 g/m*3 6.6 C 1.6 km/h
1508 09-03-2020 05:35:00 6.6 C 7.02 g/m*3 6.6 C 4.8 km/h
1509 09-03-2020 05:40:00 6.4 C 6.93 g/m*3 6.4 C 3.2 km/h
1510 09-03-2020 05:45:00 6.3 C 6.88 g/m*3 5.1 C 6.4 km/h
1511 09-03-2020 05:50:00 6.2 C 6.84 g/m*3 6.2 C 3.2 km/h
1512 09-03-2020 05:55:00 6.1 C 6.79 g/m*3 4.4 C 8.1 km/h
1513 09-03-2020 06:00:00 6 C 6.75 g/m*3 6 C 4.8 km/h
1514 09-03-2020 06:05:00 5.9 C 6.71 g/m*3 4.63 C 6.4 km/h
1515 09-03-2020 06:10:00 5.8 C 6.66 g/m*3 4.52 C 6.4 km/h
1516 09-03-2020 06:15:00 5.7 C 6.62 g/m*3 4.4 C 6.4 km/h
1517 09-03-2020 06:20:00 5.6 C 6.57 g/m*3 5.6 C 4.8 km/h
1518 09-03-2020 06:25:00 5.6 C 6.57 g/m*3 4.29 C 6.4 km/h
1519 09-03-2020 06:30:00 5.6 C 6.57 g/m*3 4.29 C 6.4 km/h
1520 09-03-2020 06:35:00 5.6 C 6.57 g/m*3 4.29 C 6.4 km/h
1521 09-03-2020 06:40:00 5.7 C 6.69 g/m*3 4.4 C 6.4 km/h
1522 09-03-2020 06:45:00 5.7 C 6.69 g/m*3 4.4 C 6.4 km/h
1523 09-03-2020 06:50:00 5.7 C 6.62 g/m*3 5.7 C 4.8 km/h
1524 09-03-2020 06:55:00 5.8 C 6.66 g/m*3 4.05 C 8.1 km/h
1525 09-03-2020 07:00:00 5.9 C 6.71 g/m*3 4.17 C 8.1 km/h
Sensor: Nr:Datum:Temp:Abs-Feuchte:Windchill:Wind:
Aussen-T/F 1526 09-03-2020 07:05:00 5.9 C 6.63 g/m*3 4.63 C 6.4 km/h
1527 09-03-2020 07:10:00 5.8 C 6.59 g/m*3 5.8 C 1.6 km/h
1528 09-03-2020 07:15:00 5.8 C 6.59 g/m*3 5.8 C 1.6 km/h
1529 09-03-2020 07:20:00 5.7 C 6.55 g/m*3 5.7 C 1.6 km/h
1530 09-03-2020 07:25:00 5.7 C 6.55 g/m*3 4.4 C 6.4 km/h
1531 09-03-2020 07:30:00 5.8 C 6.66 g/m*3 4.05 C 8.1 km/h
1532 09-03-2020 07:35:00 5.9 C 6.71 g/m*3 5.9 C 1.6 km/h
1533 09-03-2020 07:40:00 5.9 C 6.71 g/m*3 4.63 C 6.4 km/h
1534 09-03-2020 07:45:00 6 C 6.68 g/m*3 6 C 1.6 km/h
1535 09-03-2020 07:50:00 6 C 6.75 g/m*3 6 C 0 km/h
1536 09-03-2020 07:55:00 5.9 C 6.63 g/m*3 5.9 C 0 km/h
1537 09-03-2020 08:00:00 5.9 C 6.63 g/m*3 5.9 C 3.2 km/h
1538 09-03-2020 08:05:00 5.9 C 6.63 g/m*3 5.9 C 3.2 km/h
1539 09-03-2020 08:10:00 5.9 C 6.63 g/m*3 5.9 C 1.6 km/h
1540 09-03-2020 08:15:00 5.9 C 6.63 g/m*3 5.9 C 1.6 km/h
1541 09-03-2020 08:20:00 5.9 C 6.63 g/m*3 5.9 C 0 km/h
1542 09-03-2020 08:25:00 5.8 C 6.66 g/m*3 5.8 C 0 km/h
1543 09-03-2020 08:30:00 5.9 C 6.71 g/m*3 5.9 C 3.2 km/h
1544 09-03-2020 08:35:00 5.9 C 6.71 g/m*3 5.9 C 3.2 km/h
1545 09-03-2020 08:40:00 6.2 C 6.91 g/m*3 6.2 C 4.8 km/h
1546 09-03-2020 08:45:00 6.4 C 6.93 g/m*3 6.4 C 4.8 km/h
1547 09-03-2020 08:50:00 6.6 C 7.02 g/m*3 6.6 C 4.8 km/h
1548 09-03-2020 08:55:00 6.8 C 7.04 g/m*3 4.87 C 9.7 km/h
1549 09-03-2020 09:00:00 7 C 7.05 g/m*3 5.11 C 9.7 km/h
1550 09-03-2020 09:05:00 7.2 C 6.99 g/m*3 5.69 C 8.1 km/h
Sensor: Nr:Datum:Temp:Abs-Feuchte:Windchill:Wind:
Aussen-T/F 1551 09-03-2020 09:10:00 7.4 C 7.08 g/m*3 5.58 C 9.7 km/h
1552 09-03-2020 09:15:00 7.5 C 7.04 g/m*3 6.48 C 6.4 km/h
1553 09-03-2020 09:20:00 7.7 C 7.05 g/m*3 6.28 C 8.1 km/h
1554 09-03-2020 09:25:00 7.8 C 7.1 g/m*3 5.77 C 11.3 km/h
1555 09-03-2020 09:30:00 7.9 C 7.15 g/m*3 5.63 C 12.9 km/h
1556 09-03-2020 09:35:00 8 C 7.19 g/m*3 6.64 C 8.1 km/h
1557 09-03-2020 09:40:00 8.1 C 7.16 g/m*3 6.42 C 9.7 km/h
1558 09-03-2020 09:45:00 8.2 C 7.12 g/m*3 6.54 C 9.7 km/h
1559 09-03-2020 09:50:00 8.3 C 7.16 g/m*3 5.89 C 14.5 km/h
1560 09-03-2020 09:55:00 8.2 C 7.12 g/m*3 5.76 C 14.5 km/h
1561 09-03-2020 10:00:00 8.2 C 7.03 g/m*3 6.87 C 8.1 km/h
1562 09-03-2020 10:05:00 8.2 C 7.03 g/m*3 6.25 C 11.3 km/h
1563 09-03-2020 10:10:00 8.3 C 7.08 g/m*3 6.37 C 11.3 km/h
1564 09-03-2020 10:15:00 8.4 C 7.13 g/m*3 6.49 C 11.3 km/h
1565 09-03-2020 10:20:00 8.5 C 7.09 g/m*3 5.92 C 16.1 km/h
1566 09-03-2020 10:25:00 8.6 C 7.13 g/m*3 6.73 C 11.3 km/h
1567 09-03-2020 10:30:00 8.7 C 7.26 g/m*3 7.13 C 9.7 km/h
1568 09-03-2020 10:35:00 8.8 C 7.22 g/m*3 6.97 C 11.3 km/h
1569 09-03-2020 10:40:00 8.8 C 7.14 g/m*3 6.3 C 16.1 km/h
1570 09-03-2020 10:45:00 8.8 C 7.14 g/m*3 6.11 C 17.7 km/h
1571 09-03-2020 10:50:00 8.8 C 7.22 g/m*3 6.11 C 17.7 km/h
1572 09-03-2020 10:55:00 8.7 C 7.18 g/m*3 5.81 C 19.3 km/h
1573 09-03-2020 11:00:00 8.5 C 7.17 g/m*3 5.92 C 16.1 km/h
1574 09-03-2020 11:05:00 8.4 C 7.13 g/m*3 6.24 C 12.9 km/h
1575 09-03-2020 11:10:00 8.3 C 7 g/m*3 6.12 C 12.9 km/h
Sensor: Nr:Datum:Temp:Abs-Feuchte:Windchill:Wind:
Aussen-T/F 1576 09-03-2020 11:15:00 8.3 C 6.91 g/m*3 6.37 C 11.3 km/h
1577 09-03-2020 11:20:00 8.4 C 6.96 g/m*3 7.11 C 8.1 km/h
1578 09-03-2020 11:25:00 8.7 C 7.18 g/m*3 7.13 C 9.7 km/h
1579 09-03-2020 11:30:00 9.1 C 7.19 g/m*3 8.33 C 6.4 km/h
1580 09-03-2020 11:35:00 9.3 C 7.28 g/m*3 7.85 C 9.7 km/h
1581 09-03-2020 11:40:00 9.3 C 7.1 g/m*3 8.16 C 8.1 km/h
1582 09-03-2020 11:45:00 9.3 C 7.19 g/m*3 9.3 C 4.8 km/h
1583 09-03-2020 11:50:00 9.4 C 7.05 g/m*3 8.28 C 8.1 km/h
1584 09-03-2020 11:55:00 9.4 C 6.51 g/m*3 7.24 C 14.5 km/h
1585 09-03-2020 12:00:00 9.5 C 6.46 g/m*3 7.58 C 12.9 km/h
1586 09-03-2020 12:05:00 9.7 C 6.36 g/m*3 7.82 C 12.9 km/h
1587 09-03-2020 12:10:00 9.9 C 6.54 g/m*3 8.06 C 12.9 km/h
1588 09-03-2020 12:15:00 10.1 C 6.34 g/m*3 9.1 C 8.1 km/h
1589 09-03-2020 12:20:00 10.3 C 6.51 g/m*3 8.55 C 12.9 km/h
1590 09-03-2020 12:25:00 10.3 C 6.13 g/m*3 8.16 C 16.1 km/h
1591 09-03-2020 12:30:00 10.2 C 6.28 g/m*3 8.22 C 14.5 km/h
1592 09-03-2020 12:35:00 10.1 C 6.24 g/m*3 8.1 C 14.5 km/h
1593 09-03-2020 12:40:00 10.1 C 6.34 g/m*3 8.54 C 11.3 km/h
1594 09-03-2020 12:45:00 10.1 C 6.43 g/m*3 8.1 C 14.5 km/h
1595 09-03-2020 12:50:00 10.1 C 6.24 g/m*3 9.48 C 6.4 km/h
1596 09-03-2020 12:55:00 10.2 C 6.09 g/m*3 8.22 C 14.5 km/h
1597 09-03-2020 13:00:00 10.2 C 6.47 g/m*3 8.03 C 16.1 km/h
1598 09-03-2020 13:05:00 9.9 C 6.44 g/m*3 7.32 C 19.3 km/h
1599 09-03-2020 13:10:00 10.2 C 6.57 g/m*3 8.03 C 16.1 km/h
1600 09-03-2020 13:15:00 10.3 C 6.61 g/m*3 8.55 C 12.9 km/h
Sensor: Nr:Datum:Temp:Abs-Feuchte:Windchill:Wind:
Aussen-T/F 1601 09-03-2020 13:20:00 10.3 C 6.7 g/m*3 7.67 C 20.9 km/h
1602 09-03-2020 13:25:00 9.8 C 6.87 g/m*3 7.73 C 14.5 km/h
1603 09-03-2020 13:30:00 9.4 C 6.78 g/m*3 8.68 C 6.4 km/h
1604 09-03-2020 13:35:00 9.3 C 6.56 g/m*3 8.16 C 8.1 km/h
1605 09-03-2020 13:40:00 9.3 C 6.65 g/m*3 9.3 C 4.8 km/h
1606 09-03-2020 13:45:00 9.7 C 6.82 g/m*3 8.33 C 9.7 km/h
1607 09-03-2020 13:50:00 9.8 C 6.68 g/m*3 9.14 C 6.4 km/h
1608 09-03-2020 13:55:00 10 C 6.86 g/m*3 8.99 C 8.1 km/h
1609 09-03-2020 14:00:00 10.1 C 6.81 g/m*3 9.48 C 6.4 km/h
1610 09-03-2020 14:05:00 10.2 C 6.85 g/m*3 10.2 C 4.8 km/h
1611 09-03-2020 14:10:00 10.5 C 6.79 g/m*3 9.28 C 9.7 km/h
1612 09-03-2020 14:15:00 10.8 C 6.72 g/m*3 9.64 C 9.7 km/h
1613 09-03-2020 14:20:00 11 C 6.71 g/m*3 10.16 C 8.1 km/h
1614 09-03-2020 14:25:00 11.1 C 6.65 g/m*3 11.1 C 9.7 km/h
1615 09-03-2020 14:30:00 10.8 C 6.62 g/m*3 9.64 C 9.7 km/h
1616 09-03-2020 14:35:00 10.7 C 6.78 g/m*3 9.81 C 8.1 km/h
1617 09-03-2020 14:40:00 10.7 C 6.68 g/m*3 10.7 C 1.6 km/h
1618 09-03-2020 14:45:00 10.9 C 6.47 g/m*3 9.28 C 12.9 km/h
1619 09-03-2020 14:50:00 11.3 C 6.32 g/m*3 11.3 C 14.5 km/h
1620 09-03-2020 14:55:00 11.5 C 6.09 g/m*3 11.5 C 12.9 km/h
1621 09-03-2020 15:00:00 11.6 C 6.03 g/m*3 11.6 C 19.3 km/h
1622 09-03-2020 15:05:00 11.6 C 5.92 g/m*3 11.6 C 11.3 km/h
1623 09-03-2020 15:10:00 11.4 C 5.75 g/m*3 11.4 C 16.1 km/h
1624 09-03-2020 15:15:00 11.2 C 5.68 g/m*3 11.2 C 14.5 km/h
1625 09-03-2020 15:20:00 11.1 C 5.94 g/m*3 11.1 C 14.5 km/h
Sensor: Nr:Datum:Temp:Abs-Feuchte:Windchill:Wind:
Aussen-T/F 1626 09-03-2020 15:25:00 11.1 C 5.74 g/m*3 11.1 C 20.9 km/h
1627 09-03-2020 15:30:00 11.1 C 5.94 g/m*3 11.1 C 12.9 km/h
1628 09-03-2020 15:35:00 11 C 5.71 g/m*3 9.88 C 9.7 km/h
1629 09-03-2020 15:40:00 11.1 C 5.94 g/m*3 11.1 C 9.7 km/h
1630 09-03-2020 15:45:00 11.2 C 5.78 g/m*3 11.2 C 14.5 km/h
1631 09-03-2020 15:50:00 11.2 C 5.78 g/m*3 11.2 C 17.7 km/h
1632 09-03-2020 15:55:00 11.3 C 5.92 g/m*3 11.3 C 11.3 km/h
1633 09-03-2020 16:00:00 11.3 C 5.81 g/m*3 11.3 C 16.1 km/h
1634 09-03-2020 16:05:00 11.2 C 5.78 g/m*3 11.2 C 22.5 km/h
1635 09-03-2020 16:10:00 11 C 5.91 g/m*3 9.21 C 14.5 km/h
1636 09-03-2020 16:15:00 10.8 C 6.03 g/m*3 8.45 C 19.3 km/h
1637 09-03-2020 16:20:00 10.6 C 6.15 g/m*3 8.71 C 14.5 km/h
1638 09-03-2020 16:25:00 10.3 C 6.22 g/m*3 8.78 C 11.3 km/h
1639 09-03-2020 16:30:00 10.2 C 6.19 g/m*3 8.92 C 9.7 km/h
1640 09-03-2020 16:35:00 10.3 C 6.13 g/m*3 9.04 C 9.7 km/h
1641 09-03-2020 16:40:00 10.7 C 6.38 g/m*3 9.26 C 11.3 km/h
1642 09-03-2020 16:45:00 11 C 6.11 g/m*3 10.52 C 6.4 km/h
1643 09-03-2020 16:50:00 11.3 C 6.12 g/m*3 11.3 C 9.7 km/h
1644 09-03-2020 16:55:00 11.6 C 6.13 g/m*3 11.6 C 8.1 km/h
1645 09-03-2020 17:00:00 11.8 C 6 g/m*3 11.8 C 11.3 km/h
1646 09-03-2020 17:05:00 11.8 C 6 g/m*3 11.8 C 12.9 km/h
1647 09-03-2020 17:10:00 11.7 C 6.07 g/m*3 11.7 C 11.3 km/h
1648 09-03-2020 17:15:00 11.4 C 5.95 g/m*3 11.4 C 11.3 km/h
1649 09-03-2020 17:20:00 11.1 C 5.94 g/m*3 11.1 C 9.7 km/h
1650 09-03-2020 17:25:00 10.7 C 5.99 g/m*3 8.84 C 14.5 km/h
Sensor: Nr:Datum:Temp:Abs-Feuchte:Windchill:Wind:
Aussen-T/F 1651 09-03-2020 17:30:00 10.4 C 5.88 g/m*3 9.46 C 8.1 km/h
1652 09-03-2020 17:35:00 10.3 C 6.13 g/m*3 10.3 C 3.2 km/h
1653 09-03-2020 17:40:00 10.2 C 6.09 g/m*3 10.2 C 4.8 km/h
1654 09-03-2020 17:45:00 10.1 C 6.15 g/m*3 10.1 C 4.8 km/h
1655 09-03-2020 17:50:00 10.1 C 6.43 g/m*3 10.1 C 3.2 km/h
1656 09-03-2020 17:55:00 10.1 C 6.34 g/m*3 10.1 C 4.8 km/h
1657 09-03-2020 18:00:00 10.2 C 6.38 g/m*3 10.2 C 4.8 km/h
1658 09-03-2020 18:05:00 10.3 C 6.42 g/m*3 9.72 C 6.4 km/h
1659 09-03-2020 18:10:00 10.3 C 6.32 g/m*3 10.3 C 4.8 km/h
1660 09-03-2020 18:15:00 10.1 C 6.34 g/m*3 10.1 C 3.2 km/h
1661 09-03-2020 18:20:00 9.9 C 6.35 g/m*3 9.25 C 6.4 km/h
1662 09-03-2020 18:25:00 9.7 C 6.27 g/m*3 8.63 C 8.1 km/h
1663 09-03-2020 18:30:00 9.6 C 6.41 g/m*3 9.6 C 4.8 km/h
1664 09-03-2020 18:35:00 9.4 C 6.42 g/m*3 9.4 C 4.8 km/h
1665 09-03-2020 18:40:00 9.2 C 6.34 g/m*3 8.45 C 6.4 km/h
1666 09-03-2020 18:45:00 9 C 6.35 g/m*3 9 C 3.2 km/h
1667 09-03-2020 18:50:00 8.8 C 6.27 g/m*3 7.25 C 9.7 km/h
1668 09-03-2020 18:55:00 8.6 C 6.27 g/m*3 7.01 C 9.7 km/h
1669 09-03-2020 19:00:00 8.4 C 6.36 g/m*3 6.78 C 9.7 km/h
1670 09-03-2020 19:05:00 8.2 C 6.28 g/m*3 6.87 C 8.1 km/h
1671 09-03-2020 19:10:00 8 C 6.28 g/m*3 7.06 C 6.4 km/h
1672 09-03-2020 19:15:00 7.9 C 6.32 g/m*3 6.18 C 9.7 km/h
1673 09-03-2020 19:20:00 7.8 C 6.37 g/m*3 6.4 C 8.1 km/h
1674 09-03-2020 19:25:00 7.7 C 6.41 g/m*3 5.94 C 9.7 km/h
1675 09-03-2020 19:30:00 7.7 C 6.32 g/m*3 6.28 C 8.1 km/h
Sensor: Nr:Datum:Temp:Abs-Feuchte:Windchill:Wind:
Aussen-T/F 1676 09-03-2020 19:35:00 7.7 C 6.41 g/m*3 7.7 C 4.8 km/h
1677 09-03-2020 19:40:00 7.7 C 6.41 g/m*3 7.7 C 4.8 km/h
1678 09-03-2020 19:45:00 7.6 C 6.36 g/m*3 6.6 C 6.4 km/h
1679 09-03-2020 19:50:00 7.6 C 6.36 g/m*3 6.6 C 6.4 km/h
1680 09-03-2020 19:55:00 7.5 C 6.4 g/m*3 6.05 C 8.1 km/h
1681 09-03-2020 20:00:00 7.4 C 6.36 g/m*3 7.4 C 4.8 km/h
1682 09-03-2020 20:05:00 7.4 C 6.36 g/m*3 7.4 C 4.8 km/h
1683 09-03-2020 20:10:00 7.2 C 6.28 g/m*3 5.04 C 11.3 km/h
1684 09-03-2020 20:15:00 7.2 C 6.36 g/m*3 5.35 C 9.7 km/h
1685 09-03-2020 20:20:00 7.1 C 6.32 g/m*3 7.1 C 4.8 km/h
1686 09-03-2020 20:25:00 7.1 C 6.32 g/m*3 6.02 C 6.4 km/h
1687 09-03-2020 20:30:00 7 C 6.35 g/m*3 5.9 C 6.4 km/h
1688 09-03-2020 20:35:00 6.9 C 6.31 g/m*3 4.99 C 9.7 km/h
1689 09-03-2020 20:40:00 6.9 C 6.31 g/m*3 5.79 C 6.4 km/h
1690 09-03-2020 20:45:00 6.8 C 6.27 g/m*3 4.04 C 14.5 km/h
1691 09-03-2020 20:50:00 6.8 C 6.35 g/m*3 5.67 C 6.4 km/h
1692 09-03-2020 20:55:00 6.9 C 6.31 g/m*3 4.68 C 11.3 km/h
1693 09-03-2020 21:00:00 6.9 C 6.31 g/m*3 5.34 C 8.1 km/h
1694 09-03-2020 21:05:00 7 C 6.35 g/m*3 7 C 3.2 km/h
1695 09-03-2020 21:10:00 6.9 C 6.31 g/m*3 6.9 C 0 km/h
1696 09-03-2020 21:15:00 6.7 C 6.23 g/m*3 6.7 C 4.8 km/h
1697 09-03-2020 21:20:00 6.6 C 6.27 g/m*3 6.6 C 4.8 km/h
1698 09-03-2020 21:25:00 6.4 C 6.18 g/m*3 4.75 C 8.1 km/h
1699 09-03-2020 21:30:00 6.3 C 6.14 g/m*3 6.3 C 1.6 km/h
1700 09-03-2020 21:35:00 6.2 C 6.18 g/m*3 6.2 C 3.2 km/h
Sensor: Nr:Datum:Temp:Abs-Feuchte:Windchill:Wind:
Aussen-T/F 1701 09-03-2020 21:40:00 6.1 C 6.14 g/m*3 4.04 C 9.7 km/h
1702 09-03-2020 21:45:00 5.9 C 6.13 g/m*3 5.9 C 4.8 km/h
1703 09-03-2020 21:50:00 5.9 C 6.13 g/m*3 4.17 C 8.1 km/h
1704 09-03-2020 21:55:00 5.9 C 6.13 g/m*3 5.9 C 3.2 km/h
1705 09-03-2020 22:00:00 5.9 C 6.13 g/m*3 5.9 C 3.2 km/h
1706 09-03-2020 22:05:00 5.9 C 6.13 g/m*3 5.9 C 4.8 km/h
1707 09-03-2020 22:10:00 5.9 C 6.13 g/m*3 5.9 C 3.2 km/h
1708 09-03-2020 22:15:00 5.8 C 6.16 g/m*3 4.52 C 6.4 km/h
1709 09-03-2020 22:20:00 5.8 C 6.16 g/m*3 4.05 C 8.1 km/h
1710 09-03-2020 22:25:00 5.9 C 6.2 g/m*3 3.8 C 9.7 km/h
1711 09-03-2020 22:30:00 6 C 6.24 g/m*3 4.75 C 6.4 km/h
1712 09-03-2020 22:35:00 6.1 C 6.28 g/m*3 6.1 C 1.6 km/h
1713 09-03-2020 22:40:00 6.1 C 6.28 g/m*3 4.86 C 6.4 km/h
1714 09-03-2020 22:45:00 6 C 6.24 g/m*3 6 C 3.2 km/h
1715 09-03-2020 22:50:00 6 C 6.24 g/m*3 6 C 1.6 km/h
1716 09-03-2020 22:55:00 6 C 6.24 g/m*3 6 C 0 km/h
1717 09-03-2020 23:00:00 5.9 C 6.2 g/m*3 5.9 C 1.6 km/h
1718 09-03-2020 23:05:00 5.9 C 6.2 g/m*3 5.9 C 0 km/h
1719 09-03-2020 23:10:00 5.8 C 6.16 g/m*3 5.8 C 1.6 km/h
1720 09-03-2020 23:15:00 5.8 C 6.23 g/m*3 5.8 C 0 km/h
1721 09-03-2020 23:20:00 5.8 C 6.23 g/m*3 5.8 C 3.2 km/h
1722 09-03-2020 23:25:00 5.8 C 6.23 g/m*3 5.8 C 1.6 km/h
1723 09-03-2020 23:30:00 5.8 C 6.23 g/m*3 5.8 C 1.6 km/h
1724 09-03-2020 23:35:00 5.7 C 6.19 g/m*3 5.7 C 3.2 km/h
1725 09-03-2020 23:40:00 5.6 C 6.15 g/m*3 5.6 C 0 km/h
Sensor: Nr:Datum:Temp:Abs-Feuchte:Windchill:Wind:
Aussen-T/F 1726 09-03-2020 23:45:00 5.5 C 6.11 g/m*3 5.5 C 0 km/h
1727 09-03-2020 23:50:00 5.4 C 6.14 g/m*3 5.4 C 1.6 km/h
1728 09-03-2020 23:55:00 5.4 C 6.14 g/m*3 5.4 C 0 km/h
1729 10-03-2020 00:00:00 5.3 C 6.1 g/m*3 5.3 C 1.6 km/h
1730 10-03-2020 00:05:00 5.3 C 6.17 g/m*3 5.3 C 0 km/h
1731 10-03-2020 00:10:00 5.3 C 6.17 g/m*3 5.3 C 3.2 km/h
1732 10-03-2020 00:15:00 5.3 C 6.17 g/m*3 5.3 C 0 km/h
1733 10-03-2020 00:20:00 5.3 C 6.17 g/m*3 5.3 C 0 km/h
1734 10-03-2020 00:25:00 5.4 C 6.28 g/m*3 5.4 C 0 km/h
1735 10-03-2020 00:30:00 5.5 C 6.32 g/m*3 5.5 C 0 km/h
1736 10-03-2020 00:35:00 5.6 C 6.36 g/m*3 5.6 C 4.8 km/h
1737 10-03-2020 00:40:00 5.8 C 6.38 g/m*3 4.52 C 6.4 km/h
1738 10-03-2020 00:45:00 5.8 C 6.38 g/m*3 5.8 C 0 km/h
1739 10-03-2020 00:50:00 6 C 6.39 g/m*3 6 C 1.6 km/h
1740 10-03-2020 00:55:00 6.1 C 6.43 g/m*3 4.86 C 6.4 km/h
1741 10-03-2020 01:00:00 6.3 C 6.44 g/m*3 6.3 C 1.6 km/h
1742 10-03-2020 01:05:00 6.3 C 6.44 g/m*3 6.3 C 1.6 km/h
1743 10-03-2020 01:10:00 6.3 C 6.44 g/m*3 6.3 C 1.6 km/h
1744 10-03-2020 01:15:00 6.4 C 6.48 g/m*3 6.4 C 1.6 km/h
1745 10-03-2020 01:20:00 6.4 C 6.48 g/m*3 6.4 C 3.2 km/h
1746 10-03-2020 01:25:00 6.5 C 6.52 g/m*3 6.5 C 1.6 km/h
1747 10-03-2020 01:30:00 6.6 C 6.49 g/m*3 6.6 C 4.8 km/h
1748 10-03-2020 01:35:00 6.7 C 6.53 g/m*3 6.7 C 4.8 km/h
1749 10-03-2020 01:40:00 6.7 C 6.46 g/m*3 5.56 C 6.4 km/h
1750 10-03-2020 01:45:00 6.8 C 6.5 g/m*3 4.04 C 14.5 km/h
Sensor: Nr:Datum:Temp:Abs-Feuchte:Windchill:Wind:
Aussen-T/F 1751 10-03-2020 01:50:00 6.9 C 6.54 g/m*3 4.16 C 14.5 km/h
1752 10-03-2020 01:55:00 7.1 C 6.55 g/m*3 7.1 C 3.2 km/h
1753 10-03-2020 02:00:00 7.1 C 6.55 g/m*3 7.1 C 3.2 km/h
1754 10-03-2020 02:05:00 7.2 C 6.52 g/m*3 7.2 C 3.2 km/h
1755 10-03-2020 02:10:00 7.3 C 6.56 g/m*3 7.3 C 4.8 km/h
1756 10-03-2020 02:15:00 7.3 C 6.56 g/m*3 7.3 C 3.2 km/h
1757 10-03-2020 02:20:00 7.3 C 6.56 g/m*3 7.3 C 1.6 km/h
1758 10-03-2020 02:25:00 7.3 C 6.48 g/m*3 6.25 C 6.4 km/h
1759 10-03-2020 02:30:00 7.4 C 6.52 g/m*3 7.4 C 3.2 km/h
1760 10-03-2020 02:35:00 7.4 C 6.52 g/m*3 7.4 C 3.2 km/h
1761 10-03-2020 02:40:00 7.4 C 6.52 g/m*3 7.4 C 3.2 km/h
1762 10-03-2020 02:45:00 7.4 C 6.52 g/m*3 5.93 C 8.1 km/h
1763 10-03-2020 02:50:00 7.4 C 6.6 g/m*3 6.37 C 6.4 km/h
1764 10-03-2020 02:55:00 7.4 C 6.6 g/m*3 6.37 C 6.4 km/h
1765 10-03-2020 03:00:00 7.5 C 6.64 g/m*3 6.48 C 6.4 km/h
1766 10-03-2020 03:05:00 7.6 C 6.69 g/m*3 5.02 C 14.5 km/h
1767 10-03-2020 03:10:00 7.6 C 6.77 g/m*3 5.53 C 11.3 km/h
1768 10-03-2020 03:15:00 7.6 C 6.77 g/m*3 5.02 C 14.5 km/h
1769 10-03-2020 03:20:00 7.5 C 6.8 g/m*3 5.14 C 12.9 km/h
1770 10-03-2020 03:25:00 7.4 C 6.76 g/m*3 4.36 C 17.7 km/h
1771 10-03-2020 03:30:00 7.3 C 6.79 g/m*3 4.44 C 16.1 km/h
1772 10-03-2020 03:35:00 7.2 C 6.83 g/m*3 4.31 C 16.1 km/h
1773 10-03-2020 03:40:00 7.1 C 6.79 g/m*3 3.45 C 22.5 km/h
1774 10-03-2020 03:45:00 7 C 6.74 g/m*3 3.33 C 22.5 km/h
1775 10-03-2020 03:50:00 6.9 C 6.77 g/m*3 3.94 C 16.1 km/h
Sensor: Nr:Datum:Temp:Abs-Feuchte:Windchill:Wind:
Aussen-T/F 1776 10-03-2020 03:55:00 6.9 C 6.77 g/m*3 3.94 C 16.1 km/h
1777 10-03-2020 04:00:00 6.8 C 6.73 g/m*3 4.87 C 9.7 km/h
1778 10-03-2020 04:05:00 6.8 C 6.73 g/m*3 3.82 C 16.1 km/h
1779 10-03-2020 04:10:00 6.8 C 6.73 g/m*3 4.29 C 12.9 km/h
1780 10-03-2020 04:15:00 6.8 C 6.73 g/m*3 5.22 C 8.1 km/h
1781 10-03-2020 04:20:00 6.7 C 6.69 g/m*3 4.44 C 11.3 km/h
1782 10-03-2020 04:25:00 6.7 C 6.76 g/m*3 4.75 C 9.7 km/h
1783 10-03-2020 04:30:00 6.7 C 6.76 g/m*3 5.11 C 8.1 km/h
1784 10-03-2020 04:35:00 6.7 C 6.76 g/m*3 3.92 C 14.5 km/h
1785 10-03-2020 04:40:00 6.7 C 6.76 g/m*3 3.92 C 14.5 km/h
1786 10-03-2020 04:45:00 6.7 C 6.76 g/m*3 4.75 C 9.7 km/h
1787 10-03-2020 04:50:00 6.7 C 6.76 g/m*3 5.56 C 6.4 km/h
1788 10-03-2020 04:55:00 6.7 C 6.76 g/m*3 5.56 C 6.4 km/h
1789 10-03-2020 05:00:00 6.6 C 6.72 g/m*3 4.63 C 9.7 km/h
1790 10-03-2020 05:05:00 6.5 C 6.75 g/m*3 3.23 C 17.7 km/h
1791 10-03-2020 05:10:00 6.4 C 6.63 g/m*3 4.08 C 11.3 km/h
1792 10-03-2020 05:15:00 6.4 C 6.71 g/m*3 3.55 C 14.5 km/h
1793 10-03-2020 05:20:00 6.4 C 6.71 g/m*3 3.55 C 14.5 km/h
1794 10-03-2020 05:25:00 6.3 C 6.66 g/m*3 3.96 C 11.3 km/h
1795 10-03-2020 05:30:00 6.3 C 6.66 g/m*3 2.98 C 17.7 km/h
1796 10-03-2020 05:35:00 6.2 C 6.69 g/m*3 3.3 C 14.5 km/h
1797 10-03-2020 05:40:00 6.1 C 6.58 g/m*3 3.18 C 14.5 km/h
1798 10-03-2020 05:45:00 6.1 C 6.65 g/m*3 1.57 C 29 km/h
1799 10-03-2020 05:50:00 6 C 6.6 g/m*3 1.44 C 29 km/h
1800 10-03-2020 05:55:00 5.9 C 6.56 g/m*3 2.7 C 16.1 km/h
Sensor: Nr:Datum:Temp:Abs-Feuchte:Windchill:Wind:
Aussen-T/F 1801 10-03-2020 06:00:00 5.8 C 6.52 g/m*3 2.81 C 14.5 km/h
1802 10-03-2020 06:05:00 5.8 C 6.52 g/m*3 1.97 C 20.9 km/h
1803 10-03-2020 06:10:00 5.8 C 6.52 g/m*3 2.36 C 17.7 km/h
1804 10-03-2020 06:15:00 5.8 C 6.52 g/m*3 1.63 C 24.1 km/h
1805 10-03-2020 06:20:00 5.9 C 6.56 g/m*3 2.93 C 14.5 km/h
1806 10-03-2020 06:25:00 5.9 C 6.56 g/m*3 3.48 C 11.3 km/h
1807 10-03-2020 06:30:00 5.9 C 6.63 g/m*3 3.8 C 9.7 km/h
1808 10-03-2020 06:35:00 5.8 C 6.59 g/m*3 3.68 C 9.7 km/h
1809 10-03-2020 06:40:00 5.8 C 6.59 g/m*3 2.58 C 16.1 km/h
1810 10-03-2020 06:45:00 5.8 C 6.59 g/m*3 4.52 C 6.4 km/h
1811 10-03-2020 06:50:00 5.8 C 6.59 g/m*3 2.58 C 16.1 km/h
1812 10-03-2020 06:55:00 5.8 C 6.59 g/m*3 5.8 C 4.8 km/h
1813 10-03-2020 07:00:00 5.8 C 6.59 g/m*3 3.68 C 9.7 km/h
1814 10-03-2020 07:05:00 5.8 C 6.59 g/m*3 2.81 C 14.5 km/h
1815 10-03-2020 07:10:00 5.9 C 6.63 g/m*3 2.7 C 16.1 km/h
1816 10-03-2020 07:15:00 6 C 6.68 g/m*3 1.73 C 25.7 km/h
1817 10-03-2020 07:20:00 6.1 C 6.72 g/m*3 3.43 C 12.9 km/h
1818 10-03-2020 07:25:00 6.1 C 6.72 g/m*3 2.35 C 20.9 km/h
1819 10-03-2020 07:30:00 6.2 C 6.77 g/m*3 2.66 C 19.3 km/h
1820 10-03-2020 07:35:00 6.3 C 6.81 g/m*3 3.96 C 11.3 km/h
1821 10-03-2020 07:40:00 6.3 C 6.81 g/m*3 2.79 C 19.3 km/h
1822 10-03-2020 07:45:00 6.4 C 6.85 g/m*3 3.55 C 14.5 km/h
1823 10-03-2020 07:50:00 6.5 C 6.9 g/m*3 3.04 C 19.3 km/h
1824 10-03-2020 07:55:00 6.5 C 6.9 g/m*3 2.86 C 20.9 km/h
1825 10-03-2020 08:00:00 6.6 C 6.95 g/m*3 2.36 C 27.4 km/h
Sensor: Nr:Datum:Temp:Abs-Feuchte:Windchill:Wind:
Aussen-T/F 1826 10-03-2020 08:05:00 6.7 C 6.99 g/m*3 3.48 C 17.7 km/h
1827 10-03-2020 08:10:00 6.7 C 6.99 g/m*3 3.92 C 14.5 km/h
1828 10-03-2020 08:15:00 6.7 C 6.99 g/m*3 4.17 C 12.9 km/h
1829 10-03-2020 08:20:00 6.7 C 6.99 g/m*3 4.44 C 11.3 km/h
1830 10-03-2020 08:25:00 6.8 C 7.04 g/m*3 2.91 C 24.1 km/h
1831 10-03-2020 08:30:00 6.8 C 7.04 g/m*3 2.91 C 24.1 km/h
1832 10-03-2020 08:35:00 6.9 C 7.08 g/m*3 3.73 C 17.7 km/h
1833 10-03-2020 08:40:00 6.9 C 7.01 g/m*3 3.37 C 20.9 km/h
1834 10-03-2020 08:45:00 7 C 7.05 g/m*3 3.86 C 17.7 km/h
1835 10-03-2020 08:50:00 7 C 7.13 g/m*3 3.17 C 24.1 km/h
1836 10-03-2020 08:55:00 7.1 C 7.18 g/m*3 3.45 C 22.5 km/h
1837 10-03-2020 09:00:00 7.1 C 7.18 g/m*3 4.19 C 16.1 km/h
1838 10-03-2020 09:05:00 7.2 C 7.22 g/m*3 4.77 C 12.9 km/h
1839 10-03-2020 09:10:00 7.2 C 7.22 g/m*3 3.58 C 22.5 km/h
1840 10-03-2020 09:15:00 7.2 C 7.22 g/m*3 3.75 C 20.9 km/h
1841 10-03-2020 09:20:00 7.3 C 7.27 g/m*3 3.71 C 22.5 km/h
1842 10-03-2020 09:25:00 7.3 C 7.27 g/m*3 3.87 C 20.9 km/h
1843 10-03-2020 09:30:00 7.3 C 7.35 g/m*3 4.44 C 16.1 km/h
1844 10-03-2020 09:35:00 7.4 C 7.4 g/m*3 4.56 C 16.1 km/h
1845 10-03-2020 09:40:00 7.4 C 7.4 g/m*3 4.17 C 19.3 km/h
1846 10-03-2020 09:45:00 7.4 C 7.4 g/m*3 5.02 C 12.9 km/h
1847 10-03-2020 09:50:00 7.5 C 7.44 g/m*3 4.48 C 17.7 km/h
1848 10-03-2020 09:55:00 7.6 C 7.49 g/m*3 4.25 C 20.9 km/h
1849 10-03-2020 10:00:00 7.6 C 7.49 g/m*3 4.42 C 19.3 km/h
1850 10-03-2020 10:05:00 7.7 C 7.54 g/m*3 5.15 C 14.5 km/h
Sensor: Nr:Datum:Temp:Abs-Feuchte:Windchill:Wind:
Aussen-T/F 1851 10-03-2020 10:10:00 7.7 C 7.54 g/m*3 4.55 C 19.3 km/h
1852 10-03-2020 10:15:00 7.8 C 7.59 g/m*3 5.27 C 14.5 km/h
1853 10-03-2020 10:20:00 7.8 C 7.59 g/m*3 4.68 C 19.3 km/h
1854 10-03-2020 10:25:00 7.9 C 7.64 g/m*3 4.47 C 22.5 km/h
1855 10-03-2020 10:30:00 7.9 C 7.64 g/m*3 4.63 C 20.9 km/h
1856 10-03-2020 10:35:00 8 C 7.77 g/m*3 4.76 C 20.9 km/h
1857 10-03-2020 10:40:00 8.1 C 7.82 g/m*3 4.89 C 20.9 km/h
1858 10-03-2020 10:45:00 8.1 C 7.82 g/m*3 5.43 C 16.1 km/h
1859 10-03-2020 10:50:00 8.2 C 7.87 g/m*3 5.76 C 14.5 km/h
1860 10-03-2020 10:55:00 8.2 C 7.79 g/m*3 5.18 C 19.3 km/h
1861 10-03-2020 11:00:00 8.3 C 7.84 g/m*3 6.37 C 11.3 km/h
1862 10-03-2020 11:05:00 8.4 C 7.97 g/m*3 5.61 C 17.7 km/h
1863 10-03-2020 11:10:00 8.6 C 8.08 g/m*3 6.48 C 12.9 km/h
1864 10-03-2020 11:15:00 8.6 C 7.99 g/m*3 5.68 C 19.3 km/h
1865 10-03-2020 11:20:00 8.7 C 8.04 g/m*3 5.98 C 17.7 km/h
1866 10-03-2020 11:25:00 8.8 C 8.09 g/m*3 6.72 C 12.9 km/h
1867 10-03-2020 11:30:00 8.8 C 8.09 g/m*3 6.72 C 12.9 km/h
1868 10-03-2020 11:35:00 8.9 C 8.15 g/m*3 6.23 C 17.7 km/h
1869 10-03-2020 11:40:00 9 C 8.29 g/m*3 6.03 C 20.9 km/h
1870 10-03-2020 11:45:00 9.1 C 8.34 g/m*3 6.67 C 16.1 km/h
1871 10-03-2020 11:50:00 9.2 C 8.3 g/m*3 6.79 C 16.1 km/h
1872 10-03-2020 11:55:00 9.3 C 8.45 g/m*3 6.12 C 24.1 km/h
1873 10-03-2020 12:00:00 9.3 C 8.36 g/m*3 6.56 C 19.3 km/h
1874 10-03-2020 12:05:00 9.4 C 8.5 g/m*3 7.04 C 16.1 km/h
1875 10-03-2020 12:10:00 9.4 C 8.5 g/m*3 6.25 C 24.1 km/h
Sensor: Nr:Datum:Temp:Abs-Feuchte:Windchill:Wind:
Aussen-T/F 1876 10-03-2020 12:15:00 9.4 C 8.5 g/m*3 7.46 C 12.9 km/h
1877 10-03-2020 12:20:00 9.5 C 8.56 g/m*3 6.98 C 17.7 km/h
1878 10-03-2020 12:25:00 9.5 C 8.56 g/m*3 6.51 C 22.5 km/h
1879 10-03-2020 12:30:00 9.5 C 8.56 g/m*3 6.66 C 20.9 km/h
1880 10-03-2020 12:35:00 9.6 C 8.61 g/m*3 7.48 C 14.5 km/h
1881 10-03-2020 12:40:00 9.6 C 8.52 g/m*3 7.11 C 17.7 km/h
1882 10-03-2020 12:45:00 9.7 C 8.67 g/m*3 7.07 C 19.3 km/h
1883 10-03-2020 12:50:00 9.7 C 8.57 g/m*3 7.23 C 17.7 km/h
1884 10-03-2020 12:55:00 9.7 C 8.67 g/m*3 7.61 C 14.5 km/h
1885 10-03-2020 13:00:00 9.8 C 8.72 g/m*3 7.94 C 12.9 km/h
1886 10-03-2020 13:05:00 9.8 C 8.72 g/m*3 7.54 C 16.1 km/h
1887 10-03-2020 13:10:00 9.9 C 8.78 g/m*3 7.85 C 14.5 km/h
1888 10-03-2020 13:15:00 9.9 C 8.68 g/m*3 7.16 C 20.9 km/h
1889 10-03-2020 13:20:00 9.9 C 8.78 g/m*3 6.89 C 24.1 km/h
1890 10-03-2020 13:25:00 10 C 8.74 g/m*3 7.44 C 19.3 km/h
1891 10-03-2020 13:30:00 10 C 8.74 g/m*3 7.44 C 19.3 km/h
1892 10-03-2020 13:35:00 10 C 8.74 g/m*3 7.15 C 22.5 km/h
1893 10-03-2020 13:40:00 10.1 C 8.89 g/m*3 8.1 C 14.5 km/h
1894 10-03-2020 13:45:00 10.1 C 8.89 g/m*3 7.73 C 17.7 km/h
1895 10-03-2020 13:50:00 10.2 C 8.95 g/m*3 8.22 C 14.5 km/h
1896 10-03-2020 13:55:00 10.2 C 8.95 g/m*3 7.7 C 19.3 km/h
1897 10-03-2020 14:00:00 10.3 C 9 g/m*3 8.16 C 16.1 km/h
1898 10-03-2020 14:05:00 10.3 C 9 g/m*3 8.16 C 16.1 km/h
1899 10-03-2020 14:10:00 10.4 C 9.06 g/m*3 8.47 C 14.5 km/h
1900 10-03-2020 14:15:00 10.4 C 9.06 g/m*3 8.11 C 17.7 km/h
Sensor: Nr:Datum:Temp:Abs-Feuchte:Windchill:Wind:
Aussen-T/F 1901 10-03-2020 14:20:00 10.5 C 9.12 g/m*3 9.02 C 11.3 km/h
1902 10-03-2020 14:25:00 10.6 C 9.17 g/m*3 7.91 C 22.5 km/h
1903 10-03-2020 14:30:00 10.7 C 9.23 g/m*3 9.26 C 11.3 km/h
1904 10-03-2020 14:35:00 10.8 C 9.29 g/m*3 9.16 C 12.9 km/h
1905 10-03-2020 14:40:00 10.9 C 9.35 g/m*3 9.08 C 14.5 km/h
1906 10-03-2020 14:45:00 11 C 9.31 g/m*3 8.86 C 17.7 km/h
1907 10-03-2020 14:50:00 11.1 C 9.37 g/m*3 11.1 C 17.7 km/h
1908 10-03-2020 14:55:00 11.2 C 9.43 g/m*3 11.2 C 16.1 km/h
1909 10-03-2020 15:00:00 11.3 C 9.49 g/m*3 11.3 C 29 km/h
1910 10-03-2020 15:05:00 11.3 C 9.49 g/m*3 11.3 C 16.1 km/h
1911 10-03-2020 15:10:00 11.4 C 9.44 g/m*3 11.4 C 29 km/h
1912 10-03-2020 15:15:00 11.5 C 9.5 g/m*3 11.5 C 17.7 km/h
1913 10-03-2020 15:20:00 11.6 C 9.56 g/m*3 11.6 C 22.5 km/h
1914 10-03-2020 15:25:00 11.7 C 9.62 g/m*3 11.7 C 27.4 km/h
1915 10-03-2020 15:30:00 11.8 C 9.58 g/m*3 11.8 C 22.5 km/h
1916 10-03-2020 15:35:00 11.9 C 9.64 g/m*3 11.9 C 19.3 km/h
1917 10-03-2020 15:40:00 12.1 C 9.76 g/m*3 12.1 C 29 km/h
1918 10-03-2020 15:45:00 12.2 C 9.82 g/m*3 12.2 C 14.5 km/h
1919 10-03-2020 15:50:00 12.3 C 9.77 g/m*3 12.3 C 19.3 km/h
1920 10-03-2020 15:55:00 12.3 C 9.77 g/m*3 12.3 C 25.7 km/h
1921 10-03-2020 16:00:00 12.4 C 9.83 g/m*3 12.4 C 24.1 km/h
1922 10-03-2020 16:05:00 12.5 C 9.89 g/m*3 12.5 C 17.7 km/h
1923 10-03-2020 16:10:00 12.7 C 10.02 g/m*3 12.7 C 19.3 km/h
1924 10-03-2020 16:15:00 12.7 C 9.91 g/m*3 12.7 C 17.7 km/h
1925 10-03-2020 16:20:00 12.7 C 9.91 g/m*3 12.7 C 19.3 km/h
Sensor: Nr:Datum:Temp:Abs-Feuchte:Windchill:Wind:
Aussen-T/F 1926 10-03-2020 16:25:00 12.7 C 9.91 g/m*3 12.7 C 22.5 km/h
1927 10-03-2020 16:30:00 12.7 C 9.91 g/m*3 12.7 C 17.7 km/h
1928 10-03-2020 16:35:00 12.7 C 9.91 g/m*3 12.7 C 19.3 km/h
1929 10-03-2020 16:40:00 12.6 C 9.85 g/m*3 12.6 C 20.9 km/h
1930 10-03-2020 16:45:00 12.6 C 9.96 g/m*3 12.6 C 22.5 km/h
1931 10-03-2020 16:50:00 12.7 C 10.02 g/m*3 12.7 C 17.7 km/h
1932 10-03-2020 16:55:00 12.7 C 10.02 g/m*3 12.7 C 20.9 km/h
1933 10-03-2020 17:00:00 12.7 C 10.02 g/m*3 12.7 C 12.9 km/h
1934 10-03-2020 17:05:00 12.7 C 10.02 g/m*3 12.7 C 11.3 km/h
1935 10-03-2020 17:10:00 12.8 C 10.08 g/m*3 12.8 C 16.1 km/h
1936 10-03-2020 17:15:00 12.8 C 10.08 g/m*3 12.8 C 16.1 km/h
1937 10-03-2020 17:20:00 12.8 C 10.08 g/m*3 12.8 C 16.1 km/h
1938 10-03-2020 17:25:00 12.8 C 10.08 g/m*3 12.8 C 19.3 km/h
1939 10-03-2020 17:30:00 12.8 C 10.08 g/m*3 12.8 C 17.7 km/h
1940 10-03-2020 17:35:00 12.8 C 10.08 g/m*3 12.8 C 19.3 km/h
1941 10-03-2020 17:40:00 12.8 C 10.08 g/m*3 12.8 C 17.7 km/h
1942 10-03-2020 17:45:00 12.8 C 10.08 g/m*3 12.8 C 14.5 km/h
1943 10-03-2020 17:50:00 12.8 C 10.08 g/m*3 12.8 C 17.7 km/h
1944 10-03-2020 17:55:00 12.8 C 10.08 g/m*3 12.8 C 14.5 km/h
1945 10-03-2020 18:00:00 12.7 C 10.02 g/m*3 12.7 C 20.9 km/h
1946 10-03-2020 18:05:00 12.7 C 10.02 g/m*3 12.7 C 17.7 km/h
1947 10-03-2020 18:10:00 12.7 C 10.02 g/m*3 12.7 C 9.7 km/h
1948 10-03-2020 18:15:00 12.7 C 10.13 g/m*3 12.7 C 17.7 km/h
1949 10-03-2020 18:20:00 12.7 C 10.13 g/m*3 12.7 C 17.7 km/h
1950 10-03-2020 18:25:00 12.7 C 10.13 g/m*3 12.7 C 19.3 km/h
Sensor: Nr:Datum:Temp:Abs-Feuchte:Windchill:Wind:
Aussen-T/F 1951 10-03-2020 18:30:00 12.7 C 10.13 g/m*3 12.7 C 19.3 km/h
1952 10-03-2020 18:35:00 12.7 C 10.13 g/m*3 12.7 C 16.1 km/h
1953 10-03-2020 18:40:00 12.7 C 10.13 g/m*3 12.7 C 19.3 km/h
1954 10-03-2020 18:45:00 12.7 C 10.13 g/m*3 12.7 C 19.3 km/h
1955 10-03-2020 18:50:00 12.7 C 10.13 g/m*3 12.7 C 14.5 km/h
1956 10-03-2020 18:55:00 12.7 C 10.13 g/m*3 12.7 C 22.5 km/h
1957 10-03-2020 19:00:00 12.7 C 10.13 g/m*3 12.7 C 20.9 km/h
1958 10-03-2020 19:05:00 12.7 C 10.13 g/m*3 12.7 C 24.1 km/h
1959 10-03-2020 19:10:00 12.7 C 10.13 g/m*3 12.7 C 19.3 km/h
1960 10-03-2020 19:15:00 12.7 C 10.13 g/m*3 12.7 C 11.3 km/h
1961 10-03-2020 19:20:00 12.7 C 10.13 g/m*3 12.7 C 17.7 km/h
1962 10-03-2020 19:25:00 12.7 C 10.13 g/m*3 12.7 C 22.5 km/h
1963 10-03-2020 19:30:00 12.7 C 10.13 g/m*3 12.7 C 16.1 km/h
1964 10-03-2020 19:35:00 12.7 C 10.13 g/m*3 12.7 C 16.1 km/h
1965 10-03-2020 19:40:00 12.8 C 10.19 g/m*3 12.8 C 20.9 km/h
1966 10-03-2020 19:45:00 12.7 C 10.13 g/m*3 12.7 C 19.3 km/h
1967 10-03-2020 19:50:00 12.7 C 10.13 g/m*3 12.7 C 20.9 km/h
1968 10-03-2020 19:55:00 12.7 C 10.13 g/m*3 12.7 C 16.1 km/h
1969 10-03-2020 20:00:00 12.8 C 10.19 g/m*3 12.8 C 22.5 km/h
1970 10-03-2020 20:05:00 12.8 C 10.19 g/m*3 12.8 C 17.7 km/h
1971 10-03-2020 20:10:00 12.8 C 10.19 g/m*3 12.8 C 11.3 km/h
1972 10-03-2020 20:15:00 12.8 C 10.19 g/m*3 12.8 C 20.9 km/h
1973 10-03-2020 20:20:00 12.9 C 10.26 g/m*3 12.9 C 19.3 km/h
1974 10-03-2020 20:25:00 12.9 C 10.26 g/m*3 12.9 C 11.3 km/h
1975 10-03-2020 20:30:00 12.9 C 10.26 g/m*3 12.9 C 20.9 km/h
Sensor: Nr:Datum:Temp:Abs-Feuchte:Windchill:Wind:
Aussen-T/F 1976 10-03-2020 20:35:00 13 C 10.32 g/m*3 13 C 29 km/h
1977 10-03-2020 20:40:00 13.1 C 10.27 g/m*3 13.1 C 19.3 km/h
1978 10-03-2020 20:45:00 13.1 C 10.27 g/m*3 13.1 C 17.7 km/h
1979 10-03-2020 20:50:00 13.1 C 10.27 g/m*3 13.1 C 24.1 km/h
1980 10-03-2020 20:55:00 13.2 C 10.33 g/m*3 13.2 C 20.9 km/h
1981 10-03-2020 21:00:00 13.2 C 10.33 g/m*3 13.2 C 17.7 km/h
1982 10-03-2020 21:05:00 13.2 C 10.33 g/m*3 13.2 C 14.5 km/h
1983 10-03-2020 21:10:00 13.2 C 10.33 g/m*3 13.2 C 14.5 km/h
1984 10-03-2020 21:15:00 13.3 C 10.4 g/m*3 13.3 C 25.7 km/h
1985 10-03-2020 21:20:00 13.3 C 10.4 g/m*3 13.3 C 17.7 km/h
1986 10-03-2020 21:25:00 13.4 C 10.46 g/m*3 13.4 C 19.3 km/h
1987 10-03-2020 21:30:00 13.4 C 10.46 g/m*3 13.4 C 17.7 km/h
1988 10-03-2020 21:35:00 13.4 C 10.46 g/m*3 13.4 C 14.5 km/h
1989 10-03-2020 21:40:00 13.4 C 10.46 g/m*3 13.4 C 17.7 km/h
1990 10-03-2020 21:45:00 13.4 C 10.46 g/m*3 13.4 C 25.7 km/h
1991 10-03-2020 21:50:00 13.4 C 10.46 g/m*3 13.4 C 19.3 km/h
1992 10-03-2020 21:55:00 13.4 C 10.46 g/m*3 13.4 C 17.7 km/h
1993 10-03-2020 22:00:00 13.4 C 10.46 g/m*3 13.4 C 19.3 km/h
1994 10-03-2020 22:05:00 13.4 C 10.46 g/m*3 13.4 C 12.9 km/h
1995 10-03-2020 22:10:00 13.4 C 10.58 g/m*3 13.4 C 24.1 km/h
1996 10-03-2020 22:15:00 13.4 C 10.58 g/m*3 13.4 C 24.1 km/h
1997 10-03-2020 22:20:00 13.3 C 10.51 g/m*3 13.3 C 16.1 km/h
1998 10-03-2020 22:25:00 13.2 C 10.56 g/m*3 13.2 C 19.3 km/h
1999 10-03-2020 22:30:00 13.2 C 10.56 g/m*3 13.2 C 17.7 km/h
2000 10-03-2020 22:35:00 13.2 C 10.56 g/m*3 13.2 C 25.7 km/h
Sensor: Nr:Datum:Temp:Abs-Feuchte:Windchill:Wind:
Aussen-T/F 2001 10-03-2020 22:40:00 13.2 C 10.56 g/m*3 13.2 C 20.9 km/h
2002 10-03-2020 22:45:00 13.2 C 10.56 g/m*3 13.2 C 12.9 km/h
2003 10-03-2020 22:50:00 13.2 C 10.56 g/m*3 13.2 C 11.3 km/h
2004 10-03-2020 22:55:00 13.2 C 10.56 g/m*3 13.2 C 12.9 km/h
2005 10-03-2020 23:00:00 13.1 C 10.5 g/m*3 13.1 C 9.7 km/h
2006 10-03-2020 23:05:00 13.1 C 10.5 g/m*3 13.1 C 14.5 km/h
2007 10-03-2020 23:10:00 13.2 C 10.56 g/m*3 13.2 C 17.7 km/h
2008 10-03-2020 23:15:00 13.3 C 10.63 g/m*3 13.3 C 12.9 km/h
2009 10-03-2020 23:20:00 13.3 C 10.51 g/m*3 13.3 C 16.1 km/h
2010 10-03-2020 23:25:00 13.3 C 10.51 g/m*3 13.3 C 16.1 km/h
2011 10-03-2020 23:30:00 13.3 C 10.51 g/m*3 13.3 C 20.9 km/h
2012 10-03-2020 23:35:00 13.3 C 10.51 g/m*3 13.3 C 17.7 km/h
2013 10-03-2020 23:40:00 13.3 C 10.51 g/m*3 13.3 C 17.7 km/h
2014 10-03-2020 23:45:00 13.3 C 10.51 g/m*3 13.3 C 14.5 km/h
2015 10-03-2020 23:50:00 13.3 C 10.51 g/m*3 13.3 C 12.9 km/h
2016 10-03-2020 23:55:00 13.3 C 10.51 g/m*3 13.3 C 17.7 km/h

Legende:
   Min
   Max


Maximal/Minimal-Werte vom 04.03.2020 - 10.03.2020

Sensor Min Max Avg
Temp
(Aussen-T/F)
2.9 °C
04-03-2020  01:05:00
13.4 °C
10-03-2020  21:25:00
7.37 °C
Abs-Feuchte
(Aussen-T/F)
5.07 g/m*3
07-03-2020  14:55:00
10.63 g/m*3
10-03-2020  23:15:00
6.78 g/m*3
Windchill
(Aussen-T/F)
-0.39 C
04-03-2020  02:30:00
13.4 C
10-03-2020  21:25:00
6.36 C

Die Daten stammen von einer Davis Vantage Pro 2 Wetter-Station und werden unter Linux mit der Software wview2wettercgi und aufbereitet. Alle Angaben erfolgen ohne Gewähr für ihre Vollständigkeit oder Richtigkeit.
Kontakt: Rainer Krienke krienke@uni-koblenz.de . Meine Webseiten an der Uni Koblenz oder privat.
Version: $Revision: 0.78 $